<?xml version="1.0" encoding="UTF-8" standalone="no" ?>
<gpx xmlns="http://www.topografix.com/GPX/1/1" xmlns:xsi="http://www.w3.org/2001/XMLSchema-instance" xsi:schemaLocation="http://www.topografix.com/GPX/1/1 http://www.topografix.com/GPX/1/1/gpx.xsd" version="1.1" creator="VisuGPX - https://www.visugpx.com">
  <metadata>
    <name>Mercantour : mont Pelat depuis Allos</name>
  </metadata>
  <trk>
    <name><![CDATA[05-AOU-19 14:20:21]]></name>
    <trkseg>
      <trkpt lat="44.24544" lon="6.69804">
        <ele>2085.24</ele>
        <time>2019-08-05T06:53:38Z</time>
      </trkpt>
      <trkpt lat="44.24544" lon="6.69804">
        <ele>2090.52</ele>
        <time>2019-08-05T06:53:39Z</time>
      </trkpt>
      <trkpt lat="44.24544" lon="6.69804">
        <ele>2090.04</ele>
        <time>2019-08-05T06:53:40Z</time>
      </trkpt>
      <trkpt lat="44.24545" lon="6.69804">
        <ele>2093.89</ele>
        <time>2019-08-05T06:53:42Z</time>
      </trkpt>
      <trkpt lat="44.24545" lon="6.69805">
        <ele>2092.45</ele>
        <time>2019-08-05T06:53:43Z</time>
      </trkpt>
      <trkpt lat="44.24546" lon="6.69805">
        <ele>2096.77</ele>
        <time>2019-08-05T06:53:44Z</time>
      </trkpt>
      <trkpt lat="44.24546" lon="6.69805">
        <ele>2095.33</ele>
        <time>2019-08-05T06:53:45Z</time>
      </trkpt>
      <trkpt lat="44.24546" lon="6.69806">
        <ele>2101.58</ele>
        <time>2019-08-05T06:53:46Z</time>
      </trkpt>
      <trkpt lat="44.24547" lon="6.69806">
        <ele>2099.66</ele>
        <time>2019-08-05T06:53:47Z</time>
      </trkpt>
      <trkpt lat="44.24548" lon="6.69806">
        <ele>2102.54</ele>
        <time>2019-08-05T06:53:51Z</time>
      </trkpt>
      <trkpt lat="44.24549" lon="6.69806">
        <ele>2109.75</ele>
        <time>2019-08-05T06:53:54Z</time>
      </trkpt>
      <trkpt lat="44.24549" lon="6.69806">
        <ele>2107.35</ele>
        <time>2019-08-05T06:53:55Z</time>
      </trkpt>
      <trkpt lat="44.2455" lon="6.69806">
        <ele>2112.15</ele>
        <time>2019-08-05T06:53:57Z</time>
      </trkpt>
      <trkpt lat="44.24551" lon="6.69807">
        <ele>2110.23</ele>
        <time>2019-08-05T06:53:58Z</time>
      </trkpt>
      <trkpt lat="44.24552" lon="6.69805">
        <ele>2114.08</ele>
        <time>2019-08-05T06:54:02Z</time>
      </trkpt>
      <trkpt lat="44.24552" lon="6.69805">
        <ele>2114.08</ele>
        <time>2019-08-05T06:54:03Z</time>
      </trkpt>
      <trkpt lat="44.24553" lon="6.69804">
        <ele>2117.44</ele>
        <time>2019-08-05T06:54:05Z</time>
      </trkpt>
      <trkpt lat="44.24552" lon="6.69802">
        <ele>2120.32</ele>
        <time>2019-08-05T06:54:12Z</time>
      </trkpt>
      <trkpt lat="44.24551" lon="6.698">
        <ele>2121.77</ele>
        <time>2019-08-05T06:54:16Z</time>
      </trkpt>
      <trkpt lat="44.24551" lon="6.69797">
        <ele>2125.13</ele>
        <time>2019-08-05T06:54:21Z</time>
      </trkpt>
      <trkpt lat="44.24544" lon="6.69804">
        <ele>2128.02</ele>
        <time>2019-08-05T06:54:35Z</time>
      </trkpt>
      <trkpt lat="44.24539" lon="6.6981">
        <ele>2128.5</ele>
        <time>2019-08-05T06:54:58Z</time>
      </trkpt>
      <trkpt lat="44.24537" lon="6.69811">
        <ele>2128.98</ele>
        <time>2019-08-05T06:55:08Z</time>
      </trkpt>
      <trkpt lat="44.24537" lon="6.69812">
        <ele>2128.02</ele>
        <time>2019-08-05T06:55:22Z</time>
      </trkpt>
      <trkpt lat="44.24533" lon="6.69817">
        <ele>2127.53</ele>
        <time>2019-08-05T06:55:45Z</time>
      </trkpt>
      <trkpt lat="44.24542" lon="6.69815">
        <ele>2127.05</ele>
        <time>2019-08-05T06:56:09Z</time>
      </trkpt>
      <trkpt lat="44.24536" lon="6.69808">
        <ele>2128.98</ele>
        <time>2019-08-05T06:56:23Z</time>
      </trkpt>
      <trkpt lat="44.24534" lon="6.6981">
        <ele>2129.46</ele>
        <time>2019-08-05T06:56:25Z</time>
      </trkpt>
      <trkpt lat="44.24528" lon="6.69802">
        <ele>2128.98</ele>
        <time>2019-08-05T06:56:39Z</time>
      </trkpt>
      <trkpt lat="44.24509" lon="6.69789">
        <ele>2128.98</ele>
        <time>2019-08-05T06:56:56Z</time>
      </trkpt>
      <trkpt lat="44.24498" lon="6.69778">
        <ele>2129.46</ele>
        <time>2019-08-05T06:57:10Z</time>
      </trkpt>
      <trkpt lat="44.24494" lon="6.69774">
        <ele>2128.98</ele>
        <time>2019-08-05T06:57:17Z</time>
      </trkpt>
      <trkpt lat="44.24488" lon="6.6977">
        <ele>2128.5</ele>
        <time>2019-08-05T06:57:21Z</time>
      </trkpt>
      <trkpt lat="44.24472" lon="6.69764">
        <ele>2128.98</ele>
        <time>2019-08-05T06:57:35Z</time>
      </trkpt>
      <trkpt lat="44.24463" lon="6.6976">
        <ele>2129.46</ele>
        <time>2019-08-05T06:57:50Z</time>
      </trkpt>
      <trkpt lat="44.24461" lon="6.69761">
        <ele>2129.46</ele>
        <time>2019-08-05T06:57:55Z</time>
      </trkpt>
      <trkpt lat="44.24444" lon="6.69759">
        <ele>2130.42</ele>
        <time>2019-08-05T06:58:11Z</time>
      </trkpt>
      <trkpt lat="44.24436" lon="6.69748">
        <ele>2131.86</ele>
        <time>2019-08-05T06:58:25Z</time>
      </trkpt>
      <trkpt lat="44.24429" lon="6.69738">
        <ele>2133.78</ele>
        <time>2019-08-05T06:58:39Z</time>
      </trkpt>
      <trkpt lat="44.24423" lon="6.69737">
        <ele>2135.23</ele>
        <time>2019-08-05T06:58:51Z</time>
      </trkpt>
      <trkpt lat="44.24412" lon="6.69747">
        <ele>2135.23</ele>
        <time>2019-08-05T06:59:05Z</time>
      </trkpt>
      <trkpt lat="44.2441" lon="6.69748">
        <ele>2135.23</ele>
        <time>2019-08-05T06:59:07Z</time>
      </trkpt>
      <trkpt lat="44.24397" lon="6.69753">
        <ele>2135.23</ele>
        <time>2019-08-05T06:59:20Z</time>
      </trkpt>
      <trkpt lat="44.24387" lon="6.69763">
        <ele>2137.63</ele>
        <time>2019-08-05T06:59:34Z</time>
      </trkpt>
      <trkpt lat="44.24376" lon="6.69767">
        <ele>2138.59</ele>
        <time>2019-08-05T06:59:47Z</time>
      </trkpt>
      <trkpt lat="44.24365" lon="6.69775">
        <ele>2140.03</ele>
        <time>2019-08-05T07:00:01Z</time>
      </trkpt>
      <trkpt lat="44.24351" lon="6.69774">
        <ele>2141.47</ele>
        <time>2019-08-05T07:00:17Z</time>
      </trkpt>
      <trkpt lat="44.24338" lon="6.69776">
        <ele>2143.88</ele>
        <time>2019-08-05T07:00:34Z</time>
      </trkpt>
      <trkpt lat="44.24337" lon="6.69786">
        <ele>2146.28</ele>
        <time>2019-08-05T07:00:46Z</time>
      </trkpt>
      <trkpt lat="44.24342" lon="6.69801">
        <ele>2147.72</ele>
        <time>2019-08-05T07:01:01Z</time>
      </trkpt>
      <trkpt lat="44.24344" lon="6.69811">
        <ele>2149.65</ele>
        <time>2019-08-05T07:01:15Z</time>
      </trkpt>
      <trkpt lat="44.24344" lon="6.69816">
        <ele>2149.65</ele>
        <time>2019-08-05T07:01:30Z</time>
      </trkpt>
      <trkpt lat="44.24343" lon="6.69827">
        <ele>2149.65</ele>
        <time>2019-08-05T07:01:45Z</time>
      </trkpt>
      <trkpt lat="44.24343" lon="6.69822">
        <ele>2149.16</ele>
        <time>2019-08-05T07:02:02Z</time>
      </trkpt>
      <trkpt lat="44.24342" lon="6.69828">
        <ele>2149.65</ele>
        <time>2019-08-05T07:02:21Z</time>
      </trkpt>
      <trkpt lat="44.24341" lon="6.6983">
        <ele>2150.61</ele>
        <time>2019-08-05T07:02:24Z</time>
      </trkpt>
      <trkpt lat="44.24335" lon="6.6985">
        <ele>2149.65</ele>
        <time>2019-08-05T07:02:39Z</time>
      </trkpt>
      <trkpt lat="44.24333" lon="6.6986">
        <ele>2149.16</ele>
        <time>2019-08-05T07:02:48Z</time>
      </trkpt>
      <trkpt lat="44.24331" lon="6.6987">
        <ele>2148.2</ele>
        <time>2019-08-05T07:03:00Z</time>
      </trkpt>
      <trkpt lat="44.24326" lon="6.69894">
        <ele>2146.28</ele>
        <time>2019-08-05T07:03:17Z</time>
      </trkpt>
      <trkpt lat="44.24325" lon="6.699">
        <ele>2145.8</ele>
        <time>2019-08-05T07:03:21Z</time>
      </trkpt>
      <trkpt lat="44.24321" lon="6.6992">
        <ele>2143.88</ele>
        <time>2019-08-05T07:03:36Z</time>
      </trkpt>
      <trkpt lat="44.24322" lon="6.69927">
        <ele>2144.36</ele>
        <time>2019-08-05T07:03:49Z</time>
      </trkpt>
      <trkpt lat="44.24314" lon="6.69957">
        <ele>2144.36</ele>
        <time>2019-08-05T07:04:07Z</time>
      </trkpt>
      <trkpt lat="44.24309" lon="6.69985">
        <ele>2144.84</ele>
        <time>2019-08-05T07:04:23Z</time>
      </trkpt>
      <trkpt lat="44.24304" lon="6.70009">
        <ele>2145.32</ele>
        <time>2019-08-05T07:04:40Z</time>
      </trkpt>
      <trkpt lat="44.24298" lon="6.70023">
        <ele>2145.8</ele>
        <time>2019-08-05T07:04:54Z</time>
      </trkpt>
      <trkpt lat="44.24297" lon="6.70025">
        <ele>2145.8</ele>
        <time>2019-08-05T07:04:56Z</time>
      </trkpt>
      <trkpt lat="44.24296" lon="6.70033">
        <ele>2144.84</ele>
        <time>2019-08-05T07:05:01Z</time>
      </trkpt>
      <trkpt lat="44.24296" lon="6.70047">
        <ele>2145.8</ele>
        <time>2019-08-05T07:05:10Z</time>
      </trkpt>
      <trkpt lat="44.24299" lon="6.70067">
        <ele>2147.24</ele>
        <time>2019-08-05T07:05:24Z</time>
      </trkpt>
      <trkpt lat="44.24305" lon="6.70076">
        <ele>2147.72</ele>
        <time>2019-08-05T07:05:31Z</time>
      </trkpt>
      <trkpt lat="44.24306" lon="6.70079">
        <ele>2147.72</ele>
        <time>2019-08-05T07:05:33Z</time>
      </trkpt>
      <trkpt lat="44.24316" lon="6.70081">
        <ele>2148.2</ele>
        <time>2019-08-05T07:05:46Z</time>
      </trkpt>
      <trkpt lat="44.24316" lon="6.70079">
        <ele>2147.24</ele>
        <time>2019-08-05T07:05:48Z</time>
      </trkpt>
      <trkpt lat="44.24316" lon="6.70068">
        <ele>2147.24</ele>
        <time>2019-08-05T07:06:18Z</time>
      </trkpt>
      <trkpt lat="44.2432" lon="6.7008">
        <ele>2148.68</ele>
        <time>2019-08-05T07:06:35Z</time>
      </trkpt>
      <trkpt lat="44.24323" lon="6.70094">
        <ele>2149.16</ele>
        <time>2019-08-05T07:06:43Z</time>
      </trkpt>
      <trkpt lat="44.24323" lon="6.70103">
        <ele>2148.68</ele>
        <time>2019-08-05T07:06:46Z</time>
      </trkpt>
      <trkpt lat="44.24328" lon="6.70128">
        <ele>2149.65</ele>
        <time>2019-08-05T07:07:01Z</time>
      </trkpt>
      <trkpt lat="44.24341" lon="6.70144">
        <ele>2150.61</ele>
        <time>2019-08-05T07:07:15Z</time>
      </trkpt>
      <trkpt lat="44.24354" lon="6.70164">
        <ele>2151.57</ele>
        <time>2019-08-05T07:07:28Z</time>
      </trkpt>
      <trkpt lat="44.24356" lon="6.70167">
        <ele>2152.05</ele>
        <time>2019-08-05T07:07:31Z</time>
      </trkpt>
      <trkpt lat="44.24366" lon="6.70183">
        <ele>2152.05</ele>
        <time>2019-08-05T07:07:46Z</time>
      </trkpt>
      <trkpt lat="44.24374" lon="6.70191">
        <ele>2152.53</ele>
        <time>2019-08-05T07:07:56Z</time>
      </trkpt>
      <trkpt lat="44.24378" lon="6.70195">
        <ele>2153.01</ele>
        <time>2019-08-05T07:08:00Z</time>
      </trkpt>
      <trkpt lat="44.2438" lon="6.70198">
        <ele>2152.53</ele>
        <time>2019-08-05T07:08:03Z</time>
      </trkpt>
      <trkpt lat="44.2439" lon="6.70211">
        <ele>2153.01</ele>
        <time>2019-08-05T07:08:15Z</time>
      </trkpt>
      <trkpt lat="44.24405" lon="6.70226">
        <ele>2153.49</ele>
        <time>2019-08-05T07:08:30Z</time>
      </trkpt>
      <trkpt lat="44.2441" lon="6.70239">
        <ele>2154.45</ele>
        <time>2019-08-05T07:08:41Z</time>
      </trkpt>
      <trkpt lat="44.24407" lon="6.70261">
        <ele>2155.89</ele>
        <time>2019-08-05T07:08:55Z</time>
      </trkpt>
      <trkpt lat="44.24405" lon="6.70271">
        <ele>2156.37</ele>
        <time>2019-08-05T07:09:03Z</time>
      </trkpt>
      <trkpt lat="44.24398" lon="6.70288">
        <ele>2158.78</ele>
        <time>2019-08-05T07:09:19Z</time>
      </trkpt>
      <trkpt lat="44.24393" lon="6.70301">
        <ele>2160.22</ele>
        <time>2019-08-05T07:09:32Z</time>
      </trkpt>
      <trkpt lat="44.24382" lon="6.70317">
        <ele>2161.66</ele>
        <time>2019-08-05T07:09:48Z</time>
      </trkpt>
      <trkpt lat="44.24373" lon="6.70332">
        <ele>2163.1</ele>
        <time>2019-08-05T07:10:04Z</time>
      </trkpt>
      <trkpt lat="44.24371" lon="6.70336">
        <ele>2163.58</ele>
        <time>2019-08-05T07:10:06Z</time>
      </trkpt>
      <trkpt lat="44.24366" lon="6.70357">
        <ele>2166.47</ele>
        <time>2019-08-05T07:10:24Z</time>
      </trkpt>
      <trkpt lat="44.24358" lon="6.70369">
        <ele>2167.43</ele>
        <time>2019-08-05T07:10:40Z</time>
      </trkpt>
      <trkpt lat="44.24351" lon="6.7038">
        <ele>2169.35</ele>
        <time>2019-08-05T07:10:54Z</time>
      </trkpt>
      <trkpt lat="44.24342" lon="6.70391">
        <ele>2171.27</ele>
        <time>2019-08-05T07:11:11Z</time>
      </trkpt>
      <trkpt lat="44.24332" lon="6.70402">
        <ele>2172.72</ele>
        <time>2019-08-05T07:11:25Z</time>
      </trkpt>
      <trkpt lat="44.24321" lon="6.70405">
        <ele>2174.16</ele>
        <time>2019-08-05T07:11:40Z</time>
      </trkpt>
      <trkpt lat="44.24309" lon="6.70411">
        <ele>2175.6</ele>
        <time>2019-08-05T07:11:54Z</time>
      </trkpt>
      <trkpt lat="44.24299" lon="6.70413">
        <ele>2177.04</ele>
        <time>2019-08-05T07:12:07Z</time>
      </trkpt>
      <trkpt lat="44.24285" lon="6.70416">
        <ele>2178.48</ele>
        <time>2019-08-05T07:12:26Z</time>
      </trkpt>
      <trkpt lat="44.24273" lon="6.70417">
        <ele>2180.41</ele>
        <time>2019-08-05T07:12:40Z</time>
      </trkpt>
      <trkpt lat="44.24272" lon="6.70423">
        <ele>2181.37</ele>
        <time>2019-08-05T07:12:54Z</time>
      </trkpt>
      <trkpt lat="44.24284" lon="6.70431">
        <ele>2183.29</ele>
        <time>2019-08-05T07:13:09Z</time>
      </trkpt>
      <trkpt lat="44.24295" lon="6.7044">
        <ele>2185.21</ele>
        <time>2019-08-05T07:13:24Z</time>
      </trkpt>
      <trkpt lat="44.24308" lon="6.70441">
        <ele>2187.62</ele>
        <time>2019-08-05T07:13:44Z</time>
      </trkpt>
      <trkpt lat="44.2432" lon="6.70448">
        <ele>2189.06</ele>
        <time>2019-08-05T07:14:02Z</time>
      </trkpt>
      <trkpt lat="44.24332" lon="6.70451">
        <ele>2190.98</ele>
        <time>2019-08-05T07:14:15Z</time>
      </trkpt>
      <trkpt lat="44.24341" lon="6.70456">
        <ele>2192.42</ele>
        <time>2019-08-05T07:14:31Z</time>
      </trkpt>
      <trkpt lat="44.24351" lon="6.70459">
        <ele>2194.35</ele>
        <time>2019-08-05T07:14:43Z</time>
      </trkpt>
      <trkpt lat="44.24365" lon="6.70455">
        <ele>2195.79</ele>
        <time>2019-08-05T07:15:00Z</time>
      </trkpt>
      <trkpt lat="44.24378" lon="6.70452">
        <ele>2197.23</ele>
        <time>2019-08-05T07:15:18Z</time>
      </trkpt>
      <trkpt lat="44.24389" lon="6.70444">
        <ele>2199.15</ele>
        <time>2019-08-05T07:15:35Z</time>
      </trkpt>
      <trkpt lat="44.24401" lon="6.70435">
        <ele>2201.08</ele>
        <time>2019-08-05T07:15:52Z</time>
      </trkpt>
      <trkpt lat="44.24412" lon="6.70428">
        <ele>2202.52</ele>
        <time>2019-08-05T07:16:06Z</time>
      </trkpt>
      <trkpt lat="44.24422" lon="6.70431">
        <ele>2203.96</ele>
        <time>2019-08-05T07:16:20Z</time>
      </trkpt>
      <trkpt lat="44.2443" lon="6.70437">
        <ele>2206.36</ele>
        <time>2019-08-05T07:16:33Z</time>
      </trkpt>
      <trkpt lat="44.24435" lon="6.70442">
        <ele>2206.84</ele>
        <time>2019-08-05T07:16:46Z</time>
      </trkpt>
      <trkpt lat="44.24443" lon="6.70445">
        <ele>2207.81</ele>
        <time>2019-08-05T07:16:57Z</time>
      </trkpt>
      <trkpt lat="44.24456" lon="6.7044">
        <ele>2209.73</ele>
        <time>2019-08-05T07:17:11Z</time>
      </trkpt>
      <trkpt lat="44.24456" lon="6.7044">
        <ele>2209.73</ele>
        <time>2019-08-05T07:17:12Z</time>
      </trkpt>
      <trkpt lat="44.24466" lon="6.70423">
        <ele>2211.17</ele>
        <time>2019-08-05T07:17:30Z</time>
      </trkpt>
      <trkpt lat="44.24473" lon="6.70412">
        <ele>2212.61</ele>
        <time>2019-08-05T07:17:45Z</time>
      </trkpt>
      <trkpt lat="44.24488" lon="6.7041">
        <ele>2215.01</ele>
        <time>2019-08-05T07:18:01Z</time>
      </trkpt>
      <trkpt lat="44.24497" lon="6.70401">
        <ele>2216.94</ele>
        <time>2019-08-05T07:18:17Z</time>
      </trkpt>
      <trkpt lat="44.24505" lon="6.70393">
        <ele>2217.9</ele>
        <time>2019-08-05T07:18:31Z</time>
      </trkpt>
      <trkpt lat="44.24517" lon="6.70392">
        <ele>2219.82</ele>
        <time>2019-08-05T07:18:47Z</time>
      </trkpt>
      <trkpt lat="44.24528" lon="6.70388">
        <ele>2221.26</ele>
        <time>2019-08-05T07:19:03Z</time>
      </trkpt>
      <trkpt lat="44.24535" lon="6.70393">
        <ele>2223.19</ele>
        <time>2019-08-05T07:19:19Z</time>
      </trkpt>
      <trkpt lat="44.24527" lon="6.70395">
        <ele>2225.11</ele>
        <time>2019-08-05T07:19:34Z</time>
      </trkpt>
      <trkpt lat="44.24519" lon="6.70408">
        <ele>2226.07</ele>
        <time>2019-08-05T07:19:51Z</time>
      </trkpt>
      <trkpt lat="44.24517" lon="6.70418">
        <ele>2227.51</ele>
        <time>2019-08-05T07:20:04Z</time>
      </trkpt>
      <trkpt lat="44.24513" lon="6.70436">
        <ele>2229.43</ele>
        <time>2019-08-05T07:20:20Z</time>
      </trkpt>
      <trkpt lat="44.24505" lon="6.70451">
        <ele>2230.4</ele>
        <time>2019-08-05T07:20:33Z</time>
      </trkpt>
      <trkpt lat="44.24499" lon="6.70462">
        <ele>2232.32</ele>
        <time>2019-08-05T07:20:49Z</time>
      </trkpt>
      <trkpt lat="44.24493" lon="6.70474">
        <ele>2234.24</ele>
        <time>2019-08-05T07:21:05Z</time>
      </trkpt>
      <trkpt lat="44.2449" lon="6.70493">
        <ele>2235.68</ele>
        <time>2019-08-05T07:21:21Z</time>
      </trkpt>
      <trkpt lat="44.24484" lon="6.70511">
        <ele>2237.13</ele>
        <time>2019-08-05T07:21:38Z</time>
      </trkpt>
      <trkpt lat="44.24478" lon="6.70525">
        <ele>2239.53</ele>
        <time>2019-08-05T07:21:53Z</time>
      </trkpt>
      <trkpt lat="44.24476" lon="6.70536">
        <ele>2240.49</ele>
        <time>2019-08-05T07:22:04Z</time>
      </trkpt>
      <trkpt lat="44.24493" lon="6.70526">
        <ele>2242.41</ele>
        <time>2019-08-05T07:22:19Z</time>
      </trkpt>
      <trkpt lat="44.24502" lon="6.7052">
        <ele>2244.33</ele>
        <time>2019-08-05T07:22:34Z</time>
      </trkpt>
      <trkpt lat="44.24512" lon="6.70512">
        <ele>2245.78</ele>
        <time>2019-08-05T07:22:52Z</time>
      </trkpt>
      <trkpt lat="44.24523" lon="6.705">
        <ele>2247.22</ele>
        <time>2019-08-05T07:23:09Z</time>
      </trkpt>
      <trkpt lat="44.24534" lon="6.70494">
        <ele>2249.14</ele>
        <time>2019-08-05T07:23:22Z</time>
      </trkpt>
      <trkpt lat="44.24544" lon="6.70492">
        <ele>2250.1</ele>
        <time>2019-08-05T07:23:37Z</time>
      </trkpt>
      <trkpt lat="44.24556" lon="6.70491">
        <ele>2252.03</ele>
        <time>2019-08-05T07:23:50Z</time>
      </trkpt>
      <trkpt lat="44.24564" lon="6.70483">
        <ele>2253.47</ele>
        <time>2019-08-05T07:24:04Z</time>
      </trkpt>
      <trkpt lat="44.24572" lon="6.70475">
        <ele>2256.35</ele>
        <time>2019-08-05T07:24:19Z</time>
      </trkpt>
      <trkpt lat="44.2458" lon="6.70464">
        <ele>2257.31</ele>
        <time>2019-08-05T07:24:34Z</time>
      </trkpt>
      <trkpt lat="44.24589" lon="6.70459">
        <ele>2258.27</ele>
        <time>2019-08-05T07:24:50Z</time>
      </trkpt>
      <trkpt lat="44.24601" lon="6.70464">
        <ele>2259.72</ele>
        <time>2019-08-05T07:25:06Z</time>
      </trkpt>
      <trkpt lat="44.24611" lon="6.70466">
        <ele>2260.68</ele>
        <time>2019-08-05T07:25:24Z</time>
      </trkpt>
      <trkpt lat="44.24623" lon="6.70476">
        <ele>2261.64</ele>
        <time>2019-08-05T07:25:40Z</time>
      </trkpt>
      <trkpt lat="44.24632" lon="6.70486">
        <ele>2261.64</ele>
        <time>2019-08-05T07:25:54Z</time>
      </trkpt>
      <trkpt lat="44.24641" lon="6.70498">
        <ele>2263.08</ele>
        <time>2019-08-05T07:26:08Z</time>
      </trkpt>
      <trkpt lat="44.24645" lon="6.70519">
        <ele>2264.52</ele>
        <time>2019-08-05T07:26:23Z</time>
      </trkpt>
      <trkpt lat="44.2465" lon="6.70532">
        <ele>2264.52</ele>
        <time>2019-08-05T07:26:41Z</time>
      </trkpt>
      <trkpt lat="44.24653" lon="6.70558">
        <ele>2264.52</ele>
        <time>2019-08-05T07:26:59Z</time>
      </trkpt>
      <trkpt lat="44.24655" lon="6.70567">
        <ele>2264.52</ele>
        <time>2019-08-05T07:27:05Z</time>
      </trkpt>
      <trkpt lat="44.24658" lon="6.70575">
        <ele>2264.04</ele>
        <time>2019-08-05T07:27:10Z</time>
      </trkpt>
      <trkpt lat="44.24671" lon="6.70593">
        <ele>2264.04</ele>
        <time>2019-08-05T07:27:26Z</time>
      </trkpt>
      <trkpt lat="44.24677" lon="6.70608">
        <ele>2263.08</ele>
        <time>2019-08-05T07:27:38Z</time>
      </trkpt>
      <trkpt lat="44.24677" lon="6.7061">
        <ele>2265.48</ele>
        <time>2019-08-05T07:27:39Z</time>
      </trkpt>
      <trkpt lat="44.24678" lon="6.70612">
        <ele>2264.52</ele>
        <time>2019-08-05T07:27:41Z</time>
      </trkpt>
      <trkpt lat="44.24683" lon="6.70639">
        <ele>2265</ele>
        <time>2019-08-05T07:27:58Z</time>
      </trkpt>
      <trkpt lat="44.24685" lon="6.70643">
        <ele>2265.48</ele>
        <time>2019-08-05T07:28:01Z</time>
      </trkpt>
      <trkpt lat="44.24695" lon="6.7066">
        <ele>2266.93</ele>
        <time>2019-08-05T07:28:16Z</time>
      </trkpt>
      <trkpt lat="44.24713" lon="6.70674">
        <ele>2266.93</ele>
        <time>2019-08-05T07:28:32Z</time>
      </trkpt>
      <trkpt lat="44.24724" lon="6.70689">
        <ele>2266.93</ele>
        <time>2019-08-05T07:28:47Z</time>
      </trkpt>
      <trkpt lat="44.24725" lon="6.70692">
        <ele>2266.45</ele>
        <time>2019-08-05T07:28:50Z</time>
      </trkpt>
      <trkpt lat="44.24729" lon="6.70716">
        <ele>2267.41</ele>
        <time>2019-08-05T07:29:06Z</time>
      </trkpt>
      <trkpt lat="44.24734" lon="6.70733">
        <ele>2266.93</ele>
        <time>2019-08-05T07:29:17Z</time>
      </trkpt>
      <trkpt lat="44.24735" lon="6.70735">
        <ele>2268.37</ele>
        <time>2019-08-05T07:29:19Z</time>
      </trkpt>
      <trkpt lat="44.2474" lon="6.70752">
        <ele>2267.89</ele>
        <time>2019-08-05T07:29:33Z</time>
      </trkpt>
      <trkpt lat="44.24747" lon="6.70768">
        <ele>2268.85</ele>
        <time>2019-08-05T07:29:44Z</time>
      </trkpt>
      <trkpt lat="44.24759" lon="6.70788">
        <ele>2268.37</ele>
        <time>2019-08-05T07:30:03Z</time>
      </trkpt>
      <trkpt lat="44.24771" lon="6.70807">
        <ele>2269.33</ele>
        <time>2019-08-05T07:30:17Z</time>
      </trkpt>
      <trkpt lat="44.2478" lon="6.70827">
        <ele>2270.29</ele>
        <time>2019-08-05T07:30:31Z</time>
      </trkpt>
      <trkpt lat="44.24783" lon="6.70844">
        <ele>2271.25</ele>
        <time>2019-08-05T07:30:42Z</time>
      </trkpt>
      <trkpt lat="44.24789" lon="6.7086">
        <ele>2271.73</ele>
        <time>2019-08-05T07:30:54Z</time>
      </trkpt>
      <trkpt lat="44.24792" lon="6.70861">
        <ele>2271.73</ele>
        <time>2019-08-05T07:30:57Z</time>
      </trkpt>
      <trkpt lat="44.24798" lon="6.70856">
        <ele>2271.73</ele>
        <time>2019-08-05T07:31:00Z</time>
      </trkpt>
      <trkpt lat="44.24807" lon="6.70856">
        <ele>2271.73</ele>
        <time>2019-08-05T07:31:14Z</time>
      </trkpt>
      <trkpt lat="44.24818" lon="6.70864">
        <ele>2269.81</ele>
        <time>2019-08-05T07:31:30Z</time>
      </trkpt>
      <trkpt lat="44.24821" lon="6.70873">
        <ele>2269.33</ele>
        <time>2019-08-05T07:31:36Z</time>
      </trkpt>
      <trkpt lat="44.24827" lon="6.70888">
        <ele>2268.37</ele>
        <time>2019-08-05T07:31:44Z</time>
      </trkpt>
      <trkpt lat="44.24827" lon="6.7089">
        <ele>2268.85</ele>
        <time>2019-08-05T07:31:45Z</time>
      </trkpt>
      <trkpt lat="44.24828" lon="6.70892">
        <ele>2268.37</ele>
        <time>2019-08-05T07:31:46Z</time>
      </trkpt>
      <trkpt lat="44.24841" lon="6.70903">
        <ele>2268.85</ele>
        <time>2019-08-05T07:32:02Z</time>
      </trkpt>
      <trkpt lat="44.24843" lon="6.70904">
        <ele>2268.85</ele>
        <time>2019-08-05T07:32:04Z</time>
      </trkpt>
      <trkpt lat="44.24858" lon="6.70914">
        <ele>2267.89</ele>
        <time>2019-08-05T07:32:20Z</time>
      </trkpt>
      <trkpt lat="44.24863" lon="6.70921">
        <ele>2268.37</ele>
        <time>2019-08-05T07:32:32Z</time>
      </trkpt>
      <trkpt lat="44.24869" lon="6.70912">
        <ele>2268.37</ele>
        <time>2019-08-05T07:32:46Z</time>
      </trkpt>
      <trkpt lat="44.24869" lon="6.70899">
        <ele>2270.29</ele>
        <time>2019-08-05T07:32:57Z</time>
      </trkpt>
      <trkpt lat="44.24874" lon="6.70884">
        <ele>2271.73</ele>
        <time>2019-08-05T07:33:09Z</time>
      </trkpt>
      <trkpt lat="44.2489" lon="6.70886">
        <ele>2271.25</ele>
        <time>2019-08-05T07:33:22Z</time>
      </trkpt>
      <trkpt lat="44.24902" lon="6.70878">
        <ele>2273.66</ele>
        <time>2019-08-05T07:33:36Z</time>
      </trkpt>
      <trkpt lat="44.24913" lon="6.70887">
        <ele>2275.1</ele>
        <time>2019-08-05T07:33:50Z</time>
      </trkpt>
      <trkpt lat="44.24922" lon="6.709">
        <ele>2275.58</ele>
        <time>2019-08-05T07:34:05Z</time>
      </trkpt>
      <trkpt lat="44.24929" lon="6.70911">
        <ele>2278.46</ele>
        <time>2019-08-05T07:34:19Z</time>
      </trkpt>
      <trkpt lat="44.24939" lon="6.70919">
        <ele>2279.9</ele>
        <time>2019-08-05T07:34:34Z</time>
      </trkpt>
      <trkpt lat="44.24946" lon="6.7093">
        <ele>2281.83</ele>
        <time>2019-08-05T07:34:49Z</time>
      </trkpt>
      <trkpt lat="44.24957" lon="6.70937">
        <ele>2284.23</ele>
        <time>2019-08-05T07:35:05Z</time>
      </trkpt>
      <trkpt lat="44.24964" lon="6.70947">
        <ele>2286.15</ele>
        <time>2019-08-05T07:35:20Z</time>
      </trkpt>
      <trkpt lat="44.2497" lon="6.70952">
        <ele>2287.11</ele>
        <time>2019-08-05T07:35:28Z</time>
      </trkpt>
      <trkpt lat="44.24978" lon="6.70964">
        <ele>2289.04</ele>
        <time>2019-08-05T07:35:44Z</time>
      </trkpt>
      <trkpt lat="44.24984" lon="6.70971">
        <ele>2290</ele>
        <time>2019-08-05T07:35:57Z</time>
      </trkpt>
      <trkpt lat="44.2499" lon="6.70982">
        <ele>2291.92</ele>
        <time>2019-08-05T07:36:12Z</time>
      </trkpt>
      <trkpt lat="44.25001" lon="6.70993">
        <ele>2293.84</ele>
        <time>2019-08-05T07:36:27Z</time>
      </trkpt>
      <trkpt lat="44.25006" lon="6.71003">
        <ele>2294.8</ele>
        <time>2019-08-05T07:36:39Z</time>
      </trkpt>
      <trkpt lat="44.2501" lon="6.71008">
        <ele>2296.25</ele>
        <time>2019-08-05T07:36:50Z</time>
      </trkpt>
      <trkpt lat="44.25017" lon="6.71017">
        <ele>2298.17</ele>
        <time>2019-08-05T07:37:02Z</time>
      </trkpt>
      <trkpt lat="44.25025" lon="6.71024">
        <ele>2299.61</ele>
        <time>2019-08-05T07:37:16Z</time>
      </trkpt>
      <trkpt lat="44.25029" lon="6.71024">
        <ele>2300.57</ele>
        <time>2019-08-05T07:37:31Z</time>
      </trkpt>
      <trkpt lat="44.25032" lon="6.71025">
        <ele>2301.53</ele>
        <time>2019-08-05T07:38:02Z</time>
      </trkpt>
      <trkpt lat="44.25033" lon="6.71026">
        <ele>2299.13</ele>
        <time>2019-08-05T07:38:04Z</time>
      </trkpt>
      <trkpt lat="44.25033" lon="6.71027">
        <ele>2301.05</ele>
        <time>2019-08-05T07:38:05Z</time>
      </trkpt>
      <trkpt lat="44.25034" lon="6.71028">
        <ele>2302.01</ele>
        <time>2019-08-05T07:38:11Z</time>
      </trkpt>
      <trkpt lat="44.25038" lon="6.71033">
        <ele>2300.09</ele>
        <time>2019-08-05T07:38:29Z</time>
      </trkpt>
      <trkpt lat="44.25042" lon="6.71036">
        <ele>2300.09</ele>
        <time>2019-08-05T07:38:41Z</time>
      </trkpt>
      <trkpt lat="44.25046" lon="6.71035">
        <ele>2300.57</ele>
        <time>2019-08-05T07:38:53Z</time>
      </trkpt>
      <trkpt lat="44.25048" lon="6.71043">
        <ele>2301.05</ele>
        <time>2019-08-05T07:39:07Z</time>
      </trkpt>
      <trkpt lat="44.25052" lon="6.71048">
        <ele>2303.94</ele>
        <time>2019-08-05T07:39:20Z</time>
      </trkpt>
      <trkpt lat="44.25055" lon="6.71052">
        <ele>2303.94</ele>
        <time>2019-08-05T07:39:26Z</time>
      </trkpt>
      <trkpt lat="44.25062" lon="6.71061">
        <ele>2306.34</ele>
        <time>2019-08-05T07:39:39Z</time>
      </trkpt>
      <trkpt lat="44.25072" lon="6.7107">
        <ele>2307.78</ele>
        <time>2019-08-05T07:39:53Z</time>
      </trkpt>
      <trkpt lat="44.25081" lon="6.71079">
        <ele>2310.67</ele>
        <time>2019-08-05T07:40:07Z</time>
      </trkpt>
      <trkpt lat="44.25092" lon="6.71081">
        <ele>2311.63</ele>
        <time>2019-08-05T07:40:19Z</time>
      </trkpt>
      <trkpt lat="44.25099" lon="6.71085">
        <ele>2312.59</ele>
        <time>2019-08-05T07:40:27Z</time>
      </trkpt>
      <trkpt lat="44.25106" lon="6.71097">
        <ele>2313.55</ele>
        <time>2019-08-05T07:40:42Z</time>
      </trkpt>
      <trkpt lat="44.25112" lon="6.71106">
        <ele>2315.47</ele>
        <time>2019-08-05T07:40:54Z</time>
      </trkpt>
      <trkpt lat="44.25123" lon="6.71118">
        <ele>2317.4</ele>
        <time>2019-08-05T07:41:10Z</time>
      </trkpt>
      <trkpt lat="44.2513" lon="6.71126">
        <ele>2317.4</ele>
        <time>2019-08-05T07:41:20Z</time>
      </trkpt>
      <trkpt lat="44.2513" lon="6.71126">
        <ele>2318.84</ele>
        <time>2019-08-05T07:41:21Z</time>
      </trkpt>
      <trkpt lat="44.25133" lon="6.71129">
        <ele>2319.32</ele>
        <time>2019-08-05T07:41:26Z</time>
      </trkpt>
      <trkpt lat="44.25142" lon="6.71134">
        <ele>2320.28</ele>
        <time>2019-08-05T07:41:39Z</time>
      </trkpt>
      <trkpt lat="44.25152" lon="6.7114">
        <ele>2321.72</ele>
        <time>2019-08-05T07:41:54Z</time>
      </trkpt>
      <trkpt lat="44.25154" lon="6.71143">
        <ele>2322.2</ele>
        <time>2019-08-05T07:41:57Z</time>
      </trkpt>
      <trkpt lat="44.25156" lon="6.71145">
        <ele>2322.2</ele>
        <time>2019-08-05T07:42:00Z</time>
      </trkpt>
      <trkpt lat="44.25168" lon="6.71147">
        <ele>2323.64</ele>
        <time>2019-08-05T07:42:13Z</time>
      </trkpt>
      <trkpt lat="44.2518" lon="6.71152">
        <ele>2324.61</ele>
        <time>2019-08-05T07:42:30Z</time>
      </trkpt>
      <trkpt lat="44.25191" lon="6.71156">
        <ele>2325.09</ele>
        <time>2019-08-05T07:42:44Z</time>
      </trkpt>
      <trkpt lat="44.25201" lon="6.71163">
        <ele>2326.53</ele>
        <time>2019-08-05T07:42:57Z</time>
      </trkpt>
      <trkpt lat="44.25208" lon="6.71173">
        <ele>2328.93</ele>
        <time>2019-08-05T07:43:11Z</time>
      </trkpt>
      <trkpt lat="44.25218" lon="6.71179">
        <ele>2330.85</ele>
        <time>2019-08-05T07:43:25Z</time>
      </trkpt>
      <trkpt lat="44.25228" lon="6.71168">
        <ele>2331.81</ele>
        <time>2019-08-05T07:43:39Z</time>
      </trkpt>
      <trkpt lat="44.25236" lon="6.71172">
        <ele>2331.81</ele>
        <time>2019-08-05T07:43:53Z</time>
      </trkpt>
      <trkpt lat="44.25241" lon="6.71177">
        <ele>2331.81</ele>
        <time>2019-08-05T07:44:05Z</time>
      </trkpt>
      <trkpt lat="44.25244" lon="6.71186">
        <ele>2333.74</ele>
        <time>2019-08-05T07:44:18Z</time>
      </trkpt>
      <trkpt lat="44.25247" lon="6.71198">
        <ele>2335.18</ele>
        <time>2019-08-05T07:44:33Z</time>
      </trkpt>
      <trkpt lat="44.2525" lon="6.71213">
        <ele>2335.66</ele>
        <time>2019-08-05T07:44:45Z</time>
      </trkpt>
      <trkpt lat="44.2525" lon="6.7123">
        <ele>2338.06</ele>
        <time>2019-08-05T07:45:01Z</time>
      </trkpt>
      <trkpt lat="44.25253" lon="6.71242">
        <ele>2339.51</ele>
        <time>2019-08-05T07:45:15Z</time>
      </trkpt>
      <trkpt lat="44.25251" lon="6.71261">
        <ele>2341.43</ele>
        <time>2019-08-05T07:45:32Z</time>
      </trkpt>
      <trkpt lat="44.25254" lon="6.7128">
        <ele>2343.35</ele>
        <time>2019-08-05T07:45:48Z</time>
      </trkpt>
      <trkpt lat="44.25255" lon="6.71292">
        <ele>2343.83</ele>
        <time>2019-08-05T07:46:02Z</time>
      </trkpt>
      <trkpt lat="44.25253" lon="6.71302">
        <ele>2344.31</ele>
        <time>2019-08-05T07:46:15Z</time>
      </trkpt>
      <trkpt lat="44.25254" lon="6.71313">
        <ele>2346.23</ele>
        <time>2019-08-05T07:46:29Z</time>
      </trkpt>
      <trkpt lat="44.25257" lon="6.7133">
        <ele>2348.16</ele>
        <time>2019-08-05T07:46:43Z</time>
      </trkpt>
      <trkpt lat="44.25256" lon="6.71342">
        <ele>2349.6</ele>
        <time>2019-08-05T07:46:56Z</time>
      </trkpt>
      <trkpt lat="44.25259" lon="6.71355">
        <ele>2351.04</ele>
        <time>2019-08-05T07:47:10Z</time>
      </trkpt>
      <trkpt lat="44.2526" lon="6.71369">
        <ele>2352.96</ele>
        <time>2019-08-05T07:47:24Z</time>
      </trkpt>
      <trkpt lat="44.25262" lon="6.71387">
        <ele>2353.93</ele>
        <time>2019-08-05T07:47:38Z</time>
      </trkpt>
      <trkpt lat="44.25267" lon="6.71401">
        <ele>2355.37</ele>
        <time>2019-08-05T07:47:50Z</time>
      </trkpt>
      <trkpt lat="44.25266" lon="6.71408">
        <ele>2355.85</ele>
        <time>2019-08-05T07:48:04Z</time>
      </trkpt>
      <trkpt lat="44.25264" lon="6.71422">
        <ele>2356.33</ele>
        <time>2019-08-05T07:48:18Z</time>
      </trkpt>
      <trkpt lat="44.25265" lon="6.71439">
        <ele>2357.77</ele>
        <time>2019-08-05T07:48:33Z</time>
      </trkpt>
      <trkpt lat="44.25262" lon="6.71451">
        <ele>2359.21</ele>
        <time>2019-08-05T07:48:46Z</time>
      </trkpt>
      <trkpt lat="44.25257" lon="6.71468">
        <ele>2360.65</ele>
        <time>2019-08-05T07:49:01Z</time>
      </trkpt>
      <trkpt lat="44.25253" lon="6.7148">
        <ele>2361.62</ele>
        <time>2019-08-05T07:49:15Z</time>
      </trkpt>
      <trkpt lat="44.25246" lon="6.7149">
        <ele>2363.06</ele>
        <time>2019-08-05T07:49:29Z</time>
      </trkpt>
      <trkpt lat="44.25238" lon="6.71503">
        <ele>2364.5</ele>
        <time>2019-08-05T07:49:43Z</time>
      </trkpt>
      <trkpt lat="44.25228" lon="6.71507">
        <ele>2365.46</ele>
        <time>2019-08-05T07:49:56Z</time>
      </trkpt>
      <trkpt lat="44.25215" lon="6.71516">
        <ele>2369.31</ele>
        <time>2019-08-05T07:50:12Z</time>
      </trkpt>
      <trkpt lat="44.25208" lon="6.71524">
        <ele>2368.35</ele>
        <time>2019-08-05T07:50:27Z</time>
      </trkpt>
      <trkpt lat="44.25197" lon="6.71528">
        <ele>2369.79</ele>
        <time>2019-08-05T07:50:41Z</time>
      </trkpt>
      <trkpt lat="44.25192" lon="6.71527">
        <ele>2369.79</ele>
        <time>2019-08-05T07:50:47Z</time>
      </trkpt>
      <trkpt lat="44.25181" lon="6.71517">
        <ele>2372.19</ele>
        <time>2019-08-05T07:51:02Z</time>
      </trkpt>
      <trkpt lat="44.25169" lon="6.71526">
        <ele>2373.63</ele>
        <time>2019-08-05T07:51:18Z</time>
      </trkpt>
      <trkpt lat="44.25176" lon="6.71531">
        <ele>2374.59</ele>
        <time>2019-08-05T07:51:29Z</time>
      </trkpt>
      <trkpt lat="44.25182" lon="6.7154">
        <ele>2376.52</ele>
        <time>2019-08-05T07:51:42Z</time>
      </trkpt>
      <trkpt lat="44.25186" lon="6.71553">
        <ele>2377.96</ele>
        <time>2019-08-05T07:51:58Z</time>
      </trkpt>
      <trkpt lat="44.25192" lon="6.71557">
        <ele>2379.88</ele>
        <time>2019-08-05T07:52:09Z</time>
      </trkpt>
      <trkpt lat="44.25197" lon="6.71555">
        <ele>2380.84</ele>
        <time>2019-08-05T07:52:16Z</time>
      </trkpt>
      <trkpt lat="44.25211" lon="6.71558">
        <ele>2382.28</ele>
        <time>2019-08-05T07:52:31Z</time>
      </trkpt>
      <trkpt lat="44.25222" lon="6.71559">
        <ele>2383.25</ele>
        <time>2019-08-05T07:52:45Z</time>
      </trkpt>
      <trkpt lat="44.25234" lon="6.71554">
        <ele>2385.17</ele>
        <time>2019-08-05T07:53:01Z</time>
      </trkpt>
      <trkpt lat="44.25245" lon="6.71558">
        <ele>2387.09</ele>
        <time>2019-08-05T07:53:17Z</time>
      </trkpt>
      <trkpt lat="44.25256" lon="6.71564">
        <ele>2389.01</ele>
        <time>2019-08-05T07:53:33Z</time>
      </trkpt>
      <trkpt lat="44.2526" lon="6.71566">
        <ele>2389.97</ele>
        <time>2019-08-05T07:53:39Z</time>
      </trkpt>
      <trkpt lat="44.25272" lon="6.71563">
        <ele>2390.94</ele>
        <time>2019-08-05T07:53:53Z</time>
      </trkpt>
      <trkpt lat="44.25278" lon="6.7156">
        <ele>2391.9</ele>
        <time>2019-08-05T07:54:05Z</time>
      </trkpt>
      <trkpt lat="44.2529" lon="6.71551">
        <ele>2394.3</ele>
        <time>2019-08-05T07:54:22Z</time>
      </trkpt>
      <trkpt lat="44.25301" lon="6.71545">
        <ele>2396.22</ele>
        <time>2019-08-05T07:54:36Z</time>
      </trkpt>
      <trkpt lat="44.25307" lon="6.71535">
        <ele>2397.18</ele>
        <time>2019-08-05T07:54:50Z</time>
      </trkpt>
      <trkpt lat="44.25314" lon="6.71528">
        <ele>2399.59</ele>
        <time>2019-08-05T07:55:06Z</time>
      </trkpt>
      <trkpt lat="44.25322" lon="6.71511">
        <ele>2400.55</ele>
        <time>2019-08-05T07:55:23Z</time>
      </trkpt>
      <trkpt lat="44.25331" lon="6.715">
        <ele>2402.95</ele>
        <time>2019-08-05T07:55:39Z</time>
      </trkpt>
      <trkpt lat="44.25338" lon="6.71499">
        <ele>2404.39</ele>
        <time>2019-08-05T07:55:54Z</time>
      </trkpt>
      <trkpt lat="44.25342" lon="6.71491">
        <ele>2404.88</ele>
        <time>2019-08-05T07:56:14Z</time>
      </trkpt>
      <trkpt lat="44.25347" lon="6.71486">
        <ele>2405.84</ele>
        <time>2019-08-05T07:56:27Z</time>
      </trkpt>
      <trkpt lat="44.25355" lon="6.71478">
        <ele>2406.8</ele>
        <time>2019-08-05T07:56:38Z</time>
      </trkpt>
      <trkpt lat="44.25364" lon="6.71472">
        <ele>2408.72</ele>
        <time>2019-08-05T07:56:52Z</time>
      </trkpt>
      <trkpt lat="44.25371" lon="6.71463">
        <ele>2410.64</ele>
        <time>2019-08-05T07:57:04Z</time>
      </trkpt>
      <trkpt lat="44.25373" lon="6.71459">
        <ele>2411.12</ele>
        <time>2019-08-05T07:57:08Z</time>
      </trkpt>
      <trkpt lat="44.25381" lon="6.71445">
        <ele>2412.57</ele>
        <time>2019-08-05T07:57:23Z</time>
      </trkpt>
      <trkpt lat="44.25381" lon="6.71444">
        <ele>2412.09</ele>
        <time>2019-08-05T07:57:24Z</time>
      </trkpt>
      <trkpt lat="44.2539" lon="6.71429">
        <ele>2414.49</ele>
        <time>2019-08-05T07:57:40Z</time>
      </trkpt>
      <trkpt lat="44.254" lon="6.71415">
        <ele>2416.89</ele>
        <time>2019-08-05T07:57:57Z</time>
      </trkpt>
      <trkpt lat="44.25407" lon="6.71406">
        <ele>2419.78</ele>
        <time>2019-08-05T07:58:13Z</time>
      </trkpt>
      <trkpt lat="44.25409" lon="6.71395">
        <ele>2419.78</ele>
        <time>2019-08-05T07:58:25Z</time>
      </trkpt>
      <trkpt lat="44.25407" lon="6.71377">
        <ele>2421.22</ele>
        <time>2019-08-05T07:58:40Z</time>
      </trkpt>
      <trkpt lat="44.25407" lon="6.71376">
        <ele>2421.22</ele>
        <time>2019-08-05T07:58:41Z</time>
      </trkpt>
      <trkpt lat="44.25412" lon="6.71361">
        <ele>2423.62</ele>
        <time>2019-08-05T07:58:56Z</time>
      </trkpt>
      <trkpt lat="44.2541" lon="6.71347">
        <ele>2424.58</ele>
        <time>2019-08-05T07:59:11Z</time>
      </trkpt>
      <trkpt lat="44.25419" lon="6.71335">
        <ele>2426.5</ele>
        <time>2019-08-05T07:59:29Z</time>
      </trkpt>
      <trkpt lat="44.25424" lon="6.71327">
        <ele>2429.39</ele>
        <time>2019-08-05T07:59:43Z</time>
      </trkpt>
      <trkpt lat="44.25423" lon="6.71317">
        <ele>2428.43</ele>
        <time>2019-08-05T07:59:51Z</time>
      </trkpt>
      <trkpt lat="44.25428" lon="6.71309">
        <ele>2428.91</ele>
        <time>2019-08-05T08:00:03Z</time>
      </trkpt>
      <trkpt lat="44.2543" lon="6.71301">
        <ele>2430.83</ele>
        <time>2019-08-05T08:00:17Z</time>
      </trkpt>
      <trkpt lat="44.25429" lon="6.71284">
        <ele>2430.35</ele>
        <time>2019-08-05T08:00:32Z</time>
      </trkpt>
      <trkpt lat="44.25424" lon="6.71265">
        <ele>2430.35</ele>
        <time>2019-08-05T08:00:48Z</time>
      </trkpt>
      <trkpt lat="44.25423" lon="6.71252">
        <ele>2431.79</ele>
        <time>2019-08-05T08:00:59Z</time>
      </trkpt>
      <trkpt lat="44.25423" lon="6.71238">
        <ele>2433.71</ele>
        <time>2019-08-05T08:01:11Z</time>
      </trkpt>
      <trkpt lat="44.25417" lon="6.71219">
        <ele>2435.64</ele>
        <time>2019-08-05T08:01:27Z</time>
      </trkpt>
      <trkpt lat="44.25412" lon="6.71205">
        <ele>2437.08</ele>
        <time>2019-08-05T08:01:41Z</time>
      </trkpt>
      <trkpt lat="44.25407" lon="6.71187">
        <ele>2438.52</ele>
        <time>2019-08-05T08:01:59Z</time>
      </trkpt>
      <trkpt lat="44.25407" lon="6.71174">
        <ele>2439.96</ele>
        <time>2019-08-05T08:02:13Z</time>
      </trkpt>
      <trkpt lat="44.25406" lon="6.71169">
        <ele>2439.96</ele>
        <time>2019-08-05T08:02:17Z</time>
      </trkpt>
      <trkpt lat="44.25405" lon="6.71154">
        <ele>2440.44</ele>
        <time>2019-08-05T08:02:31Z</time>
      </trkpt>
      <trkpt lat="44.25404" lon="6.71143">
        <ele>2440.44</ele>
        <time>2019-08-05T08:02:43Z</time>
      </trkpt>
      <trkpt lat="44.254" lon="6.71128">
        <ele>2442.37</ele>
        <time>2019-08-05T08:02:56Z</time>
      </trkpt>
      <trkpt lat="44.25394" lon="6.71113">
        <ele>2442.85</ele>
        <time>2019-08-05T08:03:09Z</time>
      </trkpt>
      <trkpt lat="44.25383" lon="6.71102">
        <ele>2444.29</ele>
        <time>2019-08-05T08:03:24Z</time>
      </trkpt>
      <trkpt lat="44.25378" lon="6.7109">
        <ele>2446.21</ele>
        <time>2019-08-05T08:03:37Z</time>
      </trkpt>
      <trkpt lat="44.2537" lon="6.71079">
        <ele>2446.69</ele>
        <time>2019-08-05T08:03:50Z</time>
      </trkpt>
      <trkpt lat="44.25363" lon="6.71067">
        <ele>2448.62</ele>
        <time>2019-08-05T08:04:05Z</time>
      </trkpt>
      <trkpt lat="44.25353" lon="6.71059">
        <ele>2451.5</ele>
        <time>2019-08-05T08:04:20Z</time>
      </trkpt>
      <trkpt lat="44.25351" lon="6.71049">
        <ele>2451.5</ele>
        <time>2019-08-05T08:04:33Z</time>
      </trkpt>
      <trkpt lat="44.25356" lon="6.71051">
        <ele>2453.42</ele>
        <time>2019-08-05T08:04:47Z</time>
      </trkpt>
      <trkpt lat="44.25358" lon="6.71048">
        <ele>2454.86</ele>
        <time>2019-08-05T08:04:57Z</time>
      </trkpt>
      <trkpt lat="44.25359" lon="6.71036">
        <ele>2456.79</ele>
        <time>2019-08-05T08:05:12Z</time>
      </trkpt>
      <trkpt lat="44.25363" lon="6.71029">
        <ele>2458.23</ele>
        <time>2019-08-05T08:05:23Z</time>
      </trkpt>
      <trkpt lat="44.25361" lon="6.71032">
        <ele>2458.71</ele>
        <time>2019-08-05T08:05:35Z</time>
      </trkpt>
      <trkpt lat="44.25363" lon="6.71044">
        <ele>2459.67</ele>
        <time>2019-08-05T08:05:49Z</time>
      </trkpt>
      <trkpt lat="44.25369" lon="6.71048">
        <ele>2461.59</ele>
        <time>2019-08-05T08:06:02Z</time>
      </trkpt>
      <trkpt lat="44.25366" lon="6.7105">
        <ele>2462.07</ele>
        <time>2019-08-05T08:06:27Z</time>
      </trkpt>
      <trkpt lat="44.25369" lon="6.7105">
        <ele>2462.55</ele>
        <time>2019-08-05T08:06:47Z</time>
      </trkpt>
      <trkpt lat="44.25371" lon="6.71036">
        <ele>2464</ele>
        <time>2019-08-05T08:07:00Z</time>
      </trkpt>
      <trkpt lat="44.25371" lon="6.71031">
        <ele>2467.84</ele>
        <time>2019-08-05T08:07:05Z</time>
      </trkpt>
      <trkpt lat="44.25371" lon="6.7103">
        <ele>2464.96</ele>
        <time>2019-08-05T08:07:06Z</time>
      </trkpt>
      <trkpt lat="44.25375" lon="6.71032">
        <ele>2466.4</ele>
        <time>2019-08-05T08:07:18Z</time>
      </trkpt>
      <trkpt lat="44.25379" lon="6.71042">
        <ele>2468.32</ele>
        <time>2019-08-05T08:07:29Z</time>
      </trkpt>
      <trkpt lat="44.25388" lon="6.7105">
        <ele>2470.24</ele>
        <time>2019-08-05T08:07:44Z</time>
      </trkpt>
      <trkpt lat="44.25389" lon="6.71063">
        <ele>2471.69</ele>
        <time>2019-08-05T08:07:57Z</time>
      </trkpt>
      <trkpt lat="44.25391" lon="6.71057">
        <ele>2473.61</ele>
        <time>2019-08-05T08:08:10Z</time>
      </trkpt>
      <trkpt lat="44.25391" lon="6.7105">
        <ele>2475.05</ele>
        <time>2019-08-05T08:08:18Z</time>
      </trkpt>
      <trkpt lat="44.25395" lon="6.71033">
        <ele>2476.49</ele>
        <time>2019-08-05T08:08:34Z</time>
      </trkpt>
      <trkpt lat="44.25401" lon="6.7102">
        <ele>2479.38</ele>
        <time>2019-08-05T08:08:49Z</time>
      </trkpt>
      <trkpt lat="44.25405" lon="6.71006">
        <ele>2480.34</ele>
        <time>2019-08-05T08:09:04Z</time>
      </trkpt>
      <trkpt lat="44.25405" lon="6.70996">
        <ele>2482.26</ele>
        <time>2019-08-05T08:09:16Z</time>
      </trkpt>
      <trkpt lat="44.25405" lon="6.70996">
        <ele>2483.7</ele>
        <time>2019-08-05T08:09:28Z</time>
      </trkpt>
      <trkpt lat="44.25408" lon="6.71001">
        <ele>2484.18</ele>
        <time>2019-08-05T08:09:37Z</time>
      </trkpt>
      <trkpt lat="44.25408" lon="6.71006">
        <ele>2484.66</ele>
        <time>2019-08-05T08:09:42Z</time>
      </trkpt>
      <trkpt lat="44.25408" lon="6.71019">
        <ele>2485.63</ele>
        <time>2019-08-05T08:09:57Z</time>
      </trkpt>
      <trkpt lat="44.25414" lon="6.71033">
        <ele>2486.59</ele>
        <time>2019-08-05T08:10:12Z</time>
      </trkpt>
      <trkpt lat="44.25414" lon="6.71048">
        <ele>2488.03</ele>
        <time>2019-08-05T08:10:27Z</time>
      </trkpt>
      <trkpt lat="44.25419" lon="6.71043">
        <ele>2489.95</ele>
        <time>2019-08-05T08:10:39Z</time>
      </trkpt>
      <trkpt lat="44.2542" lon="6.71034">
        <ele>2493.8</ele>
        <time>2019-08-05T08:10:48Z</time>
      </trkpt>
      <trkpt lat="44.25424" lon="6.71022">
        <ele>2493.8</ele>
        <time>2019-08-05T08:11:03Z</time>
      </trkpt>
      <trkpt lat="44.25424" lon="6.71008">
        <ele>2494.76</ele>
        <time>2019-08-05T08:11:18Z</time>
      </trkpt>
      <trkpt lat="44.25424" lon="6.71007">
        <ele>2494.76</ele>
        <time>2019-08-05T08:11:19Z</time>
      </trkpt>
      <trkpt lat="44.25426" lon="6.70997">
        <ele>2497.16</ele>
        <time>2019-08-05T08:11:32Z</time>
      </trkpt>
      <trkpt lat="44.25427" lon="6.70996">
        <ele>2497.16</ele>
        <time>2019-08-05T08:11:33Z</time>
      </trkpt>
      <trkpt lat="44.2543" lon="6.70993">
        <ele>2498.6</ele>
        <time>2019-08-05T08:11:47Z</time>
      </trkpt>
      <trkpt lat="44.25433" lon="6.70992">
        <ele>2501.01</ele>
        <time>2019-08-05T08:12:02Z</time>
      </trkpt>
      <trkpt lat="44.25434" lon="6.70992">
        <ele>2500.53</ele>
        <time>2019-08-05T08:12:22Z</time>
      </trkpt>
      <trkpt lat="44.25432" lon="6.70994">
        <ele>2501.01</ele>
        <time>2019-08-05T08:12:40Z</time>
      </trkpt>
      <trkpt lat="44.25429" lon="6.70997">
        <ele>2501.97</ele>
        <time>2019-08-05T08:12:52Z</time>
      </trkpt>
      <trkpt lat="44.25422" lon="6.71007">
        <ele>2501.97</ele>
        <time>2019-08-05T08:13:09Z</time>
      </trkpt>
      <trkpt lat="44.25421" lon="6.71012">
        <ele>2502.45</ele>
        <time>2019-08-05T08:13:13Z</time>
      </trkpt>
      <trkpt lat="44.2543" lon="6.71029">
        <ele>2504.85</ele>
        <time>2019-08-05T08:13:27Z</time>
      </trkpt>
      <trkpt lat="44.2543" lon="6.71041">
        <ele>2504.85</ele>
        <time>2019-08-05T08:13:39Z</time>
      </trkpt>
      <trkpt lat="44.25434" lon="6.71052">
        <ele>2506.77</ele>
        <time>2019-08-05T08:13:50Z</time>
      </trkpt>
      <trkpt lat="44.25435" lon="6.71063">
        <ele>2507.26</ele>
        <time>2019-08-05T08:14:02Z</time>
      </trkpt>
      <trkpt lat="44.25438" lon="6.71074">
        <ele>2508.22</ele>
        <time>2019-08-05T08:14:15Z</time>
      </trkpt>
      <trkpt lat="44.25442" lon="6.71074">
        <ele>2510.62</ele>
        <time>2019-08-05T08:14:29Z</time>
      </trkpt>
      <trkpt lat="44.25443" lon="6.71071">
        <ele>2511.1</ele>
        <time>2019-08-05T08:14:33Z</time>
      </trkpt>
      <trkpt lat="44.25447" lon="6.71061">
        <ele>2513.5</ele>
        <time>2019-08-05T08:14:47Z</time>
      </trkpt>
      <trkpt lat="44.25452" lon="6.71049">
        <ele>2515.43</ele>
        <time>2019-08-05T08:15:01Z</time>
      </trkpt>
      <trkpt lat="44.25454" lon="6.71035">
        <ele>2517.83</ele>
        <time>2019-08-05T08:15:16Z</time>
      </trkpt>
      <trkpt lat="44.25455" lon="6.71031">
        <ele>2518.79</ele>
        <time>2019-08-05T08:15:26Z</time>
      </trkpt>
      <trkpt lat="44.2545" lon="6.71048">
        <ele>2519.75</ele>
        <time>2019-08-05T08:15:41Z</time>
      </trkpt>
      <trkpt lat="44.25455" lon="6.71064">
        <ele>2521.19</ele>
        <time>2019-08-05T08:15:55Z</time>
      </trkpt>
      <trkpt lat="44.25458" lon="6.71067">
        <ele>2522.16</ele>
        <time>2019-08-05T08:16:00Z</time>
      </trkpt>
      <trkpt lat="44.25462" lon="6.71079">
        <ele>2524.08</ele>
        <time>2019-08-05T08:16:13Z</time>
      </trkpt>
      <trkpt lat="44.25467" lon="6.71089">
        <ele>2526.48</ele>
        <time>2019-08-05T08:16:28Z</time>
      </trkpt>
      <trkpt lat="44.2547" lon="6.71097">
        <ele>2528.4</ele>
        <time>2019-08-05T08:16:39Z</time>
      </trkpt>
      <trkpt lat="44.25475" lon="6.71104">
        <ele>2530.81</ele>
        <time>2019-08-05T08:16:54Z</time>
      </trkpt>
      <trkpt lat="44.2548" lon="6.71113">
        <ele>2531.77</ele>
        <time>2019-08-05T08:17:06Z</time>
      </trkpt>
      <trkpt lat="44.25485" lon="6.71126">
        <ele>2533.69</ele>
        <time>2019-08-05T08:17:20Z</time>
      </trkpt>
      <trkpt lat="44.25487" lon="6.71139">
        <ele>2535.13</ele>
        <time>2019-08-05T08:17:34Z</time>
      </trkpt>
      <trkpt lat="44.25493" lon="6.71141">
        <ele>2536.58</ele>
        <time>2019-08-05T08:17:47Z</time>
      </trkpt>
      <trkpt lat="44.25501" lon="6.71131">
        <ele>2538.98</ele>
        <time>2019-08-05T08:18:02Z</time>
      </trkpt>
      <trkpt lat="44.255" lon="6.71116">
        <ele>2541.38</ele>
        <time>2019-08-05T08:18:19Z</time>
      </trkpt>
      <trkpt lat="44.255" lon="6.71106">
        <ele>2542.34</ele>
        <time>2019-08-05T08:18:35Z</time>
      </trkpt>
      <trkpt lat="44.25506" lon="6.71115">
        <ele>2544.27</ele>
        <time>2019-08-05T08:18:49Z</time>
      </trkpt>
      <trkpt lat="44.2551" lon="6.71129">
        <ele>2545.71</ele>
        <time>2019-08-05T08:19:03Z</time>
      </trkpt>
      <trkpt lat="44.25511" lon="6.71134">
        <ele>2546.19</ele>
        <time>2019-08-05T08:19:09Z</time>
      </trkpt>
      <trkpt lat="44.25513" lon="6.71144">
        <ele>2547.63</ele>
        <time>2019-08-05T08:19:23Z</time>
      </trkpt>
      <trkpt lat="44.25519" lon="6.71138">
        <ele>2549.55</ele>
        <time>2019-08-05T08:19:37Z</time>
      </trkpt>
      <trkpt lat="44.25522" lon="6.71123">
        <ele>2551</ele>
        <time>2019-08-05T08:19:53Z</time>
      </trkpt>
      <trkpt lat="44.25522" lon="6.71107">
        <ele>2552.44</ele>
        <time>2019-08-05T08:20:08Z</time>
      </trkpt>
      <trkpt lat="44.25524" lon="6.71092">
        <ele>2554.84</ele>
        <time>2019-08-05T08:20:23Z</time>
      </trkpt>
      <trkpt lat="44.25531" lon="6.7108">
        <ele>2556.76</ele>
        <time>2019-08-05T08:20:38Z</time>
      </trkpt>
      <trkpt lat="44.2553" lon="6.71082">
        <ele>2558.21</ele>
        <time>2019-08-05T08:20:52Z</time>
      </trkpt>
      <trkpt lat="44.25533" lon="6.71098">
        <ele>2559.65</ele>
        <time>2019-08-05T08:21:08Z</time>
      </trkpt>
      <trkpt lat="44.25538" lon="6.71108">
        <ele>2561.09</ele>
        <time>2019-08-05T08:21:20Z</time>
      </trkpt>
      <trkpt lat="44.25544" lon="6.71122">
        <ele>2562.53</ele>
        <time>2019-08-05T08:21:35Z</time>
      </trkpt>
      <trkpt lat="44.25547" lon="6.71133">
        <ele>2563.97</ele>
        <time>2019-08-05T08:21:48Z</time>
      </trkpt>
      <trkpt lat="44.25545" lon="6.71148">
        <ele>2565.9</ele>
        <time>2019-08-05T08:22:01Z</time>
      </trkpt>
      <trkpt lat="44.25543" lon="6.71159">
        <ele>2566.86</ele>
        <time>2019-08-05T08:22:13Z</time>
      </trkpt>
      <trkpt lat="44.25551" lon="6.71158">
        <ele>2569.26</ele>
        <time>2019-08-05T08:22:25Z</time>
      </trkpt>
      <trkpt lat="44.25562" lon="6.71152">
        <ele>2571.18</ele>
        <time>2019-08-05T08:22:40Z</time>
      </trkpt>
      <trkpt lat="44.25568" lon="6.71162">
        <ele>2572.14</ele>
        <time>2019-08-05T08:22:53Z</time>
      </trkpt>
      <trkpt lat="44.25572" lon="6.71175">
        <ele>2574.55</ele>
        <time>2019-08-05T08:23:08Z</time>
      </trkpt>
      <trkpt lat="44.25577" lon="6.71187">
        <ele>2575.03</ele>
        <time>2019-08-05T08:23:22Z</time>
      </trkpt>
      <trkpt lat="44.25579" lon="6.71188">
        <ele>2575.51</ele>
        <time>2019-08-05T08:23:36Z</time>
      </trkpt>
      <trkpt lat="44.2558" lon="6.71189">
        <ele>2575.99</ele>
        <time>2019-08-05T08:23:40Z</time>
      </trkpt>
      <trkpt lat="44.25585" lon="6.71189">
        <ele>2575.99</ele>
        <time>2019-08-05T08:23:58Z</time>
      </trkpt>
      <trkpt lat="44.25585" lon="6.71189">
        <ele>2576.47</ele>
        <time>2019-08-05T08:24:16Z</time>
      </trkpt>
      <trkpt lat="44.25587" lon="6.71189">
        <ele>2576.47</ele>
        <time>2019-08-05T08:24:35Z</time>
      </trkpt>
      <trkpt lat="44.25586" lon="6.71191">
        <ele>2576.47</ele>
        <time>2019-08-05T08:24:52Z</time>
      </trkpt>
      <trkpt lat="44.25589" lon="6.71189">
        <ele>2576.95</ele>
        <time>2019-08-05T08:24:56Z</time>
      </trkpt>
      <trkpt lat="44.256" lon="6.71192">
        <ele>2577.91</ele>
        <time>2019-08-05T08:25:10Z</time>
      </trkpt>
      <trkpt lat="44.25605" lon="6.712">
        <ele>2580.8</ele>
        <time>2019-08-05T08:25:23Z</time>
      </trkpt>
      <trkpt lat="44.25614" lon="6.71206">
        <ele>2581.76</ele>
        <time>2019-08-05T08:25:36Z</time>
      </trkpt>
      <trkpt lat="44.25618" lon="6.71219">
        <ele>2583.68</ele>
        <time>2019-08-05T08:25:51Z</time>
      </trkpt>
      <trkpt lat="44.25624" lon="6.71227">
        <ele>2585.12</ele>
        <time>2019-08-05T08:26:06Z</time>
      </trkpt>
      <trkpt lat="44.2563" lon="6.71235">
        <ele>2586.56</ele>
        <time>2019-08-05T08:26:21Z</time>
      </trkpt>
      <trkpt lat="44.25637" lon="6.71245">
        <ele>2588.49</ele>
        <time>2019-08-05T08:26:36Z</time>
      </trkpt>
      <trkpt lat="44.25642" lon="6.71252">
        <ele>2590.41</ele>
        <time>2019-08-05T08:26:49Z</time>
      </trkpt>
      <trkpt lat="44.25647" lon="6.71255">
        <ele>2591.85</ele>
        <time>2019-08-05T08:27:06Z</time>
      </trkpt>
      <trkpt lat="44.25651" lon="6.71253">
        <ele>2594.25</ele>
        <time>2019-08-05T08:27:22Z</time>
      </trkpt>
      <trkpt lat="44.25653" lon="6.71254">
        <ele>2592.81</ele>
        <time>2019-08-05T08:27:46Z</time>
      </trkpt>
      <trkpt lat="44.25649" lon="6.71251">
        <ele>2592.81</ele>
        <time>2019-08-05T08:28:10Z</time>
      </trkpt>
      <trkpt lat="44.25649" lon="6.71254">
        <ele>2593.29</ele>
        <time>2019-08-05T08:28:28Z</time>
      </trkpt>
      <trkpt lat="44.25652" lon="6.71258">
        <ele>2593.29</ele>
        <time>2019-08-05T08:28:49Z</time>
      </trkpt>
      <trkpt lat="44.25651" lon="6.71254">
        <ele>2593.77</ele>
        <time>2019-08-05T08:29:17Z</time>
      </trkpt>
      <trkpt lat="44.25651" lon="6.71254">
        <ele>2593.77</ele>
        <time>2019-08-05T08:29:48Z</time>
      </trkpt>
      <trkpt lat="44.25651" lon="6.71255">
        <ele>2594.25</ele>
        <time>2019-08-05T08:30:25Z</time>
      </trkpt>
      <trkpt lat="44.25656" lon="6.71258">
        <ele>2594.74</ele>
        <time>2019-08-05T08:30:56Z</time>
      </trkpt>
      <trkpt lat="44.25653" lon="6.71254">
        <ele>2594.74</ele>
        <time>2019-08-05T08:31:23Z</time>
      </trkpt>
      <trkpt lat="44.25652" lon="6.71258">
        <ele>2594.74</ele>
        <time>2019-08-05T08:32:00Z</time>
      </trkpt>
      <trkpt lat="44.25659" lon="6.71259">
        <ele>2595.7</ele>
        <time>2019-08-05T08:32:15Z</time>
      </trkpt>
      <trkpt lat="44.25669" lon="6.71256">
        <ele>2598.1</ele>
        <time>2019-08-05T08:32:30Z</time>
      </trkpt>
      <trkpt lat="44.25675" lon="6.71247">
        <ele>2600.02</ele>
        <time>2019-08-05T08:32:43Z</time>
      </trkpt>
      <trkpt lat="44.25675" lon="6.71233">
        <ele>2601.46</ele>
        <time>2019-08-05T08:32:56Z</time>
      </trkpt>
      <trkpt lat="44.25675" lon="6.71228">
        <ele>2602.91</ele>
        <time>2019-08-05T08:33:02Z</time>
      </trkpt>
      <trkpt lat="44.25676" lon="6.71222">
        <ele>2603.39</ele>
        <time>2019-08-05T08:33:13Z</time>
      </trkpt>
      <trkpt lat="44.25684" lon="6.71229">
        <ele>2605.79</ele>
        <time>2019-08-05T08:33:30Z</time>
      </trkpt>
      <trkpt lat="44.25692" lon="6.71232">
        <ele>2607.23</ele>
        <time>2019-08-05T08:33:44Z</time>
      </trkpt>
      <trkpt lat="44.25701" lon="6.71233">
        <ele>2608.67</ele>
        <time>2019-08-05T08:33:58Z</time>
      </trkpt>
      <trkpt lat="44.2571" lon="6.71237">
        <ele>2610.6</ele>
        <time>2019-08-05T08:34:12Z</time>
      </trkpt>
      <trkpt lat="44.2572" lon="6.7124">
        <ele>2613</ele>
        <time>2019-08-05T08:34:27Z</time>
      </trkpt>
      <trkpt lat="44.25728" lon="6.71246">
        <ele>2613.96</ele>
        <time>2019-08-05T08:34:41Z</time>
      </trkpt>
      <trkpt lat="44.25738" lon="6.71252">
        <ele>2616.37</ele>
        <time>2019-08-05T08:34:55Z</time>
      </trkpt>
      <trkpt lat="44.25748" lon="6.71251">
        <ele>2618.77</ele>
        <time>2019-08-05T08:35:11Z</time>
      </trkpt>
      <trkpt lat="44.25757" lon="6.71246">
        <ele>2621.17</ele>
        <time>2019-08-05T08:35:27Z</time>
      </trkpt>
      <trkpt lat="44.25767" lon="6.71242">
        <ele>2623.09</ele>
        <time>2019-08-05T08:35:41Z</time>
      </trkpt>
      <trkpt lat="44.25777" lon="6.71242">
        <ele>2625.02</ele>
        <time>2019-08-05T08:35:57Z</time>
      </trkpt>
      <trkpt lat="44.25785" lon="6.71237">
        <ele>2627.42</ele>
        <time>2019-08-05T08:36:11Z</time>
      </trkpt>
      <trkpt lat="44.25791" lon="6.71231">
        <ele>2628.38</ele>
        <time>2019-08-05T08:36:24Z</time>
      </trkpt>
      <trkpt lat="44.25791" lon="6.71219">
        <ele>2630.79</ele>
        <time>2019-08-05T08:36:37Z</time>
      </trkpt>
      <trkpt lat="44.25796" lon="6.71217">
        <ele>2632.23</ele>
        <time>2019-08-05T08:36:51Z</time>
      </trkpt>
      <trkpt lat="44.25802" lon="6.71223">
        <ele>2634.15</ele>
        <time>2019-08-05T08:37:05Z</time>
      </trkpt>
      <trkpt lat="44.25806" lon="6.71231">
        <ele>2635.11</ele>
        <time>2019-08-05T08:37:19Z</time>
      </trkpt>
      <trkpt lat="44.25815" lon="6.71239">
        <ele>2637.51</ele>
        <time>2019-08-05T08:37:33Z</time>
      </trkpt>
      <trkpt lat="44.25822" lon="6.71249">
        <ele>2639.44</ele>
        <time>2019-08-05T08:37:49Z</time>
      </trkpt>
      <trkpt lat="44.25827" lon="6.71259">
        <ele>2640.88</ele>
        <time>2019-08-05T08:38:04Z</time>
      </trkpt>
      <trkpt lat="44.25837" lon="6.71269">
        <ele>2642.8</ele>
        <time>2019-08-05T08:38:20Z</time>
      </trkpt>
      <trkpt lat="44.25844" lon="6.71264">
        <ele>2644.72</ele>
        <time>2019-08-05T08:38:35Z</time>
      </trkpt>
      <trkpt lat="44.25843" lon="6.71267">
        <ele>2644.72</ele>
        <time>2019-08-05T08:38:59Z</time>
      </trkpt>
      <trkpt lat="44.25842" lon="6.71253">
        <ele>2647.61</ele>
        <time>2019-08-05T08:39:13Z</time>
      </trkpt>
      <trkpt lat="44.25841" lon="6.71243">
        <ele>2649.05</ele>
        <time>2019-08-05T08:39:26Z</time>
      </trkpt>
      <trkpt lat="44.25842" lon="6.71234">
        <ele>2651.45</ele>
        <time>2019-08-05T08:39:41Z</time>
      </trkpt>
      <trkpt lat="44.25845" lon="6.71221">
        <ele>2653.38</ele>
        <time>2019-08-05T08:39:56Z</time>
      </trkpt>
      <trkpt lat="44.25845" lon="6.71205">
        <ele>2655.78</ele>
        <time>2019-08-05T08:40:13Z</time>
      </trkpt>
      <trkpt lat="44.25846" lon="6.71189">
        <ele>2658.18</ele>
        <time>2019-08-05T08:40:30Z</time>
      </trkpt>
      <trkpt lat="44.25847" lon="6.71176">
        <ele>2659.62</ele>
        <time>2019-08-05T08:40:46Z</time>
      </trkpt>
      <trkpt lat="44.25847" lon="6.71165">
        <ele>2660.59</ele>
        <time>2019-08-05T08:41:01Z</time>
      </trkpt>
      <trkpt lat="44.2585" lon="6.71154">
        <ele>2662.51</ele>
        <time>2019-08-05T08:41:15Z</time>
      </trkpt>
      <trkpt lat="44.25849" lon="6.7115">
        <ele>2663.47</ele>
        <time>2019-08-05T08:41:19Z</time>
      </trkpt>
      <trkpt lat="44.25849" lon="6.71139">
        <ele>2665.87</ele>
        <time>2019-08-05T08:41:33Z</time>
      </trkpt>
      <trkpt lat="44.2585" lon="6.71131">
        <ele>2667.31</ele>
        <time>2019-08-05T08:41:46Z</time>
      </trkpt>
      <trkpt lat="44.25849" lon="6.71121">
        <ele>2668.76</ele>
        <time>2019-08-05T08:41:59Z</time>
      </trkpt>
      <trkpt lat="44.25851" lon="6.71109">
        <ele>2670.2</ele>
        <time>2019-08-05T08:42:15Z</time>
      </trkpt>
      <trkpt lat="44.25852" lon="6.71094">
        <ele>2673.08</ele>
        <time>2019-08-05T08:42:32Z</time>
      </trkpt>
      <trkpt lat="44.25855" lon="6.71084">
        <ele>2674.52</ele>
        <time>2019-08-05T08:42:46Z</time>
      </trkpt>
      <trkpt lat="44.25858" lon="6.71071">
        <ele>2676.45</ele>
        <time>2019-08-05T08:43:02Z</time>
      </trkpt>
      <trkpt lat="44.25851" lon="6.71067">
        <ele>2676.45</ele>
        <time>2019-08-05T08:43:23Z</time>
      </trkpt>
      <trkpt lat="44.2585" lon="6.71067">
        <ele>2677.41</ele>
        <time>2019-08-05T08:43:42Z</time>
      </trkpt>
      <trkpt lat="44.25848" lon="6.71062">
        <ele>2677.89</ele>
        <time>2019-08-05T08:44:00Z</time>
      </trkpt>
      <trkpt lat="44.25853" lon="6.71068">
        <ele>2677.89</ele>
        <time>2019-08-05T08:44:24Z</time>
      </trkpt>
      <trkpt lat="44.2586" lon="6.71056">
        <ele>2679.81</ele>
        <time>2019-08-05T08:44:37Z</time>
      </trkpt>
      <trkpt lat="44.25863" lon="6.71042">
        <ele>2682.22</ele>
        <time>2019-08-05T08:44:52Z</time>
      </trkpt>
      <trkpt lat="44.25868" lon="6.71034">
        <ele>2683.66</ele>
        <time>2019-08-05T08:45:04Z</time>
      </trkpt>
      <trkpt lat="44.25872" lon="6.71023">
        <ele>2687.02</ele>
        <time>2019-08-05T08:45:18Z</time>
      </trkpt>
      <trkpt lat="44.25872" lon="6.71012">
        <ele>2687.98</ele>
        <time>2019-08-05T08:45:27Z</time>
      </trkpt>
      <trkpt lat="44.25875" lon="6.70999">
        <ele>2689.43</ele>
        <time>2019-08-05T08:45:42Z</time>
      </trkpt>
      <trkpt lat="44.25875" lon="6.70989">
        <ele>2690.87</ele>
        <time>2019-08-05T08:45:55Z</time>
      </trkpt>
      <trkpt lat="44.25881" lon="6.70981">
        <ele>2692.79</ele>
        <time>2019-08-05T08:46:11Z</time>
      </trkpt>
      <trkpt lat="44.25884" lon="6.70972">
        <ele>2694.23</ele>
        <time>2019-08-05T08:46:24Z</time>
      </trkpt>
      <trkpt lat="44.25884" lon="6.70958">
        <ele>2696.15</ele>
        <time>2019-08-05T08:46:39Z</time>
      </trkpt>
      <trkpt lat="44.25883" lon="6.70946">
        <ele>2698.08</ele>
        <time>2019-08-05T08:46:55Z</time>
      </trkpt>
      <trkpt lat="44.25883" lon="6.70933">
        <ele>2700</ele>
        <time>2019-08-05T08:47:10Z</time>
      </trkpt>
      <trkpt lat="44.25886" lon="6.7092">
        <ele>2701.92</ele>
        <time>2019-08-05T08:47:28Z</time>
      </trkpt>
      <trkpt lat="44.25892" lon="6.7091">
        <ele>2703.36</ele>
        <time>2019-08-05T08:47:42Z</time>
      </trkpt>
      <trkpt lat="44.25887" lon="6.70897">
        <ele>2704.81</ele>
        <time>2019-08-05T08:47:58Z</time>
      </trkpt>
      <trkpt lat="44.25878" lon="6.70885">
        <ele>2707.21</ele>
        <time>2019-08-05T08:48:15Z</time>
      </trkpt>
      <trkpt lat="44.25872" lon="6.70876">
        <ele>2708.65</ele>
        <time>2019-08-05T08:48:28Z</time>
      </trkpt>
      <trkpt lat="44.25864" lon="6.70868">
        <ele>2711.54</ele>
        <time>2019-08-05T08:48:44Z</time>
      </trkpt>
      <trkpt lat="44.25863" lon="6.70867">
        <ele>2711.54</ele>
        <time>2019-08-05T08:48:45Z</time>
      </trkpt>
      <trkpt lat="44.25867" lon="6.70868">
        <ele>2711.54</ele>
        <time>2019-08-05T08:49:04Z</time>
      </trkpt>
      <trkpt lat="44.25867" lon="6.70866">
        <ele>2712.02</ele>
        <time>2019-08-05T08:49:29Z</time>
      </trkpt>
      <trkpt lat="44.25871" lon="6.70871">
        <ele>2712.5</ele>
        <time>2019-08-05T08:49:50Z</time>
      </trkpt>
      <trkpt lat="44.25874" lon="6.70867">
        <ele>2713.46</ele>
        <time>2019-08-05T08:50:05Z</time>
      </trkpt>
      <trkpt lat="44.25885" lon="6.70871">
        <ele>2716.34</ele>
        <time>2019-08-05T08:50:18Z</time>
      </trkpt>
      <trkpt lat="44.25895" lon="6.7087">
        <ele>2717.3</ele>
        <time>2019-08-05T08:50:31Z</time>
      </trkpt>
      <trkpt lat="44.25903" lon="6.70867">
        <ele>2719.71</ele>
        <time>2019-08-05T08:50:44Z</time>
      </trkpt>
      <trkpt lat="44.25913" lon="6.70873">
        <ele>2721.63</ele>
        <time>2019-08-05T08:50:59Z</time>
      </trkpt>
      <trkpt lat="44.25922" lon="6.7088">
        <ele>2724.03</ele>
        <time>2019-08-05T08:51:14Z</time>
      </trkpt>
      <trkpt lat="44.25931" lon="6.70886">
        <ele>2724.99</ele>
        <time>2019-08-05T08:51:29Z</time>
      </trkpt>
      <trkpt lat="44.25937" lon="6.70896">
        <ele>2725.96</ele>
        <time>2019-08-05T08:51:44Z</time>
      </trkpt>
      <trkpt lat="44.25943" lon="6.70902">
        <ele>2728.36</ele>
        <time>2019-08-05T08:51:58Z</time>
      </trkpt>
      <trkpt lat="44.25951" lon="6.70907">
        <ele>2730.28</ele>
        <time>2019-08-05T08:52:12Z</time>
      </trkpt>
      <trkpt lat="44.25957" lon="6.70918">
        <ele>2731.72</ele>
        <time>2019-08-05T08:52:24Z</time>
      </trkpt>
      <trkpt lat="44.25963" lon="6.70929">
        <ele>2734.13</ele>
        <time>2019-08-05T08:52:39Z</time>
      </trkpt>
      <trkpt lat="44.25967" lon="6.70935">
        <ele>2735.09</ele>
        <time>2019-08-05T08:52:47Z</time>
      </trkpt>
      <trkpt lat="44.25972" lon="6.70941">
        <ele>2736.53</ele>
        <time>2019-08-05T08:52:56Z</time>
      </trkpt>
      <trkpt lat="44.25979" lon="6.7095">
        <ele>2737.49</ele>
        <time>2019-08-05T08:53:10Z</time>
      </trkpt>
      <trkpt lat="44.25988" lon="6.7096">
        <ele>2739.41</ele>
        <time>2019-08-05T08:53:25Z</time>
      </trkpt>
      <trkpt lat="44.25996" lon="6.7096">
        <ele>2740.86</ele>
        <time>2019-08-05T08:53:40Z</time>
      </trkpt>
      <trkpt lat="44.26003" lon="6.70964">
        <ele>2742.78</ele>
        <time>2019-08-05T08:53:50Z</time>
      </trkpt>
      <trkpt lat="44.26012" lon="6.70967">
        <ele>2744.22</ele>
        <time>2019-08-05T08:54:06Z</time>
      </trkpt>
      <trkpt lat="44.26023" lon="6.70972">
        <ele>2745.66</ele>
        <time>2019-08-05T08:54:23Z</time>
      </trkpt>
      <trkpt lat="44.26031" lon="6.70976">
        <ele>2748.07</ele>
        <time>2019-08-05T08:54:37Z</time>
      </trkpt>
      <trkpt lat="44.26038" lon="6.7098">
        <ele>2749.51</ele>
        <time>2019-08-05T08:54:50Z</time>
      </trkpt>
      <trkpt lat="44.26046" lon="6.70984">
        <ele>2751.43</ele>
        <time>2019-08-05T08:55:05Z</time>
      </trkpt>
      <trkpt lat="44.26056" lon="6.70989">
        <ele>2753.35</ele>
        <time>2019-08-05T08:55:20Z</time>
      </trkpt>
      <trkpt lat="44.26065" lon="6.70997">
        <ele>2755.28</ele>
        <time>2019-08-05T08:55:36Z</time>
      </trkpt>
      <trkpt lat="44.26073" lon="6.71001">
        <ele>2756.24</ele>
        <time>2019-08-05T08:55:50Z</time>
      </trkpt>
      <trkpt lat="44.26079" lon="6.71001">
        <ele>2758.16</ele>
        <time>2019-08-05T08:56:04Z</time>
      </trkpt>
      <trkpt lat="44.26085" lon="6.71011">
        <ele>2760.56</ele>
        <time>2019-08-05T08:56:20Z</time>
      </trkpt>
      <trkpt lat="44.26088" lon="6.7102">
        <ele>2761.52</ele>
        <time>2019-08-05T08:56:36Z</time>
      </trkpt>
      <trkpt lat="44.2609" lon="6.71033">
        <ele>2762.97</ele>
        <time>2019-08-05T08:56:51Z</time>
      </trkpt>
      <trkpt lat="44.26088" lon="6.71041">
        <ele>2764.41</ele>
        <time>2019-08-05T08:57:05Z</time>
      </trkpt>
      <trkpt lat="44.26087" lon="6.71055">
        <ele>2765.85</ele>
        <time>2019-08-05T08:57:21Z</time>
      </trkpt>
      <trkpt lat="44.26085" lon="6.71069">
        <ele>2767.77</ele>
        <time>2019-08-05T08:57:37Z</time>
      </trkpt>
      <trkpt lat="44.26085" lon="6.71084">
        <ele>2769.21</ele>
        <time>2019-08-05T08:57:51Z</time>
      </trkpt>
      <trkpt lat="44.26083" lon="6.71098">
        <ele>2771.14</ele>
        <time>2019-08-05T08:58:06Z</time>
      </trkpt>
      <trkpt lat="44.26082" lon="6.71111">
        <ele>2773.54</ele>
        <time>2019-08-05T08:58:20Z</time>
      </trkpt>
      <trkpt lat="44.26083" lon="6.71124">
        <ele>2774.98</ele>
        <time>2019-08-05T08:58:34Z</time>
      </trkpt>
      <trkpt lat="44.26081" lon="6.71139">
        <ele>2776.42</ele>
        <time>2019-08-05T08:58:51Z</time>
      </trkpt>
      <trkpt lat="44.26077" lon="6.7115">
        <ele>2777.39</ele>
        <time>2019-08-05T08:59:04Z</time>
      </trkpt>
      <trkpt lat="44.26072" lon="6.71163">
        <ele>2779.31</ele>
        <time>2019-08-05T08:59:18Z</time>
      </trkpt>
      <trkpt lat="44.2607" lon="6.71173">
        <ele>2780.75</ele>
        <time>2019-08-05T08:59:30Z</time>
      </trkpt>
      <trkpt lat="44.26066" lon="6.71188">
        <ele>2782.19</ele>
        <time>2019-08-05T08:59:46Z</time>
      </trkpt>
      <trkpt lat="44.26061" lon="6.71199">
        <ele>2782.67</ele>
        <time>2019-08-05T08:59:59Z</time>
      </trkpt>
      <trkpt lat="44.26055" lon="6.71215">
        <ele>2784.12</ele>
        <time>2019-08-05T09:00:15Z</time>
      </trkpt>
      <trkpt lat="44.26051" lon="6.71229">
        <ele>2786.52</ele>
        <time>2019-08-05T09:00:31Z</time>
      </trkpt>
      <trkpt lat="44.26054" lon="6.71233">
        <ele>2788.44</ele>
        <time>2019-08-05T09:00:46Z</time>
      </trkpt>
      <trkpt lat="44.2606" lon="6.71225">
        <ele>2790.84</ele>
        <time>2019-08-05T09:01:03Z</time>
      </trkpt>
      <trkpt lat="44.26067" lon="6.7122">
        <ele>2793.73</ele>
        <time>2019-08-05T09:01:21Z</time>
      </trkpt>
      <trkpt lat="44.26072" lon="6.71219">
        <ele>2796.13</ele>
        <time>2019-08-05T09:01:37Z</time>
      </trkpt>
      <trkpt lat="44.26081" lon="6.71209">
        <ele>2797.57</ele>
        <time>2019-08-05T09:01:54Z</time>
      </trkpt>
      <trkpt lat="44.26089" lon="6.71205">
        <ele>2800.94</ele>
        <time>2019-08-05T09:02:09Z</time>
      </trkpt>
      <trkpt lat="44.26092" lon="6.71199">
        <ele>2802.38</ele>
        <time>2019-08-05T09:02:24Z</time>
      </trkpt>
      <trkpt lat="44.26097" lon="6.71194">
        <ele>2804.3</ele>
        <time>2019-08-05T09:02:40Z</time>
      </trkpt>
      <trkpt lat="44.26101" lon="6.71183">
        <ele>2804.3</ele>
        <time>2019-08-05T09:02:56Z</time>
      </trkpt>
      <trkpt lat="44.26106" lon="6.71178">
        <ele>2805.75</ele>
        <time>2019-08-05T09:03:14Z</time>
      </trkpt>
      <trkpt lat="44.26109" lon="6.7117">
        <ele>2807.19</ele>
        <time>2019-08-05T09:03:30Z</time>
      </trkpt>
      <trkpt lat="44.26118" lon="6.71171">
        <ele>2807.67</ele>
        <time>2019-08-05T09:03:53Z</time>
      </trkpt>
      <trkpt lat="44.26123" lon="6.71166">
        <ele>2809.11</ele>
        <time>2019-08-05T09:04:02Z</time>
      </trkpt>
      <trkpt lat="44.2613" lon="6.71156">
        <ele>2811.03</ele>
        <time>2019-08-05T09:04:16Z</time>
      </trkpt>
      <trkpt lat="44.26139" lon="6.7114">
        <ele>2812.47</ele>
        <time>2019-08-05T09:04:31Z</time>
      </trkpt>
      <trkpt lat="44.2615" lon="6.71132">
        <ele>2814.4</ele>
        <time>2019-08-05T09:04:45Z</time>
      </trkpt>
      <trkpt lat="44.26152" lon="6.71131">
        <ele>2815.84</ele>
        <time>2019-08-05T09:04:50Z</time>
      </trkpt>
      <trkpt lat="44.26155" lon="6.71124">
        <ele>2817.76</ele>
        <time>2019-08-05T09:05:04Z</time>
      </trkpt>
      <trkpt lat="44.26149" lon="6.71113">
        <ele>2817.76</ele>
        <time>2019-08-05T09:05:32Z</time>
      </trkpt>
      <trkpt lat="44.26161" lon="6.7111">
        <ele>2820.65</ele>
        <time>2019-08-05T09:05:47Z</time>
      </trkpt>
      <trkpt lat="44.26169" lon="6.711">
        <ele>2821.61</ele>
        <time>2019-08-05T09:06:01Z</time>
      </trkpt>
      <trkpt lat="44.26177" lon="6.71086">
        <ele>2822.57</ele>
        <time>2019-08-05T09:06:16Z</time>
      </trkpt>
      <trkpt lat="44.26182" lon="6.71075">
        <ele>2824.01</ele>
        <time>2019-08-05T09:06:29Z</time>
      </trkpt>
      <trkpt lat="44.26185" lon="6.71071">
        <ele>2825.45</ele>
        <time>2019-08-05T09:06:43Z</time>
      </trkpt>
      <trkpt lat="44.26185" lon="6.7106">
        <ele>2825.45</ele>
        <time>2019-08-05T09:06:59Z</time>
      </trkpt>
      <trkpt lat="44.26191" lon="6.71048">
        <ele>2826.89</ele>
        <time>2019-08-05T09:07:13Z</time>
      </trkpt>
      <trkpt lat="44.26201" lon="6.71041">
        <ele>2829.3</ele>
        <time>2019-08-05T09:07:27Z</time>
      </trkpt>
      <trkpt lat="44.26208" lon="6.71034">
        <ele>2831.7</ele>
        <time>2019-08-05T09:07:41Z</time>
      </trkpt>
      <trkpt lat="44.26213" lon="6.71027">
        <ele>2835.06</ele>
        <time>2019-08-05T09:07:55Z</time>
      </trkpt>
      <trkpt lat="44.26211" lon="6.7102">
        <ele>2836.51</ele>
        <time>2019-08-05T09:08:11Z</time>
      </trkpt>
      <trkpt lat="44.26211" lon="6.71021">
        <ele>2836.51</ele>
        <time>2019-08-05T09:08:33Z</time>
      </trkpt>
      <trkpt lat="44.26211" lon="6.71017">
        <ele>2836.03</ele>
        <time>2019-08-05T09:08:52Z</time>
      </trkpt>
      <trkpt lat="44.26211" lon="6.71018">
        <ele>2836.99</ele>
        <time>2019-08-05T09:09:18Z</time>
      </trkpt>
      <trkpt lat="44.2621" lon="6.71016">
        <ele>2836.99</ele>
        <time>2019-08-05T09:09:41Z</time>
      </trkpt>
      <trkpt lat="44.26211" lon="6.71013">
        <ele>2836.51</ele>
        <time>2019-08-05T09:10:02Z</time>
      </trkpt>
      <trkpt lat="44.26212" lon="6.71016">
        <ele>2836.99</ele>
        <time>2019-08-05T09:10:27Z</time>
      </trkpt>
      <trkpt lat="44.26211" lon="6.71015">
        <ele>2836.99</ele>
        <time>2019-08-05T09:10:50Z</time>
      </trkpt>
      <trkpt lat="44.26218" lon="6.71007">
        <ele>2837.95</ele>
        <time>2019-08-05T09:11:06Z</time>
      </trkpt>
      <trkpt lat="44.26225" lon="6.70997">
        <ele>2840.83</ele>
        <time>2019-08-05T09:11:20Z</time>
      </trkpt>
      <trkpt lat="44.26229" lon="6.70988">
        <ele>2842.76</ele>
        <time>2019-08-05T09:11:31Z</time>
      </trkpt>
      <trkpt lat="44.26234" lon="6.70981">
        <ele>2844.2</ele>
        <time>2019-08-05T09:11:43Z</time>
      </trkpt>
      <trkpt lat="44.26243" lon="6.70975">
        <ele>2847.08</ele>
        <time>2019-08-05T09:11:58Z</time>
      </trkpt>
      <trkpt lat="44.26249" lon="6.70965">
        <ele>2848.04</ele>
        <time>2019-08-05T09:12:12Z</time>
      </trkpt>
      <trkpt lat="44.26251" lon="6.70962">
        <ele>2849</ele>
        <time>2019-08-05T09:12:17Z</time>
      </trkpt>
      <trkpt lat="44.26255" lon="6.70949">
        <ele>2851.41</ele>
        <time>2019-08-05T09:12:32Z</time>
      </trkpt>
      <trkpt lat="44.26261" lon="6.70945">
        <ele>2852.85</ele>
        <time>2019-08-05T09:12:44Z</time>
      </trkpt>
      <trkpt lat="44.26269" lon="6.70936">
        <ele>2855.25</ele>
        <time>2019-08-05T09:12:59Z</time>
      </trkpt>
      <trkpt lat="44.26276" lon="6.70931">
        <ele>2856.69</ele>
        <time>2019-08-05T09:13:11Z</time>
      </trkpt>
      <trkpt lat="44.2628" lon="6.70927">
        <ele>2857.66</ele>
        <time>2019-08-05T09:13:17Z</time>
      </trkpt>
      <trkpt lat="44.26281" lon="6.70914">
        <ele>2859.1</ele>
        <time>2019-08-05T09:13:31Z</time>
      </trkpt>
      <trkpt lat="44.26286" lon="6.70905">
        <ele>2861.02</ele>
        <time>2019-08-05T09:13:44Z</time>
      </trkpt>
      <trkpt lat="44.26288" lon="6.70891">
        <ele>2862.46</ele>
        <time>2019-08-05T09:13:59Z</time>
      </trkpt>
      <trkpt lat="44.26291" lon="6.70877">
        <ele>2864.87</ele>
        <time>2019-08-05T09:14:15Z</time>
      </trkpt>
      <trkpt lat="44.26294" lon="6.70866">
        <ele>2866.31</ele>
        <time>2019-08-05T09:14:29Z</time>
      </trkpt>
      <trkpt lat="44.26299" lon="6.70857">
        <ele>2868.71</ele>
        <time>2019-08-05T09:14:44Z</time>
      </trkpt>
      <trkpt lat="44.26304" lon="6.70845">
        <ele>2870.15</ele>
        <time>2019-08-05T09:14:58Z</time>
      </trkpt>
      <trkpt lat="44.26306" lon="6.70837">
        <ele>2871.11</ele>
        <time>2019-08-05T09:15:15Z</time>
      </trkpt>
      <trkpt lat="44.26307" lon="6.70831">
        <ele>2872.08</ele>
        <time>2019-08-05T09:15:21Z</time>
      </trkpt>
      <trkpt lat="44.26312" lon="6.70818">
        <ele>2873.04</ele>
        <time>2019-08-05T09:15:35Z</time>
      </trkpt>
      <trkpt lat="44.26315" lon="6.70814">
        <ele>2874.48</ele>
        <time>2019-08-05T09:15:41Z</time>
      </trkpt>
      <trkpt lat="44.26321" lon="6.708">
        <ele>2875.92</ele>
        <time>2019-08-05T09:15:57Z</time>
      </trkpt>
      <trkpt lat="44.26321" lon="6.70794">
        <ele>2876.88</ele>
        <time>2019-08-05T09:16:11Z</time>
      </trkpt>
      <trkpt lat="44.26323" lon="6.70782">
        <ele>2878.32</ele>
        <time>2019-08-05T09:16:24Z</time>
      </trkpt>
      <trkpt lat="44.2633" lon="6.70771">
        <ele>2880.73</ele>
        <time>2019-08-05T09:16:39Z</time>
      </trkpt>
      <trkpt lat="44.26332" lon="6.70759">
        <ele>2883.61</ele>
        <time>2019-08-05T09:16:53Z</time>
      </trkpt>
      <trkpt lat="44.26328" lon="6.70744">
        <ele>2885.05</ele>
        <time>2019-08-05T09:17:10Z</time>
      </trkpt>
      <trkpt lat="44.2633" lon="6.70731">
        <ele>2887.46</ele>
        <time>2019-08-05T09:17:26Z</time>
      </trkpt>
      <trkpt lat="44.26326" lon="6.70718">
        <ele>2889.38</ele>
        <time>2019-08-05T09:17:41Z</time>
      </trkpt>
      <trkpt lat="44.26324" lon="6.70702">
        <ele>2890.82</ele>
        <time>2019-08-05T09:17:58Z</time>
      </trkpt>
      <trkpt lat="44.26324" lon="6.70691">
        <ele>2893.71</ele>
        <time>2019-08-05T09:18:12Z</time>
      </trkpt>
      <trkpt lat="44.26323" lon="6.70682">
        <ele>2895.63</ele>
        <time>2019-08-05T09:18:25Z</time>
      </trkpt>
      <trkpt lat="44.26325" lon="6.70683">
        <ele>2896.11</ele>
        <time>2019-08-05T09:18:47Z</time>
      </trkpt>
      <trkpt lat="44.26325" lon="6.70686">
        <ele>2896.11</ele>
        <time>2019-08-05T09:19:03Z</time>
      </trkpt>
      <trkpt lat="44.26327" lon="6.70689">
        <ele>2896.59</ele>
        <time>2019-08-05T09:19:26Z</time>
      </trkpt>
      <trkpt lat="44.26333" lon="6.70697">
        <ele>2897.55</ele>
        <time>2019-08-05T09:19:39Z</time>
      </trkpt>
      <trkpt lat="44.2634" lon="6.70711">
        <ele>2899.95</ele>
        <time>2019-08-05T09:19:54Z</time>
      </trkpt>
      <trkpt lat="44.2635" lon="6.70725">
        <ele>2901.88</ele>
        <time>2019-08-05T09:20:10Z</time>
      </trkpt>
      <trkpt lat="44.26354" lon="6.70734">
        <ele>2903.32</ele>
        <time>2019-08-05T09:20:20Z</time>
      </trkpt>
      <trkpt lat="44.26358" lon="6.70747">
        <ele>2904.76</ele>
        <time>2019-08-05T09:20:36Z</time>
      </trkpt>
      <trkpt lat="44.26367" lon="6.70762">
        <ele>2908.13</ele>
        <time>2019-08-05T09:20:52Z</time>
      </trkpt>
      <trkpt lat="44.2637" lon="6.70773">
        <ele>2910.05</ele>
        <time>2019-08-05T09:21:05Z</time>
      </trkpt>
      <trkpt lat="44.26371" lon="6.70789">
        <ele>2910.53</ele>
        <time>2019-08-05T09:21:19Z</time>
      </trkpt>
      <trkpt lat="44.26377" lon="6.70799">
        <ele>2912.45</ele>
        <time>2019-08-05T09:21:32Z</time>
      </trkpt>
      <trkpt lat="44.2638" lon="6.70816">
        <ele>2914.37</ele>
        <time>2019-08-05T09:21:47Z</time>
      </trkpt>
      <trkpt lat="44.26381" lon="6.70833">
        <ele>2915.82</ele>
        <time>2019-08-05T09:22:02Z</time>
      </trkpt>
      <trkpt lat="44.26384" lon="6.70837">
        <ele>2917.74</ele>
        <time>2019-08-05T09:22:19Z</time>
      </trkpt>
      <trkpt lat="44.26389" lon="6.7085">
        <ele>2920.14</ele>
        <time>2019-08-05T09:22:33Z</time>
      </trkpt>
      <trkpt lat="44.26389" lon="6.70853">
        <ele>2921.1</ele>
        <time>2019-08-05T09:22:35Z</time>
      </trkpt>
      <trkpt lat="44.26394" lon="6.70864">
        <ele>2923.51</ele>
        <time>2019-08-05T09:22:49Z</time>
      </trkpt>
      <trkpt lat="44.26396" lon="6.70877">
        <ele>2924.95</ele>
        <time>2019-08-05T09:23:04Z</time>
      </trkpt>
      <trkpt lat="44.26397" lon="6.70892">
        <ele>2926.39</ele>
        <time>2019-08-05T09:23:19Z</time>
      </trkpt>
      <trkpt lat="44.26398" lon="6.70898">
        <ele>2927.83</ele>
        <time>2019-08-05T09:23:34Z</time>
      </trkpt>
      <trkpt lat="44.26397" lon="6.70896">
        <ele>2927.35</ele>
        <time>2019-08-05T09:23:53Z</time>
      </trkpt>
      <trkpt lat="44.26398" lon="6.709">
        <ele>2927.83</ele>
        <time>2019-08-05T09:23:57Z</time>
      </trkpt>
      <trkpt lat="44.26401" lon="6.70908">
        <ele>2929.75</ele>
        <time>2019-08-05T09:24:13Z</time>
      </trkpt>
      <trkpt lat="44.26406" lon="6.70907">
        <ele>2929.75</ele>
        <time>2019-08-05T09:24:36Z</time>
      </trkpt>
      <trkpt lat="44.26406" lon="6.70903">
        <ele>2930.24</ele>
        <time>2019-08-05T09:24:44Z</time>
      </trkpt>
      <trkpt lat="44.26407" lon="6.70888">
        <ele>2932.16</ele>
        <time>2019-08-05T09:24:59Z</time>
      </trkpt>
      <trkpt lat="44.26412" lon="6.70872">
        <ele>2934.56</ele>
        <time>2019-08-05T09:25:14Z</time>
      </trkpt>
      <trkpt lat="44.26414" lon="6.70858">
        <ele>2936</ele>
        <time>2019-08-05T09:25:28Z</time>
      </trkpt>
      <trkpt lat="44.26417" lon="6.70857">
        <ele>2938.41</ele>
        <time>2019-08-05T09:25:43Z</time>
      </trkpt>
      <trkpt lat="44.26418" lon="6.70851">
        <ele>2940.33</ele>
        <time>2019-08-05T09:25:55Z</time>
      </trkpt>
      <trkpt lat="44.2642" lon="6.70849">
        <ele>2940.33</ele>
        <time>2019-08-05T09:26:06Z</time>
      </trkpt>
      <trkpt lat="44.26421" lon="6.70836">
        <ele>2941.77</ele>
        <time>2019-08-05T09:26:21Z</time>
      </trkpt>
      <trkpt lat="44.26423" lon="6.70825">
        <ele>2943.21</ele>
        <time>2019-08-05T09:26:35Z</time>
      </trkpt>
      <trkpt lat="44.26424" lon="6.70817">
        <ele>2944.66</ele>
        <time>2019-08-05T09:26:46Z</time>
      </trkpt>
      <trkpt lat="44.26425" lon="6.70803">
        <ele>2946.1</ele>
        <time>2019-08-05T09:27:00Z</time>
      </trkpt>
      <trkpt lat="44.26429" lon="6.70793">
        <ele>2948.98</ele>
        <time>2019-08-05T09:27:15Z</time>
      </trkpt>
      <trkpt lat="44.26433" lon="6.70798">
        <ele>2950.42</ele>
        <time>2019-08-05T09:27:28Z</time>
      </trkpt>
      <trkpt lat="44.26434" lon="6.70793">
        <ele>2952.35</ele>
        <time>2019-08-05T09:27:40Z</time>
      </trkpt>
      <trkpt lat="44.26435" lon="6.70795">
        <ele>2951.38</ele>
        <time>2019-08-05T09:28:01Z</time>
      </trkpt>
      <trkpt lat="44.26434" lon="6.70795">
        <ele>2953.79</ele>
        <time>2019-08-05T09:28:19Z</time>
      </trkpt>
      <trkpt lat="44.26433" lon="6.70793">
        <ele>2952.83</ele>
        <time>2019-08-05T09:28:39Z</time>
      </trkpt>
      <trkpt lat="44.26433" lon="6.70795">
        <ele>2952.83</ele>
        <time>2019-08-05T09:29:02Z</time>
      </trkpt>
      <trkpt lat="44.26435" lon="6.70796">
        <ele>2952.83</ele>
        <time>2019-08-05T09:29:31Z</time>
      </trkpt>
      <trkpt lat="44.26434" lon="6.70789">
        <ele>2953.79</ele>
        <time>2019-08-05T09:29:44Z</time>
      </trkpt>
      <trkpt lat="44.26434" lon="6.70781">
        <ele>2955.71</ele>
        <time>2019-08-05T09:29:57Z</time>
      </trkpt>
      <trkpt lat="44.26436" lon="6.70776">
        <ele>2956.67</ele>
        <time>2019-08-05T09:30:05Z</time>
      </trkpt>
      <trkpt lat="44.26436" lon="6.70775">
        <ele>2957.15</ele>
        <time>2019-08-05T09:30:06Z</time>
      </trkpt>
      <trkpt lat="44.26435" lon="6.70757">
        <ele>2959.56</ele>
        <time>2019-08-05T09:30:22Z</time>
      </trkpt>
      <trkpt lat="44.26438" lon="6.7075">
        <ele>2961.96</ele>
        <time>2019-08-05T09:30:36Z</time>
      </trkpt>
      <trkpt lat="44.26437" lon="6.70745">
        <ele>2963.88</ele>
        <time>2019-08-05T09:30:53Z</time>
      </trkpt>
      <trkpt lat="44.26439" lon="6.70738">
        <ele>2965.32</ele>
        <time>2019-08-05T09:31:09Z</time>
      </trkpt>
      <trkpt lat="44.26443" lon="6.70735">
        <ele>2967.73</ele>
        <time>2019-08-05T09:31:22Z</time>
      </trkpt>
      <trkpt lat="44.26445" lon="6.70729">
        <ele>2969.65</ele>
        <time>2019-08-05T09:31:34Z</time>
      </trkpt>
      <trkpt lat="44.26444" lon="6.70721">
        <ele>2971.57</ele>
        <time>2019-08-05T09:31:50Z</time>
      </trkpt>
      <trkpt lat="44.26445" lon="6.70712">
        <ele>2973.98</ele>
        <time>2019-08-05T09:32:03Z</time>
      </trkpt>
      <trkpt lat="44.26448" lon="6.7071">
        <ele>2975.9</ele>
        <time>2019-08-05T09:32:16Z</time>
      </trkpt>
      <trkpt lat="44.2645" lon="6.70705">
        <ele>2978.78</ele>
        <time>2019-08-05T09:32:29Z</time>
      </trkpt>
      <trkpt lat="44.26447" lon="6.70698">
        <ele>2980.71</ele>
        <time>2019-08-05T09:32:44Z</time>
      </trkpt>
      <trkpt lat="44.26447" lon="6.70692">
        <ele>2981.67</ele>
        <time>2019-08-05T09:32:57Z</time>
      </trkpt>
      <trkpt lat="44.26448" lon="6.70686">
        <ele>2983.11</ele>
        <time>2019-08-05T09:33:09Z</time>
      </trkpt>
      <trkpt lat="44.26452" lon="6.70688">
        <ele>2984.55</ele>
        <time>2019-08-05T09:33:21Z</time>
      </trkpt>
      <trkpt lat="44.26454" lon="6.70686">
        <ele>2986.47</ele>
        <time>2019-08-05T09:33:37Z</time>
      </trkpt>
      <trkpt lat="44.26452" lon="6.70678">
        <ele>2987.43</ele>
        <time>2019-08-05T09:33:52Z</time>
      </trkpt>
      <trkpt lat="44.26453" lon="6.70671">
        <ele>2988.88</ele>
        <time>2019-08-05T09:34:05Z</time>
      </trkpt>
      <trkpt lat="44.2645" lon="6.70663">
        <ele>2990.8</ele>
        <time>2019-08-05T09:34:27Z</time>
      </trkpt>
      <trkpt lat="44.2645" lon="6.70656">
        <ele>2992.72</ele>
        <time>2019-08-05T09:34:41Z</time>
      </trkpt>
      <trkpt lat="44.26449" lon="6.70649">
        <ele>2995.12</ele>
        <time>2019-08-05T09:34:53Z</time>
      </trkpt>
      <trkpt lat="44.2645" lon="6.70643">
        <ele>2997.05</ele>
        <time>2019-08-05T09:35:07Z</time>
      </trkpt>
      <trkpt lat="44.26451" lon="6.70636">
        <ele>2998.49</ele>
        <time>2019-08-05T09:35:22Z</time>
      </trkpt>
      <trkpt lat="44.26452" lon="6.7063">
        <ele>3000.41</ele>
        <time>2019-08-05T09:35:40Z</time>
      </trkpt>
      <trkpt lat="44.26454" lon="6.70628">
        <ele>3001.85</ele>
        <time>2019-08-05T09:35:58Z</time>
      </trkpt>
      <trkpt lat="44.26456" lon="6.70629">
        <ele>3004.74</ele>
        <time>2019-08-05T09:36:11Z</time>
      </trkpt>
      <trkpt lat="44.26461" lon="6.70634">
        <ele>3007.62</ele>
        <time>2019-08-05T09:36:26Z</time>
      </trkpt>
      <trkpt lat="44.26461" lon="6.70629">
        <ele>3009.06</ele>
        <time>2019-08-05T09:36:39Z</time>
      </trkpt>
      <trkpt lat="44.26464" lon="6.70633">
        <ele>3010.51</ele>
        <time>2019-08-05T09:36:52Z</time>
      </trkpt>
      <trkpt lat="44.26467" lon="6.70632">
        <ele>3011.47</ele>
        <time>2019-08-05T09:37:10Z</time>
      </trkpt>
      <trkpt lat="44.2647" lon="6.70633">
        <ele>3011.95</ele>
        <time>2019-08-05T09:37:24Z</time>
      </trkpt>
      <trkpt lat="44.26471" lon="6.70635">
        <ele>3013.39</ele>
        <time>2019-08-05T09:37:38Z</time>
      </trkpt>
      <trkpt lat="44.26471" lon="6.70634">
        <ele>3012.91</ele>
        <time>2019-08-05T09:37:59Z</time>
      </trkpt>
      <trkpt lat="44.26471" lon="6.70633">
        <ele>3013.39</ele>
        <time>2019-08-05T09:38:29Z</time>
      </trkpt>
      <trkpt lat="44.26469" lon="6.70634">
        <ele>3013.39</ele>
        <time>2019-08-05T09:38:57Z</time>
      </trkpt>
      <trkpt lat="44.2647" lon="6.70627">
        <ele>3014.83</ele>
        <time>2019-08-05T09:39:13Z</time>
      </trkpt>
      <trkpt lat="44.2647" lon="6.70623">
        <ele>3017.72</ele>
        <time>2019-08-05T09:39:26Z</time>
      </trkpt>
      <trkpt lat="44.26478" lon="6.70625">
        <ele>3019.64</ele>
        <time>2019-08-05T09:39:40Z</time>
      </trkpt>
      <trkpt lat="44.26482" lon="6.70627">
        <ele>3021.56</ele>
        <time>2019-08-05T09:39:52Z</time>
      </trkpt>
      <trkpt lat="44.26479" lon="6.70623">
        <ele>3022.52</ele>
        <time>2019-08-05T09:40:06Z</time>
      </trkpt>
      <trkpt lat="44.26478" lon="6.7062">
        <ele>3023</ele>
        <time>2019-08-05T09:40:24Z</time>
      </trkpt>
      <trkpt lat="44.26478" lon="6.7062">
        <ele>3023.48</ele>
        <time>2019-08-05T09:40:41Z</time>
      </trkpt>
      <trkpt lat="44.26477" lon="6.70621">
        <ele>3023.96</ele>
        <time>2019-08-05T09:41:06Z</time>
      </trkpt>
      <trkpt lat="44.26476" lon="6.70615">
        <ele>3023.96</ele>
        <time>2019-08-05T09:41:19Z</time>
      </trkpt>
      <trkpt lat="44.26479" lon="6.70612">
        <ele>3026.85</ele>
        <time>2019-08-05T09:41:33Z</time>
      </trkpt>
      <trkpt lat="44.26477" lon="6.70603">
        <ele>3028.77</ele>
        <time>2019-08-05T09:41:46Z</time>
      </trkpt>
      <trkpt lat="44.26477" lon="6.70599">
        <ele>3030.21</ele>
        <time>2019-08-05T09:41:59Z</time>
      </trkpt>
      <trkpt lat="44.26483" lon="6.70602">
        <ele>3032.14</ele>
        <time>2019-08-05T09:42:11Z</time>
      </trkpt>
      <trkpt lat="44.26487" lon="6.70603">
        <ele>3034.06</ele>
        <time>2019-08-05T09:42:25Z</time>
      </trkpt>
      <trkpt lat="44.26485" lon="6.70597">
        <ele>3035.02</ele>
        <time>2019-08-05T09:42:37Z</time>
      </trkpt>
      <trkpt lat="44.26486" lon="6.70594">
        <ele>3035.98</ele>
        <time>2019-08-05T09:42:49Z</time>
      </trkpt>
      <trkpt lat="44.26488" lon="6.70591">
        <ele>3037.9</ele>
        <time>2019-08-05T09:42:59Z</time>
      </trkpt>
      <trkpt lat="44.26491" lon="6.70588">
        <ele>3039.83</ele>
        <time>2019-08-05T09:43:14Z</time>
      </trkpt>
      <trkpt lat="44.26495" lon="6.70586">
        <ele>3041.75</ele>
        <time>2019-08-05T09:43:28Z</time>
      </trkpt>
      <trkpt lat="44.26501" lon="6.70579">
        <ele>3043.19</ele>
        <time>2019-08-05T09:43:41Z</time>
      </trkpt>
      <trkpt lat="44.26505" lon="6.70572">
        <ele>3044.15</ele>
        <time>2019-08-05T09:43:54Z</time>
      </trkpt>
      <trkpt lat="44.26502" lon="6.70577">
        <ele>3044.15</ele>
        <time>2019-08-05T09:44:09Z</time>
      </trkpt>
      <trkpt lat="44.26503" lon="6.70582">
        <ele>3046.56</ele>
        <time>2019-08-05T09:44:22Z</time>
      </trkpt>
      <trkpt lat="44.26503" lon="6.7058">
        <ele>3046.07</ele>
        <time>2019-08-05T09:44:36Z</time>
      </trkpt>
      <trkpt lat="44.26502" lon="6.70579">
        <ele>3045.11</ele>
        <time>2019-08-05T09:44:57Z</time>
      </trkpt>
      <trkpt lat="44.26503" lon="6.70578">
        <ele>3045.59</ele>
        <time>2019-08-05T09:45:24Z</time>
      </trkpt>
      <trkpt lat="44.26504" lon="6.7058">
        <ele>3045.59</ele>
        <time>2019-08-05T09:45:52Z</time>
      </trkpt>
      <trkpt lat="44.26502" lon="6.70583">
        <ele>3046.07</ele>
        <time>2019-08-05T09:46:13Z</time>
      </trkpt>
      <trkpt lat="44.26504" lon="6.70582">
        <ele>3046.07</ele>
        <time>2019-08-05T09:46:34Z</time>
      </trkpt>
      <trkpt lat="44.26505" lon="6.7058">
        <ele>3046.56</ele>
        <time>2019-08-05T09:47:01Z</time>
      </trkpt>
      <trkpt lat="44.26504" lon="6.70582">
        <ele>3046.56</ele>
        <time>2019-08-05T09:47:08Z</time>
      </trkpt>
      <trkpt lat="44.26504" lon="6.70582">
        <ele>3045.59</ele>
        <time>2019-08-05T09:47:12Z</time>
      </trkpt>
      <trkpt lat="44.26503" lon="6.70582">
        <ele>3045.59</ele>
        <time>2019-08-05T09:47:21Z</time>
      </trkpt>
      <trkpt lat="44.26503" lon="6.70581">
        <ele>3046.56</ele>
        <time>2019-08-05T09:47:36Z</time>
      </trkpt>
      <trkpt lat="44.26503" lon="6.70581">
        <ele>3046.07</ele>
        <time>2019-08-05T09:47:44Z</time>
      </trkpt>
      <trkpt lat="44.26503" lon="6.70581">
        <ele>3045.59</ele>
        <time>2019-08-05T09:48:20Z</time>
      </trkpt>
      <trkpt lat="44.26504" lon="6.70582">
        <ele>3045.11</ele>
        <time>2019-08-05T09:48:48Z</time>
      </trkpt>
      <trkpt lat="44.26505" lon="6.70582">
        <ele>3046.07</ele>
        <time>2019-08-05T09:49:41Z</time>
      </trkpt>
      <trkpt lat="44.26507" lon="6.70582">
        <ele>3046.07</ele>
        <time>2019-08-05T09:50:28Z</time>
      </trkpt>
      <trkpt lat="44.26509" lon="6.70581">
        <ele>3046.07</ele>
        <time>2019-08-05T09:51:03Z</time>
      </trkpt>
      <trkpt lat="44.26508" lon="6.70582">
        <ele>3046.56</ele>
        <time>2019-08-05T09:51:39Z</time>
      </trkpt>
      <trkpt lat="44.26508" lon="6.70582">
        <ele>3046.56</ele>
        <time>2019-08-05T09:52:13Z</time>
      </trkpt>
      <trkpt lat="44.2651" lon="6.70584">
        <ele>3047.04</ele>
        <time>2019-08-05T09:52:49Z</time>
      </trkpt>
      <trkpt lat="44.2651" lon="6.70582">
        <ele>3047.52</ele>
        <time>2019-08-05T09:53:17Z</time>
      </trkpt>
      <trkpt lat="44.26509" lon="6.70582">
        <ele>3048</ele>
        <time>2019-08-05T09:53:48Z</time>
      </trkpt>
      <trkpt lat="44.26509" lon="6.70583">
        <ele>3048</ele>
        <time>2019-08-05T09:54:19Z</time>
      </trkpt>
      <trkpt lat="44.26509" lon="6.70583">
        <ele>3048</ele>
        <time>2019-08-05T09:54:48Z</time>
      </trkpt>
      <trkpt lat="44.26509" lon="6.70584">
        <ele>3048</ele>
        <time>2019-08-05T09:55:20Z</time>
      </trkpt>
      <trkpt lat="44.2651" lon="6.70584">
        <ele>3048.48</ele>
        <time>2019-08-05T09:55:53Z</time>
      </trkpt>
      <trkpt lat="44.2651" lon="6.70584">
        <ele>3048.48</ele>
        <time>2019-08-05T09:56:23Z</time>
      </trkpt>
      <trkpt lat="44.2651" lon="6.70583">
        <ele>3048.48</ele>
        <time>2019-08-05T09:56:53Z</time>
      </trkpt>
      <trkpt lat="44.2651" lon="6.70585">
        <ele>3049.92</ele>
        <time>2019-08-05T09:57:21Z</time>
      </trkpt>
      <trkpt lat="44.2651" lon="6.70582">
        <ele>3049.44</ele>
        <time>2019-08-05T09:57:37Z</time>
      </trkpt>
      <trkpt lat="44.26512" lon="6.70574">
        <ele>3048</ele>
        <time>2019-08-05T09:57:50Z</time>
      </trkpt>
      <trkpt lat="44.2651" lon="6.70576">
        <ele>3048</ele>
        <time>2019-08-05T09:58:05Z</time>
      </trkpt>
      <trkpt lat="44.2651" lon="6.70574">
        <ele>3047.52</ele>
        <time>2019-08-05T09:58:24Z</time>
      </trkpt>
      <trkpt lat="44.26506" lon="6.70577">
        <ele>3047.04</ele>
        <time>2019-08-05T09:58:47Z</time>
      </trkpt>
      <trkpt lat="44.26502" lon="6.70578">
        <ele>3046.56</ele>
        <time>2019-08-05T09:58:53Z</time>
      </trkpt>
      <trkpt lat="44.26498" lon="6.70584">
        <ele>3046.56</ele>
        <time>2019-08-05T09:59:07Z</time>
      </trkpt>
      <trkpt lat="44.26494" lon="6.70585">
        <ele>3044.63</ele>
        <time>2019-08-05T09:59:20Z</time>
      </trkpt>
      <trkpt lat="44.26494" lon="6.70596">
        <ele>3043.19</ele>
        <time>2019-08-05T09:59:33Z</time>
      </trkpt>
      <trkpt lat="44.26493" lon="6.70601">
        <ele>3041.75</ele>
        <time>2019-08-05T09:59:47Z</time>
      </trkpt>
      <trkpt lat="44.26492" lon="6.70604">
        <ele>3040.31</ele>
        <time>2019-08-05T10:00:05Z</time>
      </trkpt>
      <trkpt lat="44.26491" lon="6.70609">
        <ele>3039.35</ele>
        <time>2019-08-05T10:00:16Z</time>
      </trkpt>
      <trkpt lat="44.26491" lon="6.70607">
        <ele>3038.38</ele>
        <time>2019-08-05T10:00:31Z</time>
      </trkpt>
      <trkpt lat="44.26487" lon="6.70606">
        <ele>3037.9</ele>
        <time>2019-08-05T10:00:49Z</time>
      </trkpt>
      <trkpt lat="44.26486" lon="6.70614">
        <ele>3035.98</ele>
        <time>2019-08-05T10:01:03Z</time>
      </trkpt>
      <trkpt lat="44.26485" lon="6.70621">
        <ele>3033.58</ele>
        <time>2019-08-05T10:01:16Z</time>
      </trkpt>
      <trkpt lat="44.26485" lon="6.70625">
        <ele>3031.17</ele>
        <time>2019-08-05T10:01:33Z</time>
      </trkpt>
      <trkpt lat="44.26486" lon="6.70637">
        <ele>3028.77</ele>
        <time>2019-08-05T10:01:49Z</time>
      </trkpt>
      <trkpt lat="44.26484" lon="6.70633">
        <ele>3027.33</ele>
        <time>2019-08-05T10:02:05Z</time>
      </trkpt>
      <trkpt lat="44.26485" lon="6.70635">
        <ele>3027.33</ele>
        <time>2019-08-05T10:02:22Z</time>
      </trkpt>
      <trkpt lat="44.26482" lon="6.70631">
        <ele>3026.37</ele>
        <time>2019-08-05T10:02:41Z</time>
      </trkpt>
      <trkpt lat="44.26477" lon="6.70628">
        <ele>3024.44</ele>
        <time>2019-08-05T10:02:56Z</time>
      </trkpt>
      <trkpt lat="44.26473" lon="6.70635">
        <ele>3023</ele>
        <time>2019-08-05T10:03:12Z</time>
      </trkpt>
      <trkpt lat="44.26472" lon="6.7064">
        <ele>3021.08</ele>
        <time>2019-08-05T10:03:26Z</time>
      </trkpt>
      <trkpt lat="44.26472" lon="6.70637">
        <ele>3019.16</ele>
        <time>2019-08-05T10:03:42Z</time>
      </trkpt>
      <trkpt lat="44.26469" lon="6.70635">
        <ele>3016.75</ele>
        <time>2019-08-05T10:03:54Z</time>
      </trkpt>
      <trkpt lat="44.26464" lon="6.70638">
        <ele>3015.31</ele>
        <time>2019-08-05T10:04:09Z</time>
      </trkpt>
      <trkpt lat="44.26462" lon="6.70634">
        <ele>3012.91</ele>
        <time>2019-08-05T10:04:25Z</time>
      </trkpt>
      <trkpt lat="44.26459" lon="6.7063">
        <ele>3011.47</ele>
        <time>2019-08-05T10:04:40Z</time>
      </trkpt>
      <trkpt lat="44.26456" lon="6.70631">
        <ele>3010.51</ele>
        <time>2019-08-05T10:04:56Z</time>
      </trkpt>
      <trkpt lat="44.26454" lon="6.70632">
        <ele>3009.54</ele>
        <time>2019-08-05T10:05:10Z</time>
      </trkpt>
      <trkpt lat="44.26454" lon="6.70632">
        <ele>3008.58</ele>
        <time>2019-08-05T10:05:12Z</time>
      </trkpt>
      <trkpt lat="44.26454" lon="6.70634">
        <ele>3009.06</ele>
        <time>2019-08-05T10:05:31Z</time>
      </trkpt>
      <trkpt lat="44.26454" lon="6.70636">
        <ele>3008.58</ele>
        <time>2019-08-05T10:05:54Z</time>
      </trkpt>
      <trkpt lat="44.26451" lon="6.70642">
        <ele>3006.18</ele>
        <time>2019-08-05T10:06:08Z</time>
      </trkpt>
      <trkpt lat="44.26451" lon="6.70649">
        <ele>3005.22</ele>
        <time>2019-08-05T10:06:18Z</time>
      </trkpt>
      <trkpt lat="44.26451" lon="6.70653">
        <ele>3004.26</ele>
        <time>2019-08-05T10:06:33Z</time>
      </trkpt>
      <trkpt lat="44.26452" lon="6.70662">
        <ele>3000.89</ele>
        <time>2019-08-05T10:06:46Z</time>
      </trkpt>
      <trkpt lat="44.26452" lon="6.70662">
        <ele>2999.93</ele>
        <time>2019-08-05T10:06:48Z</time>
      </trkpt>
      <trkpt lat="44.26453" lon="6.7067">
        <ele>2997.05</ele>
        <time>2019-08-05T10:07:03Z</time>
      </trkpt>
      <trkpt lat="44.26453" lon="6.70682">
        <ele>2994.64</ele>
        <time>2019-08-05T10:07:19Z</time>
      </trkpt>
      <trkpt lat="44.26455" lon="6.70686">
        <ele>2993.68</ele>
        <time>2019-08-05T10:07:32Z</time>
      </trkpt>
      <trkpt lat="44.26453" lon="6.70685">
        <ele>2993.2</ele>
        <time>2019-08-05T10:07:47Z</time>
      </trkpt>
      <trkpt lat="44.26449" lon="6.70689">
        <ele>2990.8</ele>
        <time>2019-08-05T10:08:03Z</time>
      </trkpt>
      <trkpt lat="44.26453" lon="6.70696">
        <ele>2990.32</ele>
        <time>2019-08-05T10:08:18Z</time>
      </trkpt>
      <trkpt lat="44.26452" lon="6.70697">
        <ele>2989.36</ele>
        <time>2019-08-05T10:08:31Z</time>
      </trkpt>
      <trkpt lat="44.26451" lon="6.70696">
        <ele>2987.91</ele>
        <time>2019-08-05T10:08:34Z</time>
      </trkpt>
      <trkpt lat="44.26449" lon="6.70703">
        <ele>2985.99</ele>
        <time>2019-08-05T10:08:48Z</time>
      </trkpt>
      <trkpt lat="44.26448" lon="6.70709">
        <ele>2984.07</ele>
        <time>2019-08-05T10:09:03Z</time>
      </trkpt>
      <trkpt lat="44.26445" lon="6.7071">
        <ele>2982.15</ele>
        <time>2019-08-05T10:09:11Z</time>
      </trkpt>
      <trkpt lat="44.26446" lon="6.70723">
        <ele>2979.74</ele>
        <time>2019-08-05T10:09:25Z</time>
      </trkpt>
      <trkpt lat="44.26445" lon="6.70733">
        <ele>2977.34</ele>
        <time>2019-08-05T10:09:40Z</time>
      </trkpt>
      <trkpt lat="44.26441" lon="6.70733">
        <ele>2974.94</ele>
        <time>2019-08-05T10:09:52Z</time>
      </trkpt>
      <trkpt lat="44.2644" lon="6.70744">
        <ele>2972.05</ele>
        <time>2019-08-05T10:10:06Z</time>
      </trkpt>
      <trkpt lat="44.26441" lon="6.70754">
        <ele>2971.09</ele>
        <time>2019-08-05T10:10:21Z</time>
      </trkpt>
      <trkpt lat="44.26439" lon="6.70757">
        <ele>2970.13</ele>
        <time>2019-08-05T10:10:37Z</time>
      </trkpt>
      <trkpt lat="44.26438" lon="6.70769">
        <ele>2966.77</ele>
        <time>2019-08-05T10:10:50Z</time>
      </trkpt>
      <trkpt lat="44.26436" lon="6.70784">
        <ele>2964.84</ele>
        <time>2019-08-05T10:11:07Z</time>
      </trkpt>
      <trkpt lat="44.26434" lon="6.7079">
        <ele>2964.36</ele>
        <time>2019-08-05T10:11:17Z</time>
      </trkpt>
      <trkpt lat="44.26434" lon="6.70799">
        <ele>2962.44</ele>
        <time>2019-08-05T10:11:31Z</time>
      </trkpt>
      <trkpt lat="44.26431" lon="6.70793">
        <ele>2960.52</ele>
        <time>2019-08-05T10:11:48Z</time>
      </trkpt>
      <trkpt lat="44.26428" lon="6.70803">
        <ele>2958.11</ele>
        <time>2019-08-05T10:12:03Z</time>
      </trkpt>
      <trkpt lat="44.26423" lon="6.7081">
        <ele>2956.19</ele>
        <time>2019-08-05T10:12:18Z</time>
      </trkpt>
      <trkpt lat="44.26423" lon="6.70822">
        <ele>2955.23</ele>
        <time>2019-08-05T10:12:31Z</time>
      </trkpt>
      <trkpt lat="44.26419" lon="6.70835">
        <ele>2952.35</ele>
        <time>2019-08-05T10:12:46Z</time>
      </trkpt>
      <trkpt lat="44.26416" lon="6.70847">
        <ele>2950.9</ele>
        <time>2019-08-05T10:13:00Z</time>
      </trkpt>
      <trkpt lat="44.26415" lon="6.70847">
        <ele>2951.38</ele>
        <time>2019-08-05T10:13:07Z</time>
      </trkpt>
      <trkpt lat="44.26412" lon="6.70851">
        <ele>2948.98</ele>
        <time>2019-08-05T10:13:12Z</time>
      </trkpt>
      <trkpt lat="44.2641" lon="6.70864">
        <ele>2947.06</ele>
        <time>2019-08-05T10:13:23Z</time>
      </trkpt>
      <trkpt lat="44.26406" lon="6.70879">
        <ele>2945.62</ele>
        <time>2019-08-05T10:13:39Z</time>
      </trkpt>
      <trkpt lat="44.26403" lon="6.70897">
        <ele>2944.66</ele>
        <time>2019-08-05T10:13:55Z</time>
      </trkpt>
      <trkpt lat="44.26401" lon="6.70908">
        <ele>2941.77</ele>
        <time>2019-08-05T10:14:12Z</time>
      </trkpt>
      <trkpt lat="44.264" lon="6.7091">
        <ele>2942.25</ele>
        <time>2019-08-05T10:14:31Z</time>
      </trkpt>
      <trkpt lat="44.26401" lon="6.70908">
        <ele>2942.25</ele>
        <time>2019-08-05T10:14:50Z</time>
      </trkpt>
      <trkpt lat="44.26399" lon="6.70891">
        <ele>2940.33</ele>
        <time>2019-08-05T10:15:05Z</time>
      </trkpt>
      <trkpt lat="44.26396" lon="6.70879">
        <ele>2939.37</ele>
        <time>2019-08-05T10:15:16Z</time>
      </trkpt>
      <trkpt lat="44.26392" lon="6.70863">
        <ele>2937.93</ele>
        <time>2019-08-05T10:15:30Z</time>
      </trkpt>
      <trkpt lat="44.26388" lon="6.70849">
        <ele>2935.04</ele>
        <time>2019-08-05T10:15:43Z</time>
      </trkpt>
      <trkpt lat="44.26384" lon="6.70837">
        <ele>2931.68</ele>
        <time>2019-08-05T10:15:56Z</time>
      </trkpt>
      <trkpt lat="44.26379" lon="6.70816">
        <ele>2929.27</ele>
        <time>2019-08-05T10:16:12Z</time>
      </trkpt>
      <trkpt lat="44.26378" lon="6.7081">
        <ele>2928.79</ele>
        <time>2019-08-05T10:16:17Z</time>
      </trkpt>
      <trkpt lat="44.26377" lon="6.70807">
        <ele>2928.31</ele>
        <time>2019-08-05T10:16:20Z</time>
      </trkpt>
      <trkpt lat="44.26371" lon="6.70788">
        <ele>2926.87</ele>
        <time>2019-08-05T10:16:36Z</time>
      </trkpt>
      <trkpt lat="44.26367" lon="6.70766">
        <ele>2926.39</ele>
        <time>2019-08-05T10:16:53Z</time>
      </trkpt>
      <trkpt lat="44.26361" lon="6.70754">
        <ele>2923.51</ele>
        <time>2019-08-05T10:17:06Z</time>
      </trkpt>
      <trkpt lat="44.26359" lon="6.70748">
        <ele>2923.03</ele>
        <time>2019-08-05T10:17:14Z</time>
      </trkpt>
      <trkpt lat="44.26352" lon="6.70729">
        <ele>2921.58</ele>
        <time>2019-08-05T10:17:29Z</time>
      </trkpt>
      <trkpt lat="44.26343" lon="6.70713">
        <ele>2918.7</ele>
        <time>2019-08-05T10:17:44Z</time>
      </trkpt>
      <trkpt lat="44.26332" lon="6.70693">
        <ele>2917.74</ele>
        <time>2019-08-05T10:18:01Z</time>
      </trkpt>
      <trkpt lat="44.26331" lon="6.7069">
        <ele>2915.82</ele>
        <time>2019-08-05T10:18:04Z</time>
      </trkpt>
      <trkpt lat="44.26326" lon="6.70695">
        <ele>2912.93</ele>
        <time>2019-08-05T10:18:18Z</time>
      </trkpt>
      <trkpt lat="44.26325" lon="6.70707">
        <ele>2909.57</ele>
        <time>2019-08-05T10:18:28Z</time>
      </trkpt>
      <trkpt lat="44.26325" lon="6.70711">
        <ele>2910.05</ele>
        <time>2019-08-05T10:18:32Z</time>
      </trkpt>
      <trkpt lat="44.26325" lon="6.70722">
        <ele>2908.13</ele>
        <time>2019-08-05T10:18:40Z</time>
      </trkpt>
      <trkpt lat="44.26328" lon="6.70732">
        <ele>2907.16</ele>
        <time>2019-08-05T10:18:50Z</time>
      </trkpt>
      <trkpt lat="44.26327" lon="6.70735">
        <ele>2906.68</ele>
        <time>2019-08-05T10:18:53Z</time>
      </trkpt>
      <trkpt lat="44.26327" lon="6.70758">
        <ele>2903.8</ele>
        <time>2019-08-05T10:19:10Z</time>
      </trkpt>
      <trkpt lat="44.26324" lon="6.70776">
        <ele>2900.44</ele>
        <time>2019-08-05T10:19:25Z</time>
      </trkpt>
      <trkpt lat="44.26321" lon="6.70794">
        <ele>2897.07</ele>
        <time>2019-08-05T10:19:39Z</time>
      </trkpt>
      <trkpt lat="44.26315" lon="6.70807">
        <ele>2895.63</ele>
        <time>2019-08-05T10:19:57Z</time>
      </trkpt>
      <trkpt lat="44.26314" lon="6.70812">
        <ele>2895.15</ele>
        <time>2019-08-05T10:20:12Z</time>
      </trkpt>
      <trkpt lat="44.26316" lon="6.70809">
        <ele>2895.63</ele>
        <time>2019-08-05T10:20:25Z</time>
      </trkpt>
      <trkpt lat="44.2632" lon="6.70811">
        <ele>2895.15</ele>
        <time>2019-08-05T10:20:47Z</time>
      </trkpt>
      <trkpt lat="44.26311" lon="6.7082">
        <ele>2893.71</ele>
        <time>2019-08-05T10:21:06Z</time>
      </trkpt>
      <trkpt lat="44.26305" lon="6.70839">
        <ele>2892.74</ele>
        <time>2019-08-05T10:21:22Z</time>
      </trkpt>
      <trkpt lat="44.26307" lon="6.70842">
        <ele>2891.78</ele>
        <time>2019-08-05T10:21:39Z</time>
      </trkpt>
      <trkpt lat="44.26311" lon="6.70843">
        <ele>2891.78</ele>
        <time>2019-08-05T10:22:05Z</time>
      </trkpt>
      <trkpt lat="44.26301" lon="6.7085">
        <ele>2892.26</ele>
        <time>2019-08-05T10:22:23Z</time>
      </trkpt>
      <trkpt lat="44.26301" lon="6.70852">
        <ele>2892.74</ele>
        <time>2019-08-05T10:22:28Z</time>
      </trkpt>
      <trkpt lat="44.26294" lon="6.70865">
        <ele>2888.42</ele>
        <time>2019-08-05T10:22:41Z</time>
      </trkpt>
      <trkpt lat="44.2629" lon="6.7088">
        <ele>2887.94</ele>
        <time>2019-08-05T10:22:53Z</time>
      </trkpt>
      <trkpt lat="44.26285" lon="6.70902">
        <ele>2885.53</ele>
        <time>2019-08-05T10:23:11Z</time>
      </trkpt>
      <trkpt lat="44.26281" lon="6.70914">
        <ele>2883.13</ele>
        <time>2019-08-05T10:23:24Z</time>
      </trkpt>
      <trkpt lat="44.26274" lon="6.70934">
        <ele>2879.77</ele>
        <time>2019-08-05T10:23:42Z</time>
      </trkpt>
      <trkpt lat="44.26268" lon="6.70944">
        <ele>2878.32</ele>
        <time>2019-08-05T10:23:58Z</time>
      </trkpt>
      <trkpt lat="44.26259" lon="6.70954">
        <ele>2875.44</ele>
        <time>2019-08-05T10:24:12Z</time>
      </trkpt>
      <trkpt lat="44.26253" lon="6.70969">
        <ele>2873.04</ele>
        <time>2019-08-05T10:24:28Z</time>
      </trkpt>
      <trkpt lat="44.26241" lon="6.7098">
        <ele>2870.15</ele>
        <time>2019-08-05T10:24:43Z</time>
      </trkpt>
      <trkpt lat="44.26232" lon="6.70994">
        <ele>2867.27</ele>
        <time>2019-08-05T10:25:01Z</time>
      </trkpt>
      <trkpt lat="44.26224" lon="6.71008">
        <ele>2864.39</ele>
        <time>2019-08-05T10:25:16Z</time>
      </trkpt>
      <trkpt lat="44.26214" lon="6.71024">
        <ele>2861.02</ele>
        <time>2019-08-05T10:25:30Z</time>
      </trkpt>
      <trkpt lat="44.26209" lon="6.71028">
        <ele>2858.62</ele>
        <time>2019-08-05T10:25:37Z</time>
      </trkpt>
      <trkpt lat="44.26199" lon="6.71036">
        <ele>2855.25</ele>
        <time>2019-08-05T10:25:51Z</time>
      </trkpt>
      <trkpt lat="44.26192" lon="6.71046">
        <ele>2851.89</ele>
        <time>2019-08-05T10:26:03Z</time>
      </trkpt>
      <trkpt lat="44.2619" lon="6.7105">
        <ele>2852.37</ele>
        <time>2019-08-05T10:26:06Z</time>
      </trkpt>
      <trkpt lat="44.26183" lon="6.71071">
        <ele>2849.97</ele>
        <time>2019-08-05T10:26:23Z</time>
      </trkpt>
      <trkpt lat="44.26176" lon="6.71084">
        <ele>2847.56</ele>
        <time>2019-08-05T10:26:40Z</time>
      </trkpt>
      <trkpt lat="44.26175" lon="6.71085">
        <ele>2847.08</ele>
        <time>2019-08-05T10:26:41Z</time>
      </trkpt>
      <trkpt lat="44.26174" lon="6.71088">
        <ele>2847.08</ele>
        <time>2019-08-05T10:26:43Z</time>
      </trkpt>
      <trkpt lat="44.26163" lon="6.71106">
        <ele>2846.12</ele>
        <time>2019-08-05T10:26:59Z</time>
      </trkpt>
      <trkpt lat="44.2615" lon="6.7112">
        <ele>2842.76</ele>
        <time>2019-08-05T10:27:17Z</time>
      </trkpt>
      <trkpt lat="44.26148" lon="6.71121">
        <ele>2841.79</ele>
        <time>2019-08-05T10:27:22Z</time>
      </trkpt>
      <trkpt lat="44.26142" lon="6.71124">
        <ele>2839.39</ele>
        <time>2019-08-05T10:27:27Z</time>
      </trkpt>
      <trkpt lat="44.26132" lon="6.71144">
        <ele>2837.47</ele>
        <time>2019-08-05T10:27:44Z</time>
      </trkpt>
      <trkpt lat="44.26122" lon="6.71159">
        <ele>2835.55</ele>
        <time>2019-08-05T10:28:02Z</time>
      </trkpt>
      <trkpt lat="44.26113" lon="6.71172">
        <ele>2832.66</ele>
        <time>2019-08-05T10:28:16Z</time>
      </trkpt>
      <trkpt lat="44.26112" lon="6.71173">
        <ele>2831.7</ele>
        <time>2019-08-05T10:28:18Z</time>
      </trkpt>
      <trkpt lat="44.26108" lon="6.71174">
        <ele>2831.7</ele>
        <time>2019-08-05T10:28:22Z</time>
      </trkpt>
      <trkpt lat="44.26105" lon="6.71178">
        <ele>2830.74</ele>
        <time>2019-08-05T10:28:39Z</time>
      </trkpt>
      <trkpt lat="44.26102" lon="6.71187">
        <ele>2831.22</ele>
        <time>2019-08-05T10:28:56Z</time>
      </trkpt>
      <trkpt lat="44.26092" lon="6.71191">
        <ele>2829.78</ele>
        <time>2019-08-05T10:29:09Z</time>
      </trkpt>
      <trkpt lat="44.26086" lon="6.71195">
        <ele>2826.41</ele>
        <time>2019-08-05T10:29:23Z</time>
      </trkpt>
      <trkpt lat="44.26078" lon="6.71202">
        <ele>2824.01</ele>
        <time>2019-08-05T10:29:37Z</time>
      </trkpt>
      <trkpt lat="44.26069" lon="6.71212">
        <ele>2820.65</ele>
        <time>2019-08-05T10:29:53Z</time>
      </trkpt>
      <trkpt lat="44.26062" lon="6.71218">
        <ele>2817.76</ele>
        <time>2019-08-05T10:30:06Z</time>
      </trkpt>
      <trkpt lat="44.26053" lon="6.71226">
        <ele>2816.32</ele>
        <time>2019-08-05T10:30:23Z</time>
      </trkpt>
      <trkpt lat="44.26049" lon="6.7123">
        <ele>2814.4</ele>
        <time>2019-08-05T10:30:40Z</time>
      </trkpt>
      <trkpt lat="44.26052" lon="6.71219">
        <ele>2811.99</ele>
        <time>2019-08-05T10:31:07Z</time>
      </trkpt>
      <trkpt lat="44.26054" lon="6.71216">
        <ele>2811.51</ele>
        <time>2019-08-05T10:31:12Z</time>
      </trkpt>
      <trkpt lat="44.26063" lon="6.71196">
        <ele>2809.59</ele>
        <time>2019-08-05T10:31:27Z</time>
      </trkpt>
      <trkpt lat="44.26069" lon="6.71174">
        <ele>2807.67</ele>
        <time>2019-08-05T10:31:43Z</time>
      </trkpt>
      <trkpt lat="44.26071" lon="6.71164">
        <ele>2807.19</ele>
        <time>2019-08-05T10:31:52Z</time>
      </trkpt>
      <trkpt lat="44.26076" lon="6.71153">
        <ele>2805.75</ele>
        <time>2019-08-05T10:31:59Z</time>
      </trkpt>
      <trkpt lat="44.26081" lon="6.71134">
        <ele>2803.82</ele>
        <time>2019-08-05T10:32:14Z</time>
      </trkpt>
      <trkpt lat="44.26083" lon="6.71117">
        <ele>2800.46</ele>
        <time>2019-08-05T10:32:27Z</time>
      </trkpt>
      <trkpt lat="44.26084" lon="6.71094">
        <ele>2798.05</ele>
        <time>2019-08-05T10:32:43Z</time>
      </trkpt>
      <trkpt lat="44.26086" lon="6.71068">
        <ele>2795.65</ele>
        <time>2019-08-05T10:33:00Z</time>
      </trkpt>
      <trkpt lat="44.26089" lon="6.71053">
        <ele>2792.29</ele>
        <time>2019-08-05T10:33:11Z</time>
      </trkpt>
      <trkpt lat="44.26093" lon="6.71032">
        <ele>2789.88</ele>
        <time>2019-08-05T10:33:26Z</time>
      </trkpt>
      <trkpt lat="44.26091" lon="6.71015">
        <ele>2787</ele>
        <time>2019-08-05T10:33:41Z</time>
      </trkpt>
      <trkpt lat="44.26083" lon="6.71004">
        <ele>2785.08</ele>
        <time>2019-08-05T10:33:55Z</time>
      </trkpt>
      <trkpt lat="44.26074" lon="6.70999">
        <ele>2783.63</ele>
        <time>2019-08-05T10:34:06Z</time>
      </trkpt>
      <trkpt lat="44.26069" lon="6.70998">
        <ele>2782.19</ele>
        <time>2019-08-05T10:34:29Z</time>
      </trkpt>
      <trkpt lat="44.26057" lon="6.70988">
        <ele>2779.79</ele>
        <time>2019-08-05T10:34:45Z</time>
      </trkpt>
      <trkpt lat="44.26046" lon="6.7098">
        <ele>2777.39</ele>
        <time>2019-08-05T10:35:01Z</time>
      </trkpt>
      <trkpt lat="44.26045" lon="6.70979">
        <ele>2777.39</ele>
        <time>2019-08-05T10:35:02Z</time>
      </trkpt>
      <trkpt lat="44.26031" lon="6.70976">
        <ele>2775.46</ele>
        <time>2019-08-05T10:35:18Z</time>
      </trkpt>
      <trkpt lat="44.26018" lon="6.70973">
        <ele>2772.58</ele>
        <time>2019-08-05T10:35:32Z</time>
      </trkpt>
      <trkpt lat="44.26009" lon="6.70963">
        <ele>2771.14</ele>
        <time>2019-08-05T10:35:46Z</time>
      </trkpt>
      <trkpt lat="44.25999" lon="6.70961">
        <ele>2768.73</ele>
        <time>2019-08-05T10:35:56Z</time>
      </trkpt>
      <trkpt lat="44.25987" lon="6.70956">
        <ele>2766.81</ele>
        <time>2019-08-05T10:36:11Z</time>
      </trkpt>
      <trkpt lat="44.25975" lon="6.70947">
        <ele>2763.45</ele>
        <time>2019-08-05T10:36:28Z</time>
      </trkpt>
      <trkpt lat="44.25966" lon="6.70932">
        <ele>2761.52</ele>
        <time>2019-08-05T10:36:44Z</time>
      </trkpt>
      <trkpt lat="44.2596" lon="6.70921">
        <ele>2761.04</ele>
        <time>2019-08-05T10:36:58Z</time>
      </trkpt>
      <trkpt lat="44.25958" lon="6.70922">
        <ele>2761.04</ele>
        <time>2019-08-05T10:37:26Z</time>
      </trkpt>
      <trkpt lat="44.25955" lon="6.70911">
        <ele>2759.12</ele>
        <time>2019-08-05T10:37:44Z</time>
      </trkpt>
      <trkpt lat="44.25944" lon="6.70905">
        <ele>2757.2</ele>
        <time>2019-08-05T10:37:58Z</time>
      </trkpt>
      <trkpt lat="44.25931" lon="6.70893">
        <ele>2754.8</ele>
        <time>2019-08-05T10:38:15Z</time>
      </trkpt>
      <trkpt lat="44.2592" lon="6.70883">
        <ele>2751.91</ele>
        <time>2019-08-05T10:38:31Z</time>
      </trkpt>
      <trkpt lat="44.2591" lon="6.70876">
        <ele>2749.99</ele>
        <time>2019-08-05T10:38:44Z</time>
      </trkpt>
      <trkpt lat="44.25895" lon="6.70873">
        <ele>2747.59</ele>
        <time>2019-08-05T10:39:00Z</time>
      </trkpt>
      <trkpt lat="44.25887" lon="6.70872">
        <ele>2746.14</ele>
        <time>2019-08-05T10:39:09Z</time>
      </trkpt>
      <trkpt lat="44.25873" lon="6.7087">
        <ele>2742.78</ele>
        <time>2019-08-05T10:39:23Z</time>
      </trkpt>
      <trkpt lat="44.25862" lon="6.70873">
        <ele>2740.86</ele>
        <time>2019-08-05T10:39:39Z</time>
      </trkpt>
      <trkpt lat="44.25865" lon="6.70877">
        <ele>2739.89</ele>
        <time>2019-08-05T10:39:42Z</time>
      </trkpt>
      <trkpt lat="44.25875" lon="6.70888">
        <ele>2737.01</ele>
        <time>2019-08-05T10:39:56Z</time>
      </trkpt>
      <trkpt lat="44.2588" lon="6.70891">
        <ele>2736.05</ele>
        <time>2019-08-05T10:40:02Z</time>
      </trkpt>
      <trkpt lat="44.25891" lon="6.70907">
        <ele>2733.17</ele>
        <time>2019-08-05T10:40:19Z</time>
      </trkpt>
      <trkpt lat="44.25885" lon="6.70918">
        <ele>2731.72</ele>
        <time>2019-08-05T10:40:35Z</time>
      </trkpt>
      <trkpt lat="44.25883" lon="6.7092">
        <ele>2730.76</ele>
        <time>2019-08-05T10:40:38Z</time>
      </trkpt>
      <trkpt lat="44.25882" lon="6.7094">
        <ele>2727.4</ele>
        <time>2019-08-05T10:40:54Z</time>
      </trkpt>
      <trkpt lat="44.25882" lon="6.70948">
        <ele>2726.92</ele>
        <time>2019-08-05T10:41:01Z</time>
      </trkpt>
      <trkpt lat="44.25884" lon="6.70967">
        <ele>2724.99</ele>
        <time>2019-08-05T10:41:17Z</time>
      </trkpt>
      <trkpt lat="44.25883" lon="6.7097">
        <ele>2725.48</ele>
        <time>2019-08-05T10:41:21Z</time>
      </trkpt>
      <trkpt lat="44.25884" lon="6.70972">
        <ele>2724.03</ele>
        <time>2019-08-05T10:41:25Z</time>
      </trkpt>
      <trkpt lat="44.25884" lon="6.70973">
        <ele>2722.59</ele>
        <time>2019-08-05T10:41:26Z</time>
      </trkpt>
      <trkpt lat="44.25881" lon="6.70975">
        <ele>2722.59</ele>
        <time>2019-08-05T10:41:29Z</time>
      </trkpt>
      <trkpt lat="44.25873" lon="6.70987">
        <ele>2721.63</ele>
        <time>2019-08-05T10:41:40Z</time>
      </trkpt>
      <trkpt lat="44.25872" lon="6.70993">
        <ele>2719.23</ele>
        <time>2019-08-05T10:41:44Z</time>
      </trkpt>
      <trkpt lat="44.25871" lon="6.71">
        <ele>2718.27</ele>
        <time>2019-08-05T10:41:51Z</time>
      </trkpt>
      <trkpt lat="44.25871" lon="6.7101">
        <ele>2717.3</ele>
        <time>2019-08-05T10:42:06Z</time>
      </trkpt>
      <trkpt lat="44.2587" lon="6.71016">
        <ele>2717.3</ele>
        <time>2019-08-05T10:42:22Z</time>
      </trkpt>
      <trkpt lat="44.25865" lon="6.71031">
        <ele>2713.94</ele>
        <time>2019-08-05T10:42:37Z</time>
      </trkpt>
      <trkpt lat="44.25859" lon="6.71043">
        <ele>2710.57</ele>
        <time>2019-08-05T10:42:51Z</time>
      </trkpt>
      <trkpt lat="44.25856" lon="6.71056">
        <ele>2708.65</ele>
        <time>2019-08-05T10:43:04Z</time>
      </trkpt>
      <trkpt lat="44.25852" lon="6.71075">
        <ele>2705.77</ele>
        <time>2019-08-05T10:43:19Z</time>
      </trkpt>
      <trkpt lat="44.25851" lon="6.71077">
        <ele>2704.81</ele>
        <time>2019-08-05T10:43:23Z</time>
      </trkpt>
      <trkpt lat="44.2585" lon="6.71083">
        <ele>2704.33</ele>
        <time>2019-08-05T10:43:28Z</time>
      </trkpt>
      <trkpt lat="44.25847" lon="6.71099">
        <ele>2700.96</ele>
        <time>2019-08-05T10:43:41Z</time>
      </trkpt>
      <trkpt lat="44.25846" lon="6.71117">
        <ele>2699.52</ele>
        <time>2019-08-05T10:43:57Z</time>
      </trkpt>
      <trkpt lat="44.25846" lon="6.7112">
        <ele>2698.56</ele>
        <time>2019-08-05T10:43:59Z</time>
      </trkpt>
      <trkpt lat="44.25847" lon="6.71123">
        <ele>2699.04</ele>
        <time>2019-08-05T10:44:01Z</time>
      </trkpt>
      <trkpt lat="44.25845" lon="6.71139">
        <ele>2696.64</ele>
        <time>2019-08-05T10:44:17Z</time>
      </trkpt>
      <trkpt lat="44.25847" lon="6.71147">
        <ele>2695.19</ele>
        <time>2019-08-05T10:44:28Z</time>
      </trkpt>
      <trkpt lat="44.25844" lon="6.71159">
        <ele>2691.83</ele>
        <time>2019-08-05T10:44:40Z</time>
      </trkpt>
      <trkpt lat="44.25844" lon="6.71163">
        <ele>2691.35</ele>
        <time>2019-08-05T10:44:43Z</time>
      </trkpt>
      <trkpt lat="44.25843" lon="6.71178">
        <ele>2688.94</ele>
        <time>2019-08-05T10:44:58Z</time>
      </trkpt>
      <trkpt lat="44.25842" lon="6.71198">
        <ele>2687.02</ele>
        <time>2019-08-05T10:45:13Z</time>
      </trkpt>
      <trkpt lat="44.2584" lon="6.71214">
        <ele>2684.14</ele>
        <time>2019-08-05T10:45:27Z</time>
      </trkpt>
      <trkpt lat="44.2584" lon="6.71234">
        <ele>2681.25</ele>
        <time>2019-08-05T10:45:43Z</time>
      </trkpt>
      <trkpt lat="44.25839" lon="6.71246">
        <ele>2678.85</ele>
        <time>2019-08-05T10:45:57Z</time>
      </trkpt>
      <trkpt lat="44.2584" lon="6.71248">
        <ele>2678.85</ele>
        <time>2019-08-05T10:45:59Z</time>
      </trkpt>
      <trkpt lat="44.25845" lon="6.71264">
        <ele>2675.49</ele>
        <time>2019-08-05T10:46:15Z</time>
      </trkpt>
      <trkpt lat="44.25839" lon="6.7126">
        <ele>2675.01</ele>
        <time>2019-08-05T10:46:29Z</time>
      </trkpt>
      <trkpt lat="44.25831" lon="6.71253">
        <ele>2671.64</ele>
        <time>2019-08-05T10:46:42Z</time>
      </trkpt>
      <trkpt lat="44.25829" lon="6.7125">
        <ele>2670.68</ele>
        <time>2019-08-05T10:46:47Z</time>
      </trkpt>
      <trkpt lat="44.2582" lon="6.71237">
        <ele>2668.28</ele>
        <time>2019-08-05T10:47:02Z</time>
      </trkpt>
      <trkpt lat="44.25808" lon="6.71226">
        <ele>2666.35</ele>
        <time>2019-08-05T10:47:19Z</time>
      </trkpt>
      <trkpt lat="44.25798" lon="6.71215">
        <ele>2663.95</ele>
        <time>2019-08-05T10:47:35Z</time>
      </trkpt>
      <trkpt lat="44.25794" lon="6.7122">
        <ele>2662.03</ele>
        <time>2019-08-05T10:47:50Z</time>
      </trkpt>
      <trkpt lat="44.25792" lon="6.71225">
        <ele>2660.11</ele>
        <time>2019-08-05T10:47:55Z</time>
      </trkpt>
      <trkpt lat="44.25786" lon="6.71229">
        <ele>2657.22</ele>
        <time>2019-08-05T10:48:06Z</time>
      </trkpt>
      <trkpt lat="44.25784" lon="6.71231">
        <ele>2657.22</ele>
        <time>2019-08-05T10:48:09Z</time>
      </trkpt>
      <trkpt lat="44.25774" lon="6.71233">
        <ele>2655.3</ele>
        <time>2019-08-05T10:48:19Z</time>
      </trkpt>
      <trkpt lat="44.25762" lon="6.71234">
        <ele>2651.93</ele>
        <time>2019-08-05T10:48:32Z</time>
      </trkpt>
      <trkpt lat="44.25757" lon="6.7124">
        <ele>2651.45</ele>
        <time>2019-08-05T10:48:48Z</time>
      </trkpt>
      <trkpt lat="44.25746" lon="6.71242">
        <ele>2649.53</ele>
        <time>2019-08-05T10:49:02Z</time>
      </trkpt>
      <trkpt lat="44.2574" lon="6.71241">
        <ele>2647.13</ele>
        <time>2019-08-05T10:49:18Z</time>
      </trkpt>
      <trkpt lat="44.25738" lon="6.7124">
        <ele>2646.65</ele>
        <time>2019-08-05T10:49:20Z</time>
      </trkpt>
      <trkpt lat="44.25722" lon="6.71228">
        <ele>2644.72</ele>
        <time>2019-08-05T10:49:36Z</time>
      </trkpt>
      <trkpt lat="44.25714" lon="6.71223">
        <ele>2641.84</ele>
        <time>2019-08-05T10:49:47Z</time>
      </trkpt>
      <trkpt lat="44.257" lon="6.7122">
        <ele>2639.44</ele>
        <time>2019-08-05T10:50:01Z</time>
      </trkpt>
      <trkpt lat="44.25696" lon="6.7122">
        <ele>2638.96</ele>
        <time>2019-08-05T10:50:06Z</time>
      </trkpt>
      <trkpt lat="44.25693" lon="6.7122">
        <ele>2638.96</ele>
        <time>2019-08-05T10:50:09Z</time>
      </trkpt>
      <trkpt lat="44.25677" lon="6.71213">
        <ele>2636.55</ele>
        <time>2019-08-05T10:50:26Z</time>
      </trkpt>
      <trkpt lat="44.25674" lon="6.7122">
        <ele>2632.71</ele>
        <time>2019-08-05T10:50:33Z</time>
      </trkpt>
      <trkpt lat="44.25674" lon="6.71221">
        <ele>2632.23</ele>
        <time>2019-08-05T10:50:34Z</time>
      </trkpt>
      <trkpt lat="44.25674" lon="6.71231">
        <ele>2630.3</ele>
        <time>2019-08-05T10:50:41Z</time>
      </trkpt>
      <trkpt lat="44.25672" lon="6.71239">
        <ele>2629.34</ele>
        <time>2019-08-05T10:50:49Z</time>
      </trkpt>
      <trkpt lat="44.25662" lon="6.71246">
        <ele>2625.5</ele>
        <time>2019-08-05T10:51:01Z</time>
      </trkpt>
      <trkpt lat="44.25646" lon="6.71246">
        <ele>2622.61</ele>
        <time>2019-08-05T10:51:18Z</time>
      </trkpt>
      <trkpt lat="44.25637" lon="6.71238">
        <ele>2620.21</ele>
        <time>2019-08-05T10:51:32Z</time>
      </trkpt>
      <trkpt lat="44.25631" lon="6.71231">
        <ele>2616.85</ele>
        <time>2019-08-05T10:51:41Z</time>
      </trkpt>
      <trkpt lat="44.2562" lon="6.7122">
        <ele>2614.44</ele>
        <time>2019-08-05T10:51:56Z</time>
      </trkpt>
      <trkpt lat="44.25614" lon="6.71207">
        <ele>2612.52</ele>
        <time>2019-08-05T10:52:09Z</time>
      </trkpt>
      <trkpt lat="44.25603" lon="6.71194">
        <ele>2610.6</ele>
        <time>2019-08-05T10:52:24Z</time>
      </trkpt>
      <trkpt lat="44.25592" lon="6.71183">
        <ele>2608.67</ele>
        <time>2019-08-05T10:52:38Z</time>
      </trkpt>
      <trkpt lat="44.25576" lon="6.71182">
        <ele>2607.71</ele>
        <time>2019-08-05T10:52:56Z</time>
      </trkpt>
      <trkpt lat="44.25573" lon="6.71173">
        <ele>2605.79</ele>
        <time>2019-08-05T10:53:06Z</time>
      </trkpt>
      <trkpt lat="44.25568" lon="6.71159">
        <ele>2602.91</ele>
        <time>2019-08-05T10:53:19Z</time>
      </trkpt>
      <trkpt lat="44.25563" lon="6.71149">
        <ele>2601.95</ele>
        <time>2019-08-05T10:53:33Z</time>
      </trkpt>
      <trkpt lat="44.25562" lon="6.71143">
        <ele>2601.46</ele>
        <time>2019-08-05T10:53:45Z</time>
      </trkpt>
      <trkpt lat="44.25555" lon="6.71129">
        <ele>2599.06</ele>
        <time>2019-08-05T10:53:59Z</time>
      </trkpt>
      <trkpt lat="44.25551" lon="6.71127">
        <ele>2597.14</ele>
        <time>2019-08-05T10:54:04Z</time>
      </trkpt>
      <trkpt lat="44.25548" lon="6.71123">
        <ele>2595.7</ele>
        <time>2019-08-05T10:54:14Z</time>
      </trkpt>
      <trkpt lat="44.25543" lon="6.71112">
        <ele>2594.25</ele>
        <time>2019-08-05T10:54:29Z</time>
      </trkpt>
      <trkpt lat="44.25542" lon="6.71111">
        <ele>2594.25</ele>
        <time>2019-08-05T10:54:30Z</time>
      </trkpt>
      <trkpt lat="44.25539" lon="6.71106">
        <ele>2592.81</ele>
        <time>2019-08-05T10:54:47Z</time>
      </trkpt>
      <trkpt lat="44.25534" lon="6.71095">
        <ele>2592.81</ele>
        <time>2019-08-05T10:55:01Z</time>
      </trkpt>
      <trkpt lat="44.25531" lon="6.71076">
        <ele>2589.93</ele>
        <time>2019-08-05T10:55:17Z</time>
      </trkpt>
      <trkpt lat="44.2553" lon="6.71074">
        <ele>2589.45</ele>
        <time>2019-08-05T10:55:21Z</time>
      </trkpt>
      <trkpt lat="44.25523" lon="6.71085">
        <ele>2586.08</ele>
        <time>2019-08-05T10:55:31Z</time>
      </trkpt>
      <trkpt lat="44.25521" lon="6.71105">
        <ele>2582.72</ele>
        <time>2019-08-05T10:55:46Z</time>
      </trkpt>
      <trkpt lat="44.25521" lon="6.71124">
        <ele>2579.84</ele>
        <time>2019-08-05T10:56:01Z</time>
      </trkpt>
      <trkpt lat="44.2552" lon="6.71128">
        <ele>2579.35</ele>
        <time>2019-08-05T10:56:04Z</time>
      </trkpt>
      <trkpt lat="44.25515" lon="6.71138">
        <ele>2578.87</ele>
        <time>2019-08-05T10:56:13Z</time>
      </trkpt>
      <trkpt lat="44.25512" lon="6.71139">
        <ele>2576.95</ele>
        <time>2019-08-05T10:56:24Z</time>
      </trkpt>
      <trkpt lat="44.25511" lon="6.71133">
        <ele>2576.47</ele>
        <time>2019-08-05T10:56:29Z</time>
      </trkpt>
      <trkpt lat="44.25509" lon="6.71125">
        <ele>2576.47</ele>
        <time>2019-08-05T10:56:35Z</time>
      </trkpt>
      <trkpt lat="44.25506" lon="6.71118">
        <ele>2574.55</ele>
        <time>2019-08-05T10:56:41Z</time>
      </trkpt>
      <trkpt lat="44.25499" lon="6.71103">
        <ele>2573.59</ele>
        <time>2019-08-05T10:56:54Z</time>
      </trkpt>
      <trkpt lat="44.25497" lon="6.71109">
        <ele>2571.66</ele>
        <time>2019-08-05T10:57:02Z</time>
      </trkpt>
      <trkpt lat="44.25498" lon="6.71121">
        <ele>2570.22</ele>
        <time>2019-08-05T10:57:10Z</time>
      </trkpt>
      <trkpt lat="44.25494" lon="6.71138">
        <ele>2567.34</ele>
        <time>2019-08-05T10:57:27Z</time>
      </trkpt>
      <trkpt lat="44.2549" lon="6.71133">
        <ele>2565.42</ele>
        <time>2019-08-05T10:57:39Z</time>
      </trkpt>
      <trkpt lat="44.25485" lon="6.71116">
        <ele>2563.01</ele>
        <time>2019-08-05T10:57:54Z</time>
      </trkpt>
      <trkpt lat="44.2548" lon="6.71106">
        <ele>2561.57</ele>
        <time>2019-08-05T10:58:08Z</time>
      </trkpt>
      <trkpt lat="44.25473" lon="6.71093">
        <ele>2558.69</ele>
        <time>2019-08-05T10:58:21Z</time>
      </trkpt>
      <trkpt lat="44.25471" lon="6.71089">
        <ele>2557.73</ele>
        <time>2019-08-05T10:58:24Z</time>
      </trkpt>
      <trkpt lat="44.25466" lon="6.71075">
        <ele>2554.36</ele>
        <time>2019-08-05T10:58:40Z</time>
      </trkpt>
      <trkpt lat="44.2546" lon="6.7106">
        <ele>2551</ele>
        <time>2019-08-05T10:58:55Z</time>
      </trkpt>
      <trkpt lat="44.25457" lon="6.71041">
        <ele>2549.55</ele>
        <time>2019-08-05T10:59:09Z</time>
      </trkpt>
      <trkpt lat="44.25457" lon="6.71025">
        <ele>2550.03</ele>
        <time>2019-08-05T10:59:23Z</time>
      </trkpt>
      <trkpt lat="44.25452" lon="6.71036">
        <ele>2547.63</ele>
        <time>2019-08-05T10:59:35Z</time>
      </trkpt>
      <trkpt lat="44.25449" lon="6.71045">
        <ele>2545.23</ele>
        <time>2019-08-05T10:59:44Z</time>
      </trkpt>
      <trkpt lat="44.25447" lon="6.71056">
        <ele>2542.82</ele>
        <time>2019-08-05T10:59:55Z</time>
      </trkpt>
      <trkpt lat="44.25444" lon="6.71069">
        <ele>2540.9</ele>
        <time>2019-08-05T11:00:12Z</time>
      </trkpt>
      <trkpt lat="44.25443" lon="6.71074">
        <ele>2539.46</ele>
        <time>2019-08-05T11:00:20Z</time>
      </trkpt>
      <trkpt lat="44.2544" lon="6.71067">
        <ele>2538.02</ele>
        <time>2019-08-05T11:00:33Z</time>
      </trkpt>
      <trkpt lat="44.25439" lon="6.71049">
        <ele>2535.61</ele>
        <time>2019-08-05T11:00:48Z</time>
      </trkpt>
      <trkpt lat="44.25438" lon="6.71045">
        <ele>2535.13</ele>
        <time>2019-08-05T11:00:55Z</time>
      </trkpt>
      <trkpt lat="44.25436" lon="6.71036">
        <ele>2534.17</ele>
        <time>2019-08-05T11:01:01Z</time>
      </trkpt>
      <trkpt lat="44.25437" lon="6.71025">
        <ele>2533.69</ele>
        <time>2019-08-05T11:01:09Z</time>
      </trkpt>
      <trkpt lat="44.25437" lon="6.71021">
        <ele>2534.17</ele>
        <time>2019-08-05T11:01:13Z</time>
      </trkpt>
      <trkpt lat="44.25433" lon="6.71017">
        <ele>2533.69</ele>
        <time>2019-08-05T11:01:17Z</time>
      </trkpt>
      <trkpt lat="44.25432" lon="6.71007">
        <ele>2532.73</ele>
        <time>2019-08-05T11:01:32Z</time>
      </trkpt>
      <trkpt lat="44.25437" lon="6.70995">
        <ele>2531.77</ele>
        <time>2019-08-05T11:01:46Z</time>
      </trkpt>
      <trkpt lat="44.25436" lon="6.70988">
        <ele>2529.85</ele>
        <time>2019-08-05T11:02:00Z</time>
      </trkpt>
      <trkpt lat="44.25435" lon="6.70987">
        <ele>2529.37</ele>
        <time>2019-08-05T11:02:16Z</time>
      </trkpt>
      <trkpt lat="44.25423" lon="6.70982">
        <ele>2526.96</ele>
        <time>2019-08-05T11:02:38Z</time>
      </trkpt>
      <trkpt lat="44.2542" lon="6.71003">
        <ele>2523.12</ele>
        <time>2019-08-05T11:02:53Z</time>
      </trkpt>
      <trkpt lat="44.2542" lon="6.71003">
        <ele>2523.12</ele>
        <time>2019-08-05T11:02:54Z</time>
      </trkpt>
      <trkpt lat="44.25421" lon="6.71006">
        <ele>2523.12</ele>
        <time>2019-08-05T11:02:57Z</time>
      </trkpt>
      <trkpt lat="44.25423" lon="6.71025">
        <ele>2522.16</ele>
        <time>2019-08-05T11:03:14Z</time>
      </trkpt>
      <trkpt lat="44.2542" lon="6.71043">
        <ele>2519.75</ele>
        <time>2019-08-05T11:03:29Z</time>
      </trkpt>
      <trkpt lat="44.25415" lon="6.71049">
        <ele>2518.31</ele>
        <time>2019-08-05T11:03:41Z</time>
      </trkpt>
      <trkpt lat="44.25416" lon="6.71037">
        <ele>2515.91</ele>
        <time>2019-08-05T11:03:52Z</time>
      </trkpt>
      <trkpt lat="44.25415" lon="6.71034">
        <ele>2515.91</ele>
        <time>2019-08-05T11:03:54Z</time>
      </trkpt>
      <trkpt lat="44.25413" lon="6.71009">
        <ele>2514.95</ele>
        <time>2019-08-05T11:04:13Z</time>
      </trkpt>
      <trkpt lat="44.25407" lon="6.70997">
        <ele>2511.58</ele>
        <time>2019-08-05T11:04:25Z</time>
      </trkpt>
      <trkpt lat="44.25403" lon="6.70997">
        <ele>2510.62</ele>
        <time>2019-08-05T11:04:32Z</time>
      </trkpt>
      <trkpt lat="44.25404" lon="6.71012">
        <ele>2507.26</ele>
        <time>2019-08-05T11:04:42Z</time>
      </trkpt>
      <trkpt lat="44.25396" lon="6.71028">
        <ele>2505.33</ele>
        <time>2019-08-05T11:04:58Z</time>
      </trkpt>
      <trkpt lat="44.25395" lon="6.7103">
        <ele>2505.33</ele>
        <time>2019-08-05T11:05:00Z</time>
      </trkpt>
      <trkpt lat="44.25393" lon="6.71044">
        <ele>2502.93</ele>
        <time>2019-08-05T11:05:17Z</time>
      </trkpt>
      <trkpt lat="44.25391" lon="6.71061">
        <ele>2501.01</ele>
        <time>2019-08-05T11:05:32Z</time>
      </trkpt>
      <trkpt lat="44.25389" lon="6.71059">
        <ele>2500.53</ele>
        <time>2019-08-05T11:05:44Z</time>
      </trkpt>
      <trkpt lat="44.25386" lon="6.71052">
        <ele>2499.08</ele>
        <time>2019-08-05T11:06:00Z</time>
      </trkpt>
      <trkpt lat="44.25378" lon="6.71037">
        <ele>2496.68</ele>
        <time>2019-08-05T11:06:13Z</time>
      </trkpt>
      <trkpt lat="44.25372" lon="6.71022">
        <ele>2494.28</ele>
        <time>2019-08-05T11:06:28Z</time>
      </trkpt>
      <trkpt lat="44.25369" lon="6.71038">
        <ele>2490.91</ele>
        <time>2019-08-05T11:06:42Z</time>
      </trkpt>
      <trkpt lat="44.25367" lon="6.71052">
        <ele>2489.95</ele>
        <time>2019-08-05T11:06:59Z</time>
      </trkpt>
      <trkpt lat="44.25365" lon="6.71043">
        <ele>2488.99</ele>
        <time>2019-08-05T11:07:08Z</time>
      </trkpt>
      <trkpt lat="44.25363" lon="6.71028">
        <ele>2487.55</ele>
        <time>2019-08-05T11:07:22Z</time>
      </trkpt>
      <trkpt lat="44.25362" lon="6.71026">
        <ele>2486.11</ele>
        <time>2019-08-05T11:07:28Z</time>
      </trkpt>
      <trkpt lat="44.25359" lon="6.71044">
        <ele>2483.7</ele>
        <time>2019-08-05T11:07:46Z</time>
      </trkpt>
      <trkpt lat="44.25355" lon="6.71044">
        <ele>2482.26</ele>
        <time>2019-08-05T11:07:53Z</time>
      </trkpt>
      <trkpt lat="44.25348" lon="6.71044">
        <ele>2480.34</ele>
        <time>2019-08-05T11:08:06Z</time>
      </trkpt>
      <trkpt lat="44.25348" lon="6.7106">
        <ele>2479.86</ele>
        <time>2019-08-05T11:08:20Z</time>
      </trkpt>
      <trkpt lat="44.25355" lon="6.71073">
        <ele>2477.45</ele>
        <time>2019-08-05T11:08:37Z</time>
      </trkpt>
      <trkpt lat="44.25362" lon="6.71078">
        <ele>2476.49</ele>
        <time>2019-08-05T11:08:49Z</time>
      </trkpt>
      <trkpt lat="44.25365" lon="6.71081">
        <ele>2476.01</ele>
        <time>2019-08-05T11:08:52Z</time>
      </trkpt>
      <trkpt lat="44.25374" lon="6.71102">
        <ele>2472.65</ele>
        <time>2019-08-05T11:09:11Z</time>
      </trkpt>
      <trkpt lat="44.25387" lon="6.71123">
        <ele>2470.73</ele>
        <time>2019-08-05T11:09:30Z</time>
      </trkpt>
      <trkpt lat="44.25391" lon="6.71125">
        <ele>2469.76</ele>
        <time>2019-08-05T11:09:34Z</time>
      </trkpt>
      <trkpt lat="44.25399" lon="6.71137">
        <ele>2468.32</ele>
        <time>2019-08-05T11:09:45Z</time>
      </trkpt>
      <trkpt lat="44.25404" lon="6.71152">
        <ele>2466.88</ele>
        <time>2019-08-05T11:09:59Z</time>
      </trkpt>
      <trkpt lat="44.25403" lon="6.71153">
        <ele>2466.4</ele>
        <time>2019-08-05T11:10:00Z</time>
      </trkpt>
      <trkpt lat="44.25401" lon="6.71163">
        <ele>2466.4</ele>
        <time>2019-08-05T11:10:10Z</time>
      </trkpt>
      <trkpt lat="44.25405" lon="6.71183">
        <ele>2466.4</ele>
        <time>2019-08-05T11:10:25Z</time>
      </trkpt>
      <trkpt lat="44.25404" lon="6.712">
        <ele>2464.48</ele>
        <time>2019-08-05T11:10:40Z</time>
      </trkpt>
      <trkpt lat="44.25406" lon="6.71207">
        <ele>2463.52</ele>
        <time>2019-08-05T11:10:46Z</time>
      </trkpt>
      <trkpt lat="44.25413" lon="6.71221">
        <ele>2461.11</ele>
        <time>2019-08-05T11:11:02Z</time>
      </trkpt>
      <trkpt lat="44.25419" lon="6.71242">
        <ele>2459.67</ele>
        <time>2019-08-05T11:11:19Z</time>
      </trkpt>
      <trkpt lat="44.2542" lon="6.71245">
        <ele>2458.23</ele>
        <time>2019-08-05T11:11:37Z</time>
      </trkpt>
      <trkpt lat="44.25423" lon="6.71263">
        <ele>2456.79</ele>
        <time>2019-08-05T11:11:52Z</time>
      </trkpt>
      <trkpt lat="44.25426" lon="6.71284">
        <ele>2456.31</ele>
        <time>2019-08-05T11:12:09Z</time>
      </trkpt>
      <trkpt lat="44.25427" lon="6.71293">
        <ele>2456.31</ele>
        <time>2019-08-05T11:12:16Z</time>
      </trkpt>
      <trkpt lat="44.25422" lon="6.71303">
        <ele>2455.34</ele>
        <time>2019-08-05T11:12:30Z</time>
      </trkpt>
      <trkpt lat="44.25419" lon="6.71307">
        <ele>2453.9</ele>
        <time>2019-08-05T11:12:36Z</time>
      </trkpt>
      <trkpt lat="44.25423" lon="6.71321">
        <ele>2453.42</ele>
        <time>2019-08-05T11:12:46Z</time>
      </trkpt>
      <trkpt lat="44.25421" lon="6.71323">
        <ele>2452.94</ele>
        <time>2019-08-05T11:12:48Z</time>
      </trkpt>
      <trkpt lat="44.25411" lon="6.71336">
        <ele>2450.54</ele>
        <time>2019-08-05T11:13:03Z</time>
      </trkpt>
      <trkpt lat="44.25411" lon="6.71351">
        <ele>2448.62</ele>
        <time>2019-08-05T11:13:15Z</time>
      </trkpt>
      <trkpt lat="44.25412" lon="6.71363">
        <ele>2447.17</ele>
        <time>2019-08-05T11:13:29Z</time>
      </trkpt>
      <trkpt lat="44.25407" lon="6.71379">
        <ele>2445.73</ele>
        <time>2019-08-05T11:13:40Z</time>
      </trkpt>
      <trkpt lat="44.25409" lon="6.714">
        <ele>2444.29</ele>
        <time>2019-08-05T11:13:56Z</time>
      </trkpt>
      <trkpt lat="44.254" lon="6.71405">
        <ele>2442.37</ele>
        <time>2019-08-05T11:14:10Z</time>
      </trkpt>
      <trkpt lat="44.25399" lon="6.71408">
        <ele>2442.37</ele>
        <time>2019-08-05T11:14:17Z</time>
      </trkpt>
      <trkpt lat="44.25395" lon="6.71414">
        <ele>2441.41</ele>
        <time>2019-08-05T11:14:39Z</time>
      </trkpt>
      <trkpt lat="44.25394" lon="6.71417">
        <ele>2440.92</ele>
        <time>2019-08-05T11:14:42Z</time>
      </trkpt>
      <trkpt lat="44.25381" lon="6.71435">
        <ele>2437.56</ele>
        <time>2019-08-05T11:15:01Z</time>
      </trkpt>
      <trkpt lat="44.25372" lon="6.71449">
        <ele>2434.68</ele>
        <time>2019-08-05T11:15:14Z</time>
      </trkpt>
      <trkpt lat="44.25361" lon="6.7146">
        <ele>2433.23</ele>
        <time>2019-08-05T11:15:29Z</time>
      </trkpt>
      <trkpt lat="44.25357" lon="6.71464">
        <ele>2431.79</ele>
        <time>2019-08-05T11:15:34Z</time>
      </trkpt>
      <trkpt lat="44.25346" lon="6.71473">
        <ele>2429.39</ele>
        <time>2019-08-05T11:15:50Z</time>
      </trkpt>
      <trkpt lat="44.25344" lon="6.7148">
        <ele>2428.43</ele>
        <time>2019-08-05T11:16:03Z</time>
      </trkpt>
      <trkpt lat="44.25342" lon="6.71481">
        <ele>2427.95</ele>
        <time>2019-08-05T11:16:15Z</time>
      </trkpt>
      <trkpt lat="44.25334" lon="6.71488">
        <ele>2426.99</ele>
        <time>2019-08-05T11:16:24Z</time>
      </trkpt>
      <trkpt lat="44.25322" lon="6.715">
        <ele>2423.62</ele>
        <time>2019-08-05T11:16:41Z</time>
      </trkpt>
      <trkpt lat="44.25314" lon="6.71516">
        <ele>2423.14</ele>
        <time>2019-08-05T11:16:53Z</time>
      </trkpt>
      <trkpt lat="44.25302" lon="6.71529">
        <ele>2420.26</ele>
        <time>2019-08-05T11:17:11Z</time>
      </trkpt>
      <trkpt lat="44.25295" lon="6.71533">
        <ele>2418.81</ele>
        <time>2019-08-05T11:17:18Z</time>
      </trkpt>
      <trkpt lat="44.25286" lon="6.71539">
        <ele>2416.41</ele>
        <time>2019-08-05T11:17:27Z</time>
      </trkpt>
      <trkpt lat="44.25271" lon="6.71551">
        <ele>2414.01</ele>
        <time>2019-08-05T11:17:43Z</time>
      </trkpt>
      <trkpt lat="44.25257" lon="6.71555">
        <ele>2412.09</ele>
        <time>2019-08-05T11:17:58Z</time>
      </trkpt>
      <trkpt lat="44.25255" lon="6.71553">
        <ele>2411.6</ele>
        <time>2019-08-05T11:18:10Z</time>
      </trkpt>
      <trkpt lat="44.25252" lon="6.7155">
        <ele>2411.6</ele>
        <time>2019-08-05T11:18:17Z</time>
      </trkpt>
      <trkpt lat="44.25235" lon="6.71545">
        <ele>2410.16</ele>
        <time>2019-08-05T11:18:33Z</time>
      </trkpt>
      <trkpt lat="44.25224" lon="6.71546">
        <ele>2408.72</ele>
        <time>2019-08-05T11:18:43Z</time>
      </trkpt>
      <trkpt lat="44.25209" lon="6.71549">
        <ele>2406.32</ele>
        <time>2019-08-05T11:18:59Z</time>
      </trkpt>
      <trkpt lat="44.25202" lon="6.71548">
        <ele>2404.88</ele>
        <time>2019-08-05T11:19:06Z</time>
      </trkpt>
      <trkpt lat="44.25188" lon="6.7155">
        <ele>2402.95</ele>
        <time>2019-08-05T11:19:20Z</time>
      </trkpt>
      <trkpt lat="44.25185" lon="6.71547">
        <ele>2402.47</ele>
        <time>2019-08-05T11:19:25Z</time>
      </trkpt>
      <trkpt lat="44.25181" lon="6.71529">
        <ele>2399.59</ele>
        <time>2019-08-05T11:19:42Z</time>
      </trkpt>
      <trkpt lat="44.2518" lon="6.71528">
        <ele>2399.11</ele>
        <time>2019-08-05T11:19:43Z</time>
      </trkpt>
      <trkpt lat="44.25178" lon="6.71525">
        <ele>2399.11</ele>
        <time>2019-08-05T11:19:46Z</time>
      </trkpt>
      <trkpt lat="44.25175" lon="6.71522">
        <ele>2398.63</ele>
        <time>2019-08-05T11:19:51Z</time>
      </trkpt>
      <trkpt lat="44.25173" lon="6.71521">
        <ele>2396.7</ele>
        <time>2019-08-05T11:20:06Z</time>
      </trkpt>
      <trkpt lat="44.25181" lon="6.71523">
        <ele>2395.74</ele>
        <time>2019-08-05T11:20:14Z</time>
      </trkpt>
      <trkpt lat="44.25197" lon="6.71533">
        <ele>2392.86</ele>
        <time>2019-08-05T11:20:32Z</time>
      </trkpt>
      <trkpt lat="44.25213" lon="6.71522">
        <ele>2391.42</ele>
        <time>2019-08-05T11:20:49Z</time>
      </trkpt>
      <trkpt lat="44.25228" lon="6.71509">
        <ele>2389.49</ele>
        <time>2019-08-05T11:21:05Z</time>
      </trkpt>
      <trkpt lat="44.25244" lon="6.71493">
        <ele>2387.57</ele>
        <time>2019-08-05T11:21:23Z</time>
      </trkpt>
      <trkpt lat="44.25254" lon="6.71479">
        <ele>2385.65</ele>
        <time>2019-08-05T11:21:36Z</time>
      </trkpt>
      <trkpt lat="44.2526" lon="6.71461">
        <ele>2384.21</ele>
        <time>2019-08-05T11:21:50Z</time>
      </trkpt>
      <trkpt lat="44.25267" lon="6.71441">
        <ele>2381.8</ele>
        <time>2019-08-05T11:22:04Z</time>
      </trkpt>
      <trkpt lat="44.25265" lon="6.71432">
        <ele>2381.32</ele>
        <time>2019-08-05T11:22:11Z</time>
      </trkpt>
      <trkpt lat="44.25266" lon="6.71408">
        <ele>2378.44</ele>
        <time>2019-08-05T11:22:27Z</time>
      </trkpt>
      <trkpt lat="44.25268" lon="6.714">
        <ele>2378.92</ele>
        <time>2019-08-05T11:22:34Z</time>
      </trkpt>
      <trkpt lat="44.2526" lon="6.71379">
        <ele>2376.04</ele>
        <time>2019-08-05T11:22:51Z</time>
      </trkpt>
      <trkpt lat="44.25258" lon="6.7136">
        <ele>2374.11</ele>
        <time>2019-08-05T11:23:05Z</time>
      </trkpt>
      <trkpt lat="44.25257" lon="6.71352">
        <ele>2373.15</ele>
        <time>2019-08-05T11:23:12Z</time>
      </trkpt>
      <trkpt lat="44.25256" lon="6.71348">
        <ele>2372.67</ele>
        <time>2019-08-05T11:23:15Z</time>
      </trkpt>
      <trkpt lat="44.25257" lon="6.71329">
        <ele>2369.79</ele>
        <time>2019-08-05T11:23:30Z</time>
      </trkpt>
      <trkpt lat="44.25254" lon="6.71306">
        <ele>2366.9</ele>
        <time>2019-08-05T11:23:48Z</time>
      </trkpt>
      <trkpt lat="44.25256" lon="6.71286">
        <ele>2365.46</ele>
        <time>2019-08-05T11:24:03Z</time>
      </trkpt>
      <trkpt lat="44.25255" lon="6.71276">
        <ele>2364.5</ele>
        <time>2019-08-05T11:24:11Z</time>
      </trkpt>
      <trkpt lat="44.25254" lon="6.71255">
        <ele>2362.1</ele>
        <time>2019-08-05T11:24:26Z</time>
      </trkpt>
      <trkpt lat="44.25256" lon="6.71232">
        <ele>2359.21</ele>
        <time>2019-08-05T11:24:42Z</time>
      </trkpt>
      <trkpt lat="44.25252" lon="6.71209">
        <ele>2355.85</ele>
        <time>2019-08-05T11:24:59Z</time>
      </trkpt>
      <trkpt lat="44.25246" lon="6.71187">
        <ele>2354.89</ele>
        <time>2019-08-05T11:25:13Z</time>
      </trkpt>
      <trkpt lat="44.25238" lon="6.71167">
        <ele>2352.48</ele>
        <time>2019-08-05T11:25:27Z</time>
      </trkpt>
      <trkpt lat="44.2523" lon="6.71164">
        <ele>2351.52</ele>
        <time>2019-08-05T11:25:38Z</time>
      </trkpt>
      <trkpt lat="44.25221" lon="6.71173">
        <ele>2350.56</ele>
        <time>2019-08-05T11:25:51Z</time>
      </trkpt>
      <trkpt lat="44.25219" lon="6.71175">
        <ele>2350.56</ele>
        <time>2019-08-05T11:25:53Z</time>
      </trkpt>
      <trkpt lat="44.25213" lon="6.71176">
        <ele>2349.6</ele>
        <time>2019-08-05T11:25:58Z</time>
      </trkpt>
      <trkpt lat="44.25206" lon="6.71169">
        <ele>2349.6</ele>
        <time>2019-08-05T11:26:07Z</time>
      </trkpt>
      <trkpt lat="44.25198" lon="6.71156">
        <ele>2346.72</ele>
        <time>2019-08-05T11:26:19Z</time>
      </trkpt>
      <trkpt lat="44.2519" lon="6.71153">
        <ele>2345.27</ele>
        <time>2019-08-05T11:26:26Z</time>
      </trkpt>
      <trkpt lat="44.25173" lon="6.71142">
        <ele>2343.83</ele>
        <time>2019-08-05T11:26:41Z</time>
      </trkpt>
      <trkpt lat="44.25158" lon="6.71137">
        <ele>2341.91</ele>
        <time>2019-08-05T11:26:56Z</time>
      </trkpt>
      <trkpt lat="44.25143" lon="6.71128">
        <ele>2339.51</ele>
        <time>2019-08-05T11:27:12Z</time>
      </trkpt>
      <trkpt lat="44.25135" lon="6.71121">
        <ele>2339.02</ele>
        <time>2019-08-05T11:27:27Z</time>
      </trkpt>
      <trkpt lat="44.2513" lon="6.71119">
        <ele>2338.54</ele>
        <time>2019-08-05T11:27:46Z</time>
      </trkpt>
      <trkpt lat="44.25123" lon="6.71113">
        <ele>2337.1</ele>
        <time>2019-08-05T11:27:53Z</time>
      </trkpt>
      <trkpt lat="44.25108" lon="6.71091">
        <ele>2333.74</ele>
        <time>2019-08-05T11:28:12Z</time>
      </trkpt>
      <trkpt lat="44.25102" lon="6.71081">
        <ele>2331.81</ele>
        <time>2019-08-05T11:28:22Z</time>
      </trkpt>
      <trkpt lat="44.25092" lon="6.71075">
        <ele>2330.37</ele>
        <time>2019-08-05T11:28:32Z</time>
      </trkpt>
      <trkpt lat="44.25086" lon="6.71076">
        <ele>2328.93</ele>
        <time>2019-08-05T11:28:37Z</time>
      </trkpt>
      <trkpt lat="44.2507" lon="6.71062">
        <ele>2327.49</ele>
        <time>2019-08-05T11:28:55Z</time>
      </trkpt>
      <trkpt lat="44.25062" lon="6.71049">
        <ele>2325.57</ele>
        <time>2019-08-05T11:29:06Z</time>
      </trkpt>
      <trkpt lat="44.25055" lon="6.71038">
        <ele>2324.12</ele>
        <time>2019-08-05T11:29:17Z</time>
      </trkpt>
      <trkpt lat="44.25047" lon="6.71028">
        <ele>2320.28</ele>
        <time>2019-08-05T11:29:32Z</time>
      </trkpt>
      <trkpt lat="44.25042" lon="6.71023">
        <ele>2320.28</ele>
        <time>2019-08-05T11:29:46Z</time>
      </trkpt>
      <trkpt lat="44.25031" lon="6.71021">
        <ele>2318.84</ele>
        <time>2019-08-05T11:30:03Z</time>
      </trkpt>
      <trkpt lat="44.25022" lon="6.71013">
        <ele>2317.4</ele>
        <time>2019-08-05T11:30:15Z</time>
      </trkpt>
      <trkpt lat="44.25009" lon="6.70995">
        <ele>2315.95</ele>
        <time>2019-08-05T11:30:31Z</time>
      </trkpt>
      <trkpt lat="44.25005" lon="6.70991">
        <ele>2314.03</ele>
        <time>2019-08-05T11:30:37Z</time>
      </trkpt>
      <trkpt lat="44.24992" lon="6.70971">
        <ele>2311.15</ele>
        <time>2019-08-05T11:30:54Z</time>
      </trkpt>
      <trkpt lat="44.24979" lon="6.70953">
        <ele>2309.22</ele>
        <time>2019-08-05T11:31:10Z</time>
      </trkpt>
      <trkpt lat="44.24969" lon="6.7094">
        <ele>2306.82</ele>
        <time>2019-08-05T11:31:23Z</time>
      </trkpt>
      <trkpt lat="44.24957" lon="6.7093">
        <ele>2304.9</ele>
        <time>2019-08-05T11:31:37Z</time>
      </trkpt>
      <trkpt lat="44.24955" lon="6.70927">
        <ele>2303.46</ele>
        <time>2019-08-05T11:31:39Z</time>
      </trkpt>
      <trkpt lat="44.24943" lon="6.70914">
        <ele>2301.05</ele>
        <time>2019-08-05T11:31:54Z</time>
      </trkpt>
      <trkpt lat="44.24934" lon="6.70903">
        <ele>2299.13</ele>
        <time>2019-08-05T11:32:04Z</time>
      </trkpt>
      <trkpt lat="44.2492" lon="6.7089">
        <ele>2296.73</ele>
        <time>2019-08-05T11:32:19Z</time>
      </trkpt>
      <trkpt lat="44.24908" lon="6.70876">
        <ele>2293.36</ele>
        <time>2019-08-05T11:32:36Z</time>
      </trkpt>
      <trkpt lat="44.24902" lon="6.70871">
        <ele>2292.88</ele>
        <time>2019-08-05T11:32:51Z</time>
      </trkpt>
      <trkpt lat="44.24899" lon="6.7087">
        <ele>2292.4</ele>
        <time>2019-08-05T11:32:53Z</time>
      </trkpt>
      <trkpt lat="44.24876" lon="6.70878">
        <ele>2290</ele>
        <time>2019-08-05T11:33:12Z</time>
      </trkpt>
      <trkpt lat="44.24871" lon="6.70878">
        <ele>2290</ele>
        <time>2019-08-05T11:33:16Z</time>
      </trkpt>
      <trkpt lat="44.24867" lon="6.7089">
        <ele>2289.52</ele>
        <time>2019-08-05T11:33:24Z</time>
      </trkpt>
      <trkpt lat="44.24868" lon="6.70912">
        <ele>2287.11</ele>
        <time>2019-08-05T11:33:39Z</time>
      </trkpt>
      <trkpt lat="44.24869" lon="6.70919">
        <ele>2286.15</ele>
        <time>2019-08-05T11:33:46Z</time>
      </trkpt>
      <trkpt lat="44.24863" lon="6.70916">
        <ele>2285.67</ele>
        <time>2019-08-05T11:33:58Z</time>
      </trkpt>
      <trkpt lat="44.24857" lon="6.70901">
        <ele>2284.71</ele>
        <time>2019-08-05T11:34:12Z</time>
      </trkpt>
      <trkpt lat="44.24844" lon="6.70896">
        <ele>2285.67</ele>
        <time>2019-08-05T11:34:26Z</time>
      </trkpt>
      <trkpt lat="44.24839" lon="6.70894">
        <ele>2285.67</ele>
        <time>2019-08-05T11:34:31Z</time>
      </trkpt>
      <trkpt lat="44.24828" lon="6.70879">
        <ele>2284.71</ele>
        <time>2019-08-05T11:34:47Z</time>
      </trkpt>
      <trkpt lat="44.24826" lon="6.70877">
        <ele>2284.71</ele>
        <time>2019-08-05T11:34:49Z</time>
      </trkpt>
      <trkpt lat="44.24818" lon="6.70861">
        <ele>2285.67</ele>
        <time>2019-08-05T11:35:05Z</time>
      </trkpt>
      <trkpt lat="44.24815" lon="6.70857">
        <ele>2286.15</ele>
        <time>2019-08-05T11:35:12Z</time>
      </trkpt>
      <trkpt lat="44.24808" lon="6.70845">
        <ele>2287.59</ele>
        <time>2019-08-05T11:35:25Z</time>
      </trkpt>
      <trkpt lat="44.24808" lon="6.70845">
        <ele>2287.11</ele>
        <time>2019-08-05T11:35:38Z</time>
      </trkpt>
      <trkpt lat="44.2481" lon="6.70848">
        <ele>2286.15</ele>
        <time>2019-08-05T11:35:45Z</time>
      </trkpt>
      <trkpt lat="44.24807" lon="6.70856">
        <ele>2285.67</ele>
        <time>2019-08-05T11:36:18Z</time>
      </trkpt>
      <trkpt lat="44.24811" lon="6.70847">
        <ele>2285.67</ele>
        <time>2019-08-05T11:36:34Z</time>
      </trkpt>
      <trkpt lat="44.2481" lon="6.70845">
        <ele>2285.67</ele>
        <time>2019-08-05T11:36:56Z</time>
      </trkpt>
      <trkpt lat="44.24807" lon="6.70845">
        <ele>2285.67</ele>
        <time>2019-08-05T11:37:32Z</time>
      </trkpt>
      <trkpt lat="44.24812" lon="6.70846">
        <ele>2286.63</ele>
        <time>2019-08-05T11:38:14Z</time>
      </trkpt>
      <trkpt lat="44.24808" lon="6.70848">
        <ele>2285.67</ele>
        <time>2019-08-05T11:38:46Z</time>
      </trkpt>
      <trkpt lat="44.24807" lon="6.70851">
        <ele>2285.67</ele>
        <time>2019-08-05T11:39:18Z</time>
      </trkpt>
      <trkpt lat="44.24806" lon="6.7085">
        <ele>2285.67</ele>
        <time>2019-08-05T11:39:49Z</time>
      </trkpt>
      <trkpt lat="44.24805" lon="6.70852">
        <ele>2285.67</ele>
        <time>2019-08-05T11:40:02Z</time>
      </trkpt>
      <trkpt lat="44.24802" lon="6.7086">
        <ele>2285.67</ele>
        <time>2019-08-05T11:40:35Z</time>
      </trkpt>
      <trkpt lat="44.24802" lon="6.70857">
        <ele>2285.67</ele>
        <time>2019-08-05T11:41:06Z</time>
      </trkpt>
      <trkpt lat="44.24803" lon="6.70859">
        <ele>2285.67</ele>
        <time>2019-08-05T11:41:37Z</time>
      </trkpt>
      <trkpt lat="44.24805" lon="6.70858">
        <ele>2285.67</ele>
        <time>2019-08-05T11:42:14Z</time>
      </trkpt>
      <trkpt lat="44.24804" lon="6.70858">
        <ele>2285.19</ele>
        <time>2019-08-05T11:42:41Z</time>
      </trkpt>
      <trkpt lat="44.24805" lon="6.70852">
        <ele>2285.19</ele>
        <time>2019-08-05T11:43:17Z</time>
      </trkpt>
      <trkpt lat="44.24805" lon="6.70856">
        <ele>2285.67</ele>
        <time>2019-08-05T11:43:51Z</time>
      </trkpt>
      <trkpt lat="44.24807" lon="6.70854">
        <ele>2285.19</ele>
        <time>2019-08-05T11:44:30Z</time>
      </trkpt>
      <trkpt lat="44.24806" lon="6.70853">
        <ele>2285.19</ele>
        <time>2019-08-05T11:45:04Z</time>
      </trkpt>
      <trkpt lat="44.24808" lon="6.70851">
        <ele>2285.67</ele>
        <time>2019-08-05T11:45:39Z</time>
      </trkpt>
      <trkpt lat="44.24808" lon="6.70851">
        <ele>2286.15</ele>
        <time>2019-08-05T11:46:12Z</time>
      </trkpt>
      <trkpt lat="44.24805" lon="6.70853">
        <ele>2285.67</ele>
        <time>2019-08-05T11:46:43Z</time>
      </trkpt>
      <trkpt lat="44.24809" lon="6.7085">
        <ele>2285.67</ele>
        <time>2019-08-05T11:47:24Z</time>
      </trkpt>
      <trkpt lat="44.24803" lon="6.70855">
        <ele>2285.19</ele>
        <time>2019-08-05T11:47:48Z</time>
      </trkpt>
      <trkpt lat="44.24804" lon="6.70853">
        <ele>2285.67</ele>
        <time>2019-08-05T11:48:22Z</time>
      </trkpt>
      <trkpt lat="44.24805" lon="6.70855">
        <ele>2286.15</ele>
        <time>2019-08-05T11:48:53Z</time>
      </trkpt>
      <trkpt lat="44.24803" lon="6.7086">
        <ele>2285.67</ele>
        <time>2019-08-05T11:49:29Z</time>
      </trkpt>
      <trkpt lat="44.24805" lon="6.70861">
        <ele>2285.67</ele>
        <time>2019-08-05T11:49:58Z</time>
      </trkpt>
      <trkpt lat="44.24801" lon="6.70863">
        <ele>2286.15</ele>
        <time>2019-08-05T11:50:17Z</time>
      </trkpt>
      <trkpt lat="44.24802" lon="6.70848">
        <ele>2286.15</ele>
        <time>2019-08-05T11:50:29Z</time>
      </trkpt>
      <trkpt lat="44.24799" lon="6.70841">
        <ele>2286.63</ele>
        <time>2019-08-05T11:50:36Z</time>
      </trkpt>
      <trkpt lat="44.24796" lon="6.7084">
        <ele>2285.67</ele>
        <time>2019-08-05T11:50:39Z</time>
      </trkpt>
      <trkpt lat="44.24786" lon="6.70841">
        <ele>2286.63</ele>
        <time>2019-08-05T11:50:53Z</time>
      </trkpt>
      <trkpt lat="44.24784" lon="6.70831">
        <ele>2286.15</ele>
        <time>2019-08-05T11:51:11Z</time>
      </trkpt>
      <trkpt lat="44.2478" lon="6.70825">
        <ele>2285.19</ele>
        <time>2019-08-05T11:51:17Z</time>
      </trkpt>
      <trkpt lat="44.2478" lon="6.70823">
        <ele>2284.23</ele>
        <time>2019-08-05T11:51:19Z</time>
      </trkpt>
      <trkpt lat="44.24771" lon="6.70805">
        <ele>2285.67</ele>
        <time>2019-08-05T11:51:36Z</time>
      </trkpt>
      <trkpt lat="44.24762" lon="6.70782">
        <ele>2284.71</ele>
        <time>2019-08-05T11:51:52Z</time>
      </trkpt>
      <trkpt lat="44.2475" lon="6.7076">
        <ele>2284.23</ele>
        <time>2019-08-05T11:52:10Z</time>
      </trkpt>
      <trkpt lat="44.24741" lon="6.7074">
        <ele>2284.23</ele>
        <time>2019-08-05T11:52:25Z</time>
      </trkpt>
      <trkpt lat="44.24736" lon="6.70723">
        <ele>2283.75</ele>
        <time>2019-08-05T11:52:38Z</time>
      </trkpt>
      <trkpt lat="44.24726" lon="6.70699">
        <ele>2283.27</ele>
        <time>2019-08-05T11:52:56Z</time>
      </trkpt>
      <trkpt lat="44.2472" lon="6.70673">
        <ele>2282.79</ele>
        <time>2019-08-05T11:53:14Z</time>
      </trkpt>
      <trkpt lat="44.24699" lon="6.70657">
        <ele>2281.83</ele>
        <time>2019-08-05T11:53:33Z</time>
      </trkpt>
      <trkpt lat="44.24685" lon="6.70637">
        <ele>2281.35</ele>
        <time>2019-08-05T11:53:50Z</time>
      </trkpt>
      <trkpt lat="44.24679" lon="6.70615">
        <ele>2280.38</ele>
        <time>2019-08-05T11:54:05Z</time>
      </trkpt>
      <trkpt lat="44.24673" lon="6.70595">
        <ele>2279.42</ele>
        <time>2019-08-05T11:54:19Z</time>
      </trkpt>
      <trkpt lat="44.24666" lon="6.70581">
        <ele>2277.98</ele>
        <time>2019-08-05T11:54:30Z</time>
      </trkpt>
      <trkpt lat="44.24658" lon="6.70561">
        <ele>2279.42</ele>
        <time>2019-08-05T11:54:45Z</time>
      </trkpt>
      <trkpt lat="44.24656" lon="6.70542">
        <ele>2278.46</ele>
        <time>2019-08-05T11:54:58Z</time>
      </trkpt>
      <trkpt lat="44.24653" lon="6.70527">
        <ele>2278.94</ele>
        <time>2019-08-05T11:55:08Z</time>
      </trkpt>
      <trkpt lat="44.24651" lon="6.70519">
        <ele>2277.98</ele>
        <time>2019-08-05T11:55:13Z</time>
      </trkpt>
      <trkpt lat="44.24648" lon="6.70504">
        <ele>2277.02</ele>
        <time>2019-08-05T11:55:27Z</time>
      </trkpt>
      <trkpt lat="44.24645" lon="6.70506">
        <ele>2277.5</ele>
        <time>2019-08-05T11:55:52Z</time>
      </trkpt>
      <trkpt lat="44.24643" lon="6.70499">
        <ele>2276.54</ele>
        <time>2019-08-05T11:55:56Z</time>
      </trkpt>
      <trkpt lat="44.24642" lon="6.70492">
        <ele>2276.06</ele>
        <time>2019-08-05T11:56:00Z</time>
      </trkpt>
      <trkpt lat="44.24635" lon="6.70479">
        <ele>2276.54</ele>
        <time>2019-08-05T11:56:16Z</time>
      </trkpt>
      <trkpt lat="44.24636" lon="6.70479">
        <ele>2276.54</ele>
        <time>2019-08-05T11:56:38Z</time>
      </trkpt>
      <trkpt lat="44.24631" lon="6.70479">
        <ele>2277.02</ele>
        <time>2019-08-05T11:57:03Z</time>
      </trkpt>
      <trkpt lat="44.24631" lon="6.7047">
        <ele>2276.06</ele>
        <time>2019-08-05T11:57:29Z</time>
      </trkpt>
      <trkpt lat="44.24615" lon="6.7046">
        <ele>2274.62</ele>
        <time>2019-08-05T11:57:45Z</time>
      </trkpt>
      <trkpt lat="44.246" lon="6.70458">
        <ele>2273.17</ele>
        <time>2019-08-05T11:58:00Z</time>
      </trkpt>
      <trkpt lat="44.24598" lon="6.70457">
        <ele>2273.17</ele>
        <time>2019-08-05T11:58:02Z</time>
      </trkpt>
      <trkpt lat="44.2458" lon="6.70457">
        <ele>2269.81</ele>
        <time>2019-08-05T11:58:17Z</time>
      </trkpt>
      <trkpt lat="44.24576" lon="6.70461">
        <ele>2269.81</ele>
        <time>2019-08-05T11:58:21Z</time>
      </trkpt>
      <trkpt lat="44.24573" lon="6.70465">
        <ele>2268.85</ele>
        <time>2019-08-05T11:58:25Z</time>
      </trkpt>
      <trkpt lat="44.2456" lon="6.7048">
        <ele>2266.45</ele>
        <time>2019-08-05T11:58:42Z</time>
      </trkpt>
      <trkpt lat="44.24558" lon="6.70481">
        <ele>2265</ele>
        <time>2019-08-05T11:58:46Z</time>
      </trkpt>
      <trkpt lat="44.24545" lon="6.70486">
        <ele>2263.56</ele>
        <time>2019-08-05T11:58:59Z</time>
      </trkpt>
      <trkpt lat="44.24542" lon="6.70485">
        <ele>2262.6</ele>
        <time>2019-08-05T11:59:02Z</time>
      </trkpt>
      <trkpt lat="44.24531" lon="6.70486">
        <ele>2261.16</ele>
        <time>2019-08-05T11:59:16Z</time>
      </trkpt>
      <trkpt lat="44.24516" lon="6.70497">
        <ele>2258.75</ele>
        <time>2019-08-05T11:59:31Z</time>
      </trkpt>
      <trkpt lat="44.24504" lon="6.70503">
        <ele>2257.31</ele>
        <time>2019-08-05T11:59:44Z</time>
      </trkpt>
      <trkpt lat="44.24494" lon="6.70515">
        <ele>2255.39</ele>
        <time>2019-08-05T11:59:59Z</time>
      </trkpt>
      <trkpt lat="44.24484" lon="6.70519">
        <ele>2252.99</ele>
        <time>2019-08-05T12:00:10Z</time>
      </trkpt>
      <trkpt lat="44.24478" lon="6.70516">
        <ele>2251.06</ele>
        <time>2019-08-05T12:00:25Z</time>
      </trkpt>
      <trkpt lat="44.2449" lon="6.70502">
        <ele>2248.66</ele>
        <time>2019-08-05T12:00:41Z</time>
      </trkpt>
      <trkpt lat="44.24502" lon="6.70486">
        <ele>2245.3</ele>
        <time>2019-08-05T12:00:54Z</time>
      </trkpt>
      <trkpt lat="44.2451" lon="6.70465">
        <ele>2243.85</ele>
        <time>2019-08-05T12:01:10Z</time>
      </trkpt>
      <trkpt lat="44.24519" lon="6.70445">
        <ele>2240.97</ele>
        <time>2019-08-05T12:01:27Z</time>
      </trkpt>
      <trkpt lat="44.24526" lon="6.70426">
        <ele>2237.61</ele>
        <time>2019-08-05T12:01:40Z</time>
      </trkpt>
      <trkpt lat="44.24532" lon="6.70402">
        <ele>2234.24</ele>
        <time>2019-08-05T12:01:56Z</time>
      </trkpt>
      <trkpt lat="44.24541" lon="6.70386">
        <ele>2232.32</ele>
        <time>2019-08-05T12:02:10Z</time>
      </trkpt>
      <trkpt lat="44.24523" lon="6.70379">
        <ele>2231.36</ele>
        <time>2019-08-05T12:02:22Z</time>
      </trkpt>
      <trkpt lat="44.24508" lon="6.70384">
        <ele>2228.95</ele>
        <time>2019-08-05T12:02:37Z</time>
      </trkpt>
      <trkpt lat="44.24484" lon="6.7039">
        <ele>2226.07</ele>
        <time>2019-08-05T12:02:56Z</time>
      </trkpt>
      <trkpt lat="44.24474" lon="6.70397">
        <ele>2224.15</ele>
        <time>2019-08-05T12:03:10Z</time>
      </trkpt>
      <trkpt lat="44.24465" lon="6.70401">
        <ele>2222.22</ele>
        <time>2019-08-05T12:03:19Z</time>
      </trkpt>
      <trkpt lat="44.24451" lon="6.70418">
        <ele>2219.34</ele>
        <time>2019-08-05T12:03:38Z</time>
      </trkpt>
      <trkpt lat="44.24438" lon="6.70427">
        <ele>2217.42</ele>
        <time>2019-08-05T12:03:53Z</time>
      </trkpt>
      <trkpt lat="44.24433" lon="6.70426">
        <ele>2216.46</ele>
        <time>2019-08-05T12:04:02Z</time>
      </trkpt>
      <trkpt lat="44.24425" lon="6.70423">
        <ele>2214.53</ele>
        <time>2019-08-05T12:04:14Z</time>
      </trkpt>
      <trkpt lat="44.24422" lon="6.70421">
        <ele>2214.05</ele>
        <time>2019-08-05T12:04:17Z</time>
      </trkpt>
      <trkpt lat="44.24405" lon="6.70423">
        <ele>2211.17</ele>
        <time>2019-08-05T12:04:31Z</time>
      </trkpt>
      <trkpt lat="44.2439" lon="6.7043">
        <ele>2208.77</ele>
        <time>2019-08-05T12:04:44Z</time>
      </trkpt>
      <trkpt lat="44.24388" lon="6.70432">
        <ele>2208.29</ele>
        <time>2019-08-05T12:04:47Z</time>
      </trkpt>
      <trkpt lat="44.24373" lon="6.70444">
        <ele>2205.88</ele>
        <time>2019-08-05T12:05:03Z</time>
      </trkpt>
      <trkpt lat="44.24361" lon="6.70448">
        <ele>2203.96</ele>
        <time>2019-08-05T12:05:15Z</time>
      </trkpt>
      <trkpt lat="44.24346" lon="6.70451">
        <ele>2202.04</ele>
        <time>2019-08-05T12:05:30Z</time>
      </trkpt>
      <trkpt lat="44.24344" lon="6.70451">
        <ele>2201.56</ele>
        <time>2019-08-05T12:05:32Z</time>
      </trkpt>
      <trkpt lat="44.24333" lon="6.70443">
        <ele>2198.67</ele>
        <time>2019-08-05T12:05:45Z</time>
      </trkpt>
      <trkpt lat="44.24321" lon="6.7044">
        <ele>2196.75</ele>
        <time>2019-08-05T12:06:00Z</time>
      </trkpt>
      <trkpt lat="44.24307" lon="6.70434">
        <ele>2194.35</ele>
        <time>2019-08-05T12:06:13Z</time>
      </trkpt>
      <trkpt lat="44.24301" lon="6.70433">
        <ele>2193.39</ele>
        <time>2019-08-05T12:06:20Z</time>
      </trkpt>
      <trkpt lat="44.24289" lon="6.70425">
        <ele>2190.98</ele>
        <time>2019-08-05T12:06:34Z</time>
      </trkpt>
      <trkpt lat="44.24278" lon="6.7042">
        <ele>2189.06</ele>
        <time>2019-08-05T12:06:46Z</time>
      </trkpt>
      <trkpt lat="44.24273" lon="6.70414">
        <ele>2186.66</ele>
        <time>2019-08-05T12:06:58Z</time>
      </trkpt>
      <trkpt lat="44.24278" lon="6.70416">
        <ele>2185.21</ele>
        <time>2019-08-05T12:07:07Z</time>
      </trkpt>
      <trkpt lat="44.24294" lon="6.70416">
        <ele>2183.77</ele>
        <time>2019-08-05T12:07:22Z</time>
      </trkpt>
      <trkpt lat="44.24295" lon="6.70417">
        <ele>2183.77</ele>
        <time>2019-08-05T12:07:23Z</time>
      </trkpt>
      <trkpt lat="44.24313" lon="6.70417">
        <ele>2181.85</ele>
        <time>2019-08-05T12:07:37Z</time>
      </trkpt>
      <trkpt lat="44.2433" lon="6.70411">
        <ele>2178.97</ele>
        <time>2019-08-05T12:07:54Z</time>
      </trkpt>
      <trkpt lat="44.24332" lon="6.7041">
        <ele>2178.97</ele>
        <time>2019-08-05T12:07:56Z</time>
      </trkpt>
      <trkpt lat="44.24347" lon="6.70395">
        <ele>2175.12</ele>
        <time>2019-08-05T12:08:08Z</time>
      </trkpt>
      <trkpt lat="44.24348" lon="6.70393">
        <ele>2178.48</ele>
        <time>2019-08-05T12:08:09Z</time>
      </trkpt>
      <trkpt lat="44.24356" lon="6.70375">
        <ele>2175.12</ele>
        <time>2019-08-05T12:08:23Z</time>
      </trkpt>
      <trkpt lat="44.24356" lon="6.70374">
        <ele>2175.12</ele>
        <time>2019-08-05T12:08:24Z</time>
      </trkpt>
      <trkpt lat="44.24365" lon="6.70357">
        <ele>2173.2</ele>
        <time>2019-08-05T12:08:37Z</time>
      </trkpt>
      <trkpt lat="44.24373" lon="6.7034">
        <ele>2171.27</ele>
        <time>2019-08-05T12:08:49Z</time>
      </trkpt>
      <trkpt lat="44.24375" lon="6.70335">
        <ele>2171.27</ele>
        <time>2019-08-05T12:08:52Z</time>
      </trkpt>
      <trkpt lat="44.24378" lon="6.70324">
        <ele>2170.31</ele>
        <time>2019-08-05T12:08:59Z</time>
      </trkpt>
      <trkpt lat="44.24381" lon="6.70319">
        <ele>2168.87</ele>
        <time>2019-08-05T12:09:03Z</time>
      </trkpt>
      <trkpt lat="44.24393" lon="6.7031">
        <ele>2166.47</ele>
        <time>2019-08-05T12:09:16Z</time>
      </trkpt>
      <trkpt lat="44.24402" lon="6.70291">
        <ele>2165.03</ele>
        <time>2019-08-05T12:09:30Z</time>
      </trkpt>
      <trkpt lat="44.24403" lon="6.70289">
        <ele>2165.03</ele>
        <time>2019-08-05T12:09:31Z</time>
      </trkpt>
      <trkpt lat="44.24407" lon="6.70283">
        <ele>2165.03</ele>
        <time>2019-08-05T12:09:36Z</time>
      </trkpt>
      <trkpt lat="44.2441" lon="6.70279">
        <ele>2164.55</ele>
        <time>2019-08-05T12:09:40Z</time>
      </trkpt>
      <trkpt lat="44.24414" lon="6.70268">
        <ele>2163.1</ele>
        <time>2019-08-05T12:09:47Z</time>
      </trkpt>
      <trkpt lat="44.24415" lon="6.70255">
        <ele>2161.66</ele>
        <time>2019-08-05T12:09:56Z</time>
      </trkpt>
      <trkpt lat="44.24414" lon="6.70236">
        <ele>2161.18</ele>
        <time>2019-08-05T12:10:08Z</time>
      </trkpt>
      <trkpt lat="44.24411" lon="6.70223">
        <ele>2160.22</ele>
        <time>2019-08-05T12:10:14Z</time>
      </trkpt>
      <trkpt lat="44.24393" lon="6.70203">
        <ele>2159.74</ele>
        <time>2019-08-05T12:10:30Z</time>
      </trkpt>
      <trkpt lat="44.24383" lon="6.70189">
        <ele>2159.26</ele>
        <time>2019-08-05T12:10:44Z</time>
      </trkpt>
      <trkpt lat="44.24368" lon="6.70169">
        <ele>2158.78</ele>
        <time>2019-08-05T12:11:01Z</time>
      </trkpt>
      <trkpt lat="44.24358" lon="6.70158">
        <ele>2157.82</ele>
        <time>2019-08-05T12:11:15Z</time>
      </trkpt>
      <trkpt lat="44.24351" lon="6.70146">
        <ele>2156.37</ele>
        <time>2019-08-05T12:11:27Z</time>
      </trkpt>
      <trkpt lat="44.24345" lon="6.70135">
        <ele>2155.89</ele>
        <time>2019-08-05T12:11:35Z</time>
      </trkpt>
      <trkpt lat="44.24344" lon="6.70132">
        <ele>2155.41</ele>
        <time>2019-08-05T12:11:37Z</time>
      </trkpt>
      <trkpt lat="44.24333" lon="6.70119">
        <ele>2154.93</ele>
        <time>2019-08-05T12:11:51Z</time>
      </trkpt>
      <trkpt lat="44.24331" lon="6.70113">
        <ele>2153.97</ele>
        <time>2019-08-05T12:11:56Z</time>
      </trkpt>
      <trkpt lat="44.24323" lon="6.70089">
        <ele>2153.49</ele>
        <time>2019-08-05T12:12:13Z</time>
      </trkpt>
      <trkpt lat="44.2431" lon="6.70076">
        <ele>2152.53</ele>
        <time>2019-08-05T12:12:25Z</time>
      </trkpt>
      <trkpt lat="44.243" lon="6.70051">
        <ele>2151.57</ele>
        <time>2019-08-05T12:12:42Z</time>
      </trkpt>
      <trkpt lat="44.24301" lon="6.70025">
        <ele>2151.57</ele>
        <time>2019-08-05T12:12:56Z</time>
      </trkpt>
      <trkpt lat="44.24302" lon="6.70021">
        <ele>2151.09</ele>
        <time>2019-08-05T12:12:59Z</time>
      </trkpt>
      <trkpt lat="44.24309" lon="6.70003">
        <ele>2150.61</ele>
        <time>2019-08-05T12:13:11Z</time>
      </trkpt>
      <trkpt lat="44.24313" lon="6.6998">
        <ele>2149.16</ele>
        <time>2019-08-05T12:13:26Z</time>
      </trkpt>
      <trkpt lat="44.24316" lon="6.69957">
        <ele>2148.2</ele>
        <time>2019-08-05T12:13:41Z</time>
      </trkpt>
      <trkpt lat="44.24318" lon="6.6995">
        <ele>2146.76</ele>
        <time>2019-08-05T12:13:45Z</time>
      </trkpt>
      <trkpt lat="44.24321" lon="6.69937">
        <ele>2149.16</ele>
        <time>2019-08-05T12:13:53Z</time>
      </trkpt>
      <trkpt lat="44.24323" lon="6.69922">
        <ele>2148.68</ele>
        <time>2019-08-05T12:14:02Z</time>
      </trkpt>
      <trkpt lat="44.24329" lon="6.69908">
        <ele>2147.72</ele>
        <time>2019-08-05T12:14:11Z</time>
      </trkpt>
      <trkpt lat="44.2433" lon="6.69903">
        <ele>2146.28</ele>
        <time>2019-08-05T12:14:14Z</time>
      </trkpt>
      <trkpt lat="44.2433" lon="6.69894">
        <ele>2147.24</ele>
        <time>2019-08-05T12:14:20Z</time>
      </trkpt>
      <trkpt lat="44.24331" lon="6.6989">
        <ele>2149.16</ele>
        <time>2019-08-05T12:14:23Z</time>
      </trkpt>
      <trkpt lat="44.24334" lon="6.69879">
        <ele>2150.61</ele>
        <time>2019-08-05T12:14:31Z</time>
      </trkpt>
      <trkpt lat="44.24334" lon="6.6987">
        <ele>2151.09</ele>
        <time>2019-08-05T12:14:37Z</time>
      </trkpt>
      <trkpt lat="44.24337" lon="6.69849">
        <ele>2153.49</ele>
        <time>2019-08-05T12:14:51Z</time>
      </trkpt>
      <trkpt lat="44.24339" lon="6.69839">
        <ele>2153.97</ele>
        <time>2019-08-05T12:15:04Z</time>
      </trkpt>
      <trkpt lat="44.2434" lon="6.69836">
        <ele>2154.45</ele>
        <time>2019-08-05T12:15:06Z</time>
      </trkpt>
      <trkpt lat="44.24344" lon="6.69818">
        <ele>2154.45</ele>
        <time>2019-08-05T12:15:19Z</time>
      </trkpt>
      <trkpt lat="44.24345" lon="6.69801">
        <ele>2153.01</ele>
        <time>2019-08-05T12:15:33Z</time>
      </trkpt>
      <trkpt lat="44.24342" lon="6.69795">
        <ele>2151.09</ele>
        <time>2019-08-05T12:15:39Z</time>
      </trkpt>
      <trkpt lat="44.24341" lon="6.69792">
        <ele>2149.65</ele>
        <time>2019-08-05T12:15:42Z</time>
      </trkpt>
      <trkpt lat="44.2434" lon="6.69777">
        <ele>2146.76</ele>
        <time>2019-08-05T12:15:55Z</time>
      </trkpt>
      <trkpt lat="44.24344" lon="6.69777">
        <ele>2147.24</ele>
        <time>2019-08-05T12:16:02Z</time>
      </trkpt>
      <trkpt lat="44.24357" lon="6.69779">
        <ele>2144.84</ele>
        <time>2019-08-05T12:16:13Z</time>
      </trkpt>
      <trkpt lat="44.24368" lon="6.69779">
        <ele>2142.44</ele>
        <time>2019-08-05T12:16:25Z</time>
      </trkpt>
      <trkpt lat="44.24376" lon="6.6977">
        <ele>2142.92</ele>
        <time>2019-08-05T12:16:33Z</time>
      </trkpt>
      <trkpt lat="44.24384" lon="6.69767">
        <ele>2139.55</ele>
        <time>2019-08-05T12:16:45Z</time>
      </trkpt>
      <trkpt lat="44.244" lon="6.69758">
        <ele>2137.63</ele>
        <time>2019-08-05T12:17:01Z</time>
      </trkpt>
      <trkpt lat="44.24409" lon="6.69757">
        <ele>2137.63</ele>
        <time>2019-08-05T12:17:08Z</time>
      </trkpt>
      <trkpt lat="44.24422" lon="6.69748">
        <ele>2138.11</ele>
        <time>2019-08-05T12:17:24Z</time>
      </trkpt>
      <trkpt lat="44.24425" lon="6.69745">
        <ele>2137.15</ele>
        <time>2019-08-05T12:17:27Z</time>
      </trkpt>
      <trkpt lat="44.24433" lon="6.69758">
        <ele>2135.71</ele>
        <time>2019-08-05T12:17:41Z</time>
      </trkpt>
      <trkpt lat="44.24445" lon="6.69769">
        <ele>2132.82</ele>
        <time>2019-08-05T12:17:58Z</time>
      </trkpt>
      <trkpt lat="44.24447" lon="6.6977">
        <ele>2132.82</ele>
        <time>2019-08-05T12:18:00Z</time>
      </trkpt>
      <trkpt lat="44.24459" lon="6.69772">
        <ele>2131.38</ele>
        <time>2019-08-05T12:18:13Z</time>
      </trkpt>
      <trkpt lat="44.24475" lon="6.69771">
        <ele>2130.42</ele>
        <time>2019-08-05T12:18:28Z</time>
      </trkpt>
      <trkpt lat="44.24487" lon="6.69781">
        <ele>2130.42</ele>
        <time>2019-08-05T12:18:46Z</time>
      </trkpt>
      <trkpt lat="44.24488" lon="6.69785">
        <ele>2129.94</ele>
        <time>2019-08-05T12:19:11Z</time>
      </trkpt>
      <trkpt lat="44.24497" lon="6.69796">
        <ele>2129.46</ele>
        <time>2019-08-05T12:19:25Z</time>
      </trkpt>
      <trkpt lat="44.24507" lon="6.69803">
        <ele>2129.46</ele>
        <time>2019-08-05T12:19:39Z</time>
      </trkpt>
      <trkpt lat="44.24521" lon="6.6981">
        <ele>2129.94</ele>
        <time>2019-08-05T12:19:53Z</time>
      </trkpt>
      <trkpt lat="44.24524" lon="6.69811">
        <ele>2130.42</ele>
        <time>2019-08-05T12:19:56Z</time>
      </trkpt>
      <trkpt lat="44.24535" lon="6.69816">
        <ele>2128.5</ele>
        <time>2019-08-05T12:20:06Z</time>
      </trkpt>
      <trkpt lat="44.24541" lon="6.69818">
        <ele>2124.17</ele>
        <time>2019-08-05T12:20:21Z</time>
      </trkpt>
      <trkpt lat="44.24541" lon="6.69818">
        <ele>2134.74</ele>
        <time>2019-08-05T12:20:22Z</time>
      </trkpt>
    </trkseg>
  </trk>
</gpx>